Time,TemperatureF,DewpointF,PressureIn,WindDirection,WindDirectionDegrees,WindSpeedMPH,WindSpeedGustMPH,Humidity,HourlyPrecipIn,Conditions,Clouds,dailyrainin,SoftwareType,DateUTC
2013-10-29 00:00:00,33.3,26.5,30.37,NE,37,3.6,4.6,76,0.00,RA,OVC,0.00,WeatherDisplay:10.37,2013-10-29 04:00:00,
2013-10-29 00:01:00,33.3,26.5,30.37,NE,37,3.3,5.0,76,0.00,RA,OVC,0.00,WeatherDisplay:10.37,2013-10-29 04:01:00,
2013-10-29 00:02:00,33.3,26.5,30.37,NE,37,3.0,4.6,76,0.00,RA,OVC,0.00,WeatherDisplay:10.37,2013-10-29 04:02:00,
2013-10-29 00:06:00,33.3,26.5,30.37,NE,37,0.9,2.3,76,0.00,RA,OVC,0.00,WeatherDisplay:10.37,2013-10-29 04:06:00,
2013-10-29 00:07:00,33.3,26.2,30.36,NE,37,2.6,3.5,75,0.00,RA,OVC,0.00,WeatherDisplay:10.37,2013-10-29 04:07:00,
2013-10-29 00:11:00,33.3,26.2,30.37,NE,37,1.6,3.5,75,0.00,CLR,OVC,0.00,WeatherDisplay:10.37,2013-10-29 04:11:00,
2013-10-29 00:12:00,33.2,26.1,30.37,NE,37,1.8,3.5,75,0.00,CLR,OVC,0.00,WeatherDisplay:10.37,2013-10-29 04:12:00,
2013-10-29 00:14:00,33.2,26.1,30.37,NE,37,2.5,4.0,75,0.00,CLR,OVC,0.00,WeatherDisplay:10.37,2013-10-29 04:14:00,
2013-10-29 00:16:00,33.1,26.4,30.37,NE,37,3.1,3.5,76,0.00,CLR,OVC,0.00,WeatherDisplay:10.37,2013-10-29 04:16:00,
2013-10-29 00:17:00,33.1,26.4,30.37,NE,37,2.9,4.0,76,0.00,CLR,OVC,0.00,WeatherDisplay:10.37,2013-10-29 04:17:00,
2013-10-29 00:19:00,33.0,26.3,30.37,NE,37,2.0,5.0,76,0.00,CLR,OVC,0.00,WeatherDisplay:10.37,2013-10-29 04:19:00,
2013-10-29 00:21:00,33.0,26.3,30.37,NE,37,3.7,5.8,76,0.00,CLR,OVC,0.00,WeatherDisplay:10.37,2013-10-29 04:21:00,
2013-10-29 00:22:00,33.0,26.3,30.37,NE,37,3.7,5.8,76,0.00,CLR,OVC,0.00,WeatherDisplay:10.37,2013-10-29 04:22:00,
2013-10-29 00:24:00,33.1,26.7,30.37,NE,35,4.0,5.8,77,0.00,CLR,OVC,0.00,WeatherDisplay:10.37,2013-10-29 04:24:00,
2013-10-29 00:26:00,33.1,26.7,30.37,NE,35,3.3,6.0,77,0.00,CLR,OVC,0.00,WeatherDisplay:10.37,2013-10-29 04:26:00,
2013-10-29 00:27:00,33.1,26.7,30.37,NE,35,3.7,3.7,77,0.00,CLR,OVC,0.00,WeatherDisplay:10.37,2013-10-29 04:27:00,
2013-10-29 00:30:00,33.2,26.8,30.37,NE,35,4.3,5.0,77,0.00,CLR,OVC,0.00,WeatherDisplay:10.37,2013-10-29 04:30:00,
2013-10-29 00:32:00,33.2,26.8,30.37,NE,35,2.3,3.5,77,0.00,CLR,OVC,0.00,WeatherDisplay:10.37,2013-10-29 04:32:00,
2013-10-29 00:35:00,33.1,26.4,30.37,NE,35,2.3,5.8,76,0.00,CLR,OVC,0.00,WeatherDisplay:10.37,2013-10-29 04:35:00,
2013-10-29 00:37:00,33.1,26.4,30.38,NE,35,2.5,4.6,76,0.00,CLR,OVC,0.00,WeatherDisplay:10.37,2013-10-29 04:37:00,
2013-10-29 00:41:00,33.0,26.6,30.38,NE,34,4.3,6.9,77,0.00,CLR,OVC,0.00,WeatherDisplay:10.37,2013-10-29 04:41:00,
2013-10-29 00:42:00,33.1,26.7,30.38,NE,34,3.3,5.8,77,0.00,CLR,OVC,0.00,WeatherDisplay:10.37,2013-10-29 04:42:00,
2013-10-29 00:43:00,33.1,26.7,30.37,NE,34,2.7,3.5,77,0.00,CLR,OVC,0.00,WeatherDisplay:10.37,2013-10-29 04:43:00,
2013-10-29 00:46:00,32.9,26.2,30.38,NE,34,1.7,3.5,76,0.00,CLR,OVC,0.00,WeatherDisplay:10.37,2013-10-29 04:46:00,
2013-10-29 00:47:00,32.8,26.1,30.38,NE,34,1.3,3.5,76,0.00,CLR,OVC,0.00,WeatherDisplay:10.37,2013-10-29 04:47:00,
2013-10-29 00:48:00,32.7,26.0,30.37,NE,34,1.2,2.3,76,0.00,CLR,OVC,0.00,WeatherDisplay:10.37,2013-10-29 04:48:00,
2013-10-29 00:49:00,32.5,25.8,30.38,NE,34,0.0,2.3,76,0.00,CLR,OVC,0.00,WeatherDisplay:10.37,2013-10-29 04:49:00,
2013-10-29 00:51:00,32.1,25.7,30.38,NE,34,0.0,0.0,77,0.00,CLR,OVC,0.00,WeatherDisplay:10.37,2013-10-29 04:51:00,
2013-10-29 00:52:00,32.1,25.7,30.38,NE,34,0.0,0.0,77,0.00,CLR,OVC,0.00,WeatherDisplay:10.37,2013-10-29 04:52:00,
2013-10-29 00:53:00,31.9,25.5,30.38,NE,34,0.0,0.0,77,0.00,CLR,OVC,0.00,WeatherDisplay:10.37,2013-10-29 04:53:00,
2013-10-29 00:54:00,31.8,25.4,30.38,NE,34,0.0,0.0,77,0.00,CLR,OVC,0.00,WeatherDisplay:10.37,2013-10-29 04:54:00,
2013-10-29 00:57:00,31.5,25.4,30.38,NE,34,0.0,0.0,78,0.00,CLR,OVC,0.00,WeatherDisplay:10.37,2013-10-29 04:57:00,
2013-10-29 00:58:00,31.5,25.4,30.38,NE,34,0.0,0.0,78,0.00,CLR,OVC,0.00,WeatherDisplay:10.37,2013-10-29 04:58:00,
2013-10-29 00:59:00,31.4,25.6,30.38,NE,34,0.0,0.0,79,0.00,CLR,OVC,0.00,WeatherDisplay:10.37,2013-10-29 04:59:00,
2013-10-29 01:02:00,31.4,25.6,30.38,NE,34,0.0,0.0,79,0.00,CLR,OVC,0.00,WeatherDisplay:10.37,2013-10-29 05:02:00,
2013-10-29 01:03:00,31.4,25.6,30.38,NE,34,0.0,0.0,79,0.00,CLR,OVC,0.00,WeatherDisplay:10.37,2013-10-29 05:03:00,
2013-10-29 01:04:00,31.4,25.6,30.38,NE,34,0.0,0.0,79,0.00,CLR,OVC,0.00,WeatherDisplay:10.37,2013-10-29 05:04:00,
2013-10-29 01:07:00,31.4,25.9,30.38,NE,34,0.0,0.0,80,0.00,CLR,OVC,0.00,WeatherDisplay:10.37,2013-10-29 05:07:00,
2013-10-29 01:08:00,31.4,25.9,30.38,NE,34,0.0,0.0,80,0.00,CLR,OVC,0.00,WeatherDisplay:10.37,2013-10-29 05:08:00,
2013-10-29 01:09:00,31.5,26.0,30.38,NE,34,0.0,0.0,80,0.00,CLR,OVC,0.00,WeatherDisplay:10.37,2013-10-29 05:09:00,
2013-10-29 01:13:00,31.6,26.1,30.38,NE,34,0.0,0.0,80,0.00,CLR,OVC,0.00,WeatherDisplay:10.37,2013-10-29 05:13:00,
2013-10-29 01:14:00,31.6,26.1,30.38,NE,34,0.0,0.0,80,0.00,CLR,OVC,0.00,WeatherDisplay:10.37,2013-10-29 05:14:00,
2013-10-29 01:15:00,31.6,26.1,30.38,NE,34,0.0,0.0,80,0.00,CLR,OVC,0.00,WeatherDisplay:10.37,2013-10-29 05:15:00,
2013-10-29 01:18:00,31.6,26.1,30.38,NE,34,0.0,0.0,80,0.00,CLR,OVC,0.00,WeatherDisplay:10.37,2013-10-29 05:18:00,
2013-10-29 01:19:00,31.7,26.2,30.38,NE,34,0.0,0.0,80,0.00,CLR,OVC,0.00,WeatherDisplay:10.37,2013-10-29 05:19:00,
2013-10-29 01:20:00,31.7,26.2,30.38,NE,34,0.0,1.0,80,0.00,CLR,OVC,0.00,WeatherDisplay:10.37,2013-10-29 05:20:00,
2013-10-29 01:23:00,31.7,26.2,30.38,NE,34,1.3,3.5,80,0.00,CLR,OVC,0.00,WeatherDisplay:10.37,2013-10-29 05:23:00,
2013-10-29 01:24:00,31.7,26.2,30.38,NE,34,0.7,2.3,80,0.00,CLR,OVC,0.00,WeatherDisplay:10.37,2013-10-29 05:24:00,
2013-10-29 01:25:00,31.7,26.2,30.38,NE,34,0.1,1.2,80,0.00,CLR,OVC,0.00,WeatherDisplay:10.37,2013-10-29 05:25:00,
2013-10-29 01:26:00,31.7,26.2,30.38,NE,34,0.0,0.0,80,0.00,CLR,OVC,0.00,WeatherDisplay:10.37,2013-10-29 05:26:00,
2013-10-29 01:28:00,31.7,26.2,30.38,NE,34,0.0,0.0,80,0.00,CLR,OVC,0.00,WeatherDisplay:10.37,2013-10-29 05:28:00,
2013-10-29 01:29:00,31.7,26.2,30.38,NE,34,0.0,0.0,80,0.00,CLR,OVC,0.00,WeatherDisplay:10.37,2013-10-29 05:29:00,
2013-10-29 01:30:00,31.7,25.9,30.38,NE,34,0.0,0.0,79,0.00,CLR,OVC,0.00,WeatherDisplay:10.37,2013-10-29 05:30:00,
2013-10-29 01:31:00,31.7,26.2,30.38,NE,34,0.0,0.0,80,0.00,CLR,OVC,0.00,WeatherDisplay:10.37,2013-10-29 05:31:00,
2013-10-29 01:33:00,31.7,26.2,30.38,NE,34,0.3,2.3,80,0.00,CLR,OVC,0.00,WeatherDisplay:10.37,2013-10-29 05:33:00,
2013-10-29 01:34:00,31.7,26.2,30.38,NE,34,0.4,2.0,80,0.00,CLR,OVC,0.00,WeatherDisplay:10.37,2013-10-29 05:34:00,
2013-10-29 01:35:00,31.7,26.2,30.38,NE,34,1.4,2.3,80,0.00,CLR,OVC,0.00,WeatherDisplay:10.37,2013-10-29 05:35:00,
2013-10-29 01:36:00,31.7,26.2,30.38,NE,34,0.7,2.3,80,0.00,CLR,OVC,0.00,WeatherDisplay:10.37,2013-10-29 05:36:00,
2013-10-29 01:38:00,31.7,26.2,30.38,NE,34,0.0,0.0,80,0.00,CLR,OVC,0.00,WeatherDisplay:10.37,2013-10-29 05:38:00,
2013-10-29 01:39:00,31.7,25.9,30.38,NE,34,0.0,0.0,79,0.00,CLR,OVC,0.00,WeatherDisplay:10.37,2013-10-29 05:39:00,
2013-10-29 01:40:00,31.7,25.9,30.38,NE,34,0.0,0.0,79,0.00,CLR,OVC,0.00,WeatherDisplay:10.37,2013-10-29 05:40:00,
2013-10-29 01:41:00,31.6,25.8,30.38,NE,34,0.0,0.0,79,0.00,CLR,OVC,0.00,WeatherDisplay:10.37,2013-10-29 05:41:00,
2013-10-29 01:43:00,31.6,26.1,30.38,NE,34,0.0,0.0,80,0.00,CLR,OVC,0.00,WeatherDisplay:10.37,2013-10-29 05:43:00,
2013-10-29 01:45:00,31.5,25.7,30.38,NE,34,0.0,0.0,79,0.00,CLR,OVC,0.00,WeatherDisplay:10.37,2013-10-29 05:45:00,
2013-10-29 01:46:00,31.4,25.9,30.38,NE,34,0.0,0.0,80,0.00,CLR,OVC,0.00,WeatherDisplay:10.37,2013-10-29 05:46:00,
2013-10-29 01:49:00,31.3,25.5,30.38,NE,34,0.0,0.0,79,0.00,CLR,OVC,0.00,WeatherDisplay:10.37,2013-10-29 05:49:00,
2013-10-29 01:50:00,31.2,25.4,30.39,NE,34,0.0,0.0,79,0.00,CLR,OVC,0.00,WeatherDisplay:10.37,2013-10-29 05:50:00,
2013-10-29 01:51:00,31.1,25.7,30.38,NE,34,0.0,0.0,80,0.00,CLR,OVC,0.00,WeatherDisplay:10.37,2013-10-29 05:51:00,
2013-10-29 01:52:00,31.1,25.7,30.38,NE,34,0.0,0.0,80,0.00,CLR,OVC,0.00,WeatherDisplay:10.37,2013-10-29 05:52:00,
2013-10-29 01:54:00,30.9,25.5,30.39,NE,34,0.0,0.0,80,0.00,CLR,OVC,0.00,WeatherDisplay:10.37,2013-10-29 05:54:00,
2013-10-29 01:55:00,30.8,25.4,30.38,NE,34,0.0,0.0,80,0.00,CLR,OVC,0.00,WeatherDisplay:10.37,2013-10-29 05:55:00,
2013-10-29 01:56:00,30.8,25.4,30.38,NE,34,0.0,0.0,80,0.00,CLR,OVC,0.00,WeatherDisplay:10.37,2013-10-29 05:56:00,
2013-10-29 01:57:00,30.8,25.4,30.38,NE,34,0.0,0.0,80,0.00,CLR,OVC,0.00,WeatherDisplay:10.37,2013-10-29 05:57:00,
2013-10-29 01:59:00,30.7,25.6,30.38,NE,34,0.0,0.0,81,0.00,CLR,OVC,0.00,WeatherDisplay:10.37,2013-10-29 05:59:00,
2013-10-29 02:00:00,30.6,25.5,30.38,NE,34,0.0,0.0,81,0.00,CLR,OVC,0.00,WeatherDisplay:10.37,2013-10-29 06:00:00,
2013-10-29 02:01:00,30.6,25.5,30.38,NE,34,0.0,0.0,81,0.00,CLR,OVC,0.00,WeatherDisplay:10.37,2013-10-29 06:01:00,
2013-10-29 02:02:00,30.6,25.5,30.38,NE,34,0.0,0.0,81,0.00,CLR,OVC,0.00,WeatherDisplay:10.37,2013-10-29 06:02:00,
2013-10-29 02:03:00,30.6,25.5,30.38,NE,34,0.0,0.0,81,0.00,CLR,OVC,0.00,WeatherDisplay:10.37,2013-10-29 06:03:00,
2013-10-29 02:04:00,30.6,25.5,30.38,NE,34,0.0,0.0,81,0.00,CLR,OVC,0.00,WeatherDisplay:10.37,2013-10-29 06:04:00,
2013-10-29 02:06:00,30.6,25.8,30.38,NE,34,0.0,0.0,82,0.00,CLR,OVC,0.00,WeatherDisplay:10.37,2013-10-29 06:06:00,
2013-10-29 02:07:00,30.6,25.8,30.39,NE,34,0.0,0.0,82,0.00,CLR,OVC,0.00,WeatherDisplay:10.37,2013-10-29 06:07:00,
2013-10-29 02:09:00,30.7,25.9,30.38,NE,34,0.0,0.0,82,0.00,CLR,OVC,0.00,WeatherDisplay:10.37,2013-10-29 06:09:00,
2013-10-29 02:11:00,30.7,25.9,30.39,NE,34,0.0,0.0,82,0.00,CLR,OVC,0.00,WeatherDisplay:10.37,2013-10-29 06:11:00,
2013-10-29 02:12:00,30.7,25.9,30.39,NE,34,0.0,0.0,82,0.00,CLR,OVC,0.00,WeatherDisplay:10.37,2013-10-29 06:12:00,
2013-10-29 02:14:00,30.6,25.5,30.39,NE,34,0.0,0.0,81,0.00,CLR,OVC,0.00,WeatherDisplay:10.37,2013-10-29 06:14:00,
2013-10-29 02:16:00,30.4,25.3,30.39,NE,34,0.0,0.0,81,0.00,CLR,OVC,0.00,WeatherDisplay:10.37,2013-10-29 06:16:00,
2013-10-29 02:17:00,30.2,25.1,30.39,NE,34,0.0,0.0,81,0.00,CLR,OVC,0.00,WeatherDisplay:10.37,2013-10-29 06:17:00,
2013-10-29 02:18:00,30.2,25.1,30.39,NE,34,0.0,0.0,81,0.00,CLR,OVC,0.00,WeatherDisplay:10.37,2013-10-29 06:18:00,
2013-10-29 02:20:00,29.9,24.8,30.39,NE,34,0.0,0.0,81,0.00,CLR,OVC,0.00,WeatherDisplay:10.37,2013-10-29 06:20:00,
2013-10-29 02:21:00,29.8,25.0,30.39,NE,34,0.0,0.0,82,0.00,CLR,OVC,0.00,WeatherDisplay:10.37,2013-10-29 06:21:00,
2013-10-29 02:22:00,29.8,25.0,30.39,NE,34,0.0,0.0,82,0.00,CLR,OVC,0.00,WeatherDisplay:10.37,2013-10-29 06:22:00,
2013-10-29 02:23:00,29.7,24.9,30.39,NE,34,0.0,0.0,82,0.00,CLR,OVC,0.00,WeatherDisplay:10.37,2013-10-29 06:23:00,
2013-10-29 02:25:00,29.5,24.7,30.39,NE,34,0.0,0.0,82,0.00,CLR,OVC,0.00,WeatherDisplay:10.37,2013-10-29 06:25:00,
2013-10-29 02:26:00,29.6,24.8,30.39,NE,34,0.0,0.0,82,0.00,CLR,OVC,0.00,WeatherDisplay:10.37,2013-10-29 06:26:00,
2013-10-29 02:27:00,29.6,24.8,30.39,NE,34,0.0,0.0,82,0.00,CLR,OVC,0.00,WeatherDisplay:10.37,2013-10-29 06:27:00,
2013-10-29 02:28:00,29.6,25.1,30.39,NE,34,0.0,0.0,83,0.00,CLR,OVC,0.00,WeatherDisplay:10.37,2013-10-29 06:28:00,
2013-10-29 02:30:00,29.6,25.1,30.39,NE,34,0.0,0.0,83,0.00,CLR,OVC,0.00,WeatherDisplay:10.37,2013-10-29 06:30:00,
2013-10-29 02:31:00,29.6,25.1,30.39,NE,34,1.7,3.5,83,0.00,CLR,OVC,0.00,WeatherDisplay:10.37,2013-10-29 06:31:00,
2013-10-29 02:32:00,29.6,25.1,30.39,NE,34,1.2,3.5,83,0.00,CLR,OVC,0.00,WeatherDisplay:10.37,2013-10-29 06:32:00,
2013-10-29 02:33:00,29.6,25.4,30.39,NE,34,0.7,2.3,84,0.00,CLR,OVC,0.00,WeatherDisplay:10.37,2013-10-29 06:33:00,
2013-10-29 02:35:00,29.6,25.4,30.39,NE,34,1.8,2.3,84,0.00,CLR,OVC,0.00,WeatherDisplay:10.37,2013-10-29 06:35:00,
2013-10-29 02:36:00,29.6,25.4,30.39,NE,34,2.0,3.5,84,0.00,CLR,OVC,0.00,WeatherDisplay:10.37,2013-10-29 06:36:00,
2013-10-29 02:37:00,29.6,25.4,30.39,NE,34,2.0,3.5,84,0.00,CLR,OVC,0.00,WeatherDisplay:10.37,2013-10-29 06:37:00,
2013-10-29 02:38:00,29.7,25.5,30.39,NE,34,2.5,3.5,84,0.00,CLR,OVC,0.00,WeatherDisplay:10.37,2013-10-29 06:38:00,
2013-10-29 02:40:00,29.8,25.6,30.39,NE,34,2.8,3.5,84,0.00,CLR,OVC,0.00,WeatherDisplay:10.37,2013-10-29 06:40:00,
2013-10-29 02:41:00,29.8,25.6,30.39,NE,34,2.1,3.5,84,0.00,CLR,OVC,0.00,WeatherDisplay:10.37,2013-10-29 06:41:00,
2013-10-29 02:42:00,29.8,25.6,30.39,NE,34,1.9,2.3,84,0.00,CLR,OVC,0.00,WeatherDisplay:10.37,2013-10-29 06:42:00,
2013-10-29 02:43:00,29.8,25.6,30.39,NE,34,2.5,3.5,84,0.00,CLR,OVC,0.00,WeatherDisplay:10.37,2013-10-29 06:43:00,
2013-10-29 02:44:00,29.8,25.6,30.39,NE,34,2.7,3.5,84,0.00,CLR,OVC,0.00,WeatherDisplay:10.37,2013-10-29 06:44:00,
2013-10-29 02:45:00,29.9,25.7,30.39,NE,34,1.2,2.3,84,0.00,CLR,OVC,0.00,WeatherDisplay:10.37,2013-10-29 06:45:00,
2013-10-29 02:47:00,29.9,25.7,30.40,NE,34,1.0,2.0,84,0.00,CLR,OVC,0.00,WeatherDisplay:10.37,2013-10-29 06:47:00,
2013-10-29 02:48:00,29.9,25.7,30.39,NE,34,1.6,2.3,84,0.00,CLR,OVC,0.00,WeatherDisplay:10.37,2013-10-29 06:48:00,
2013-10-29 02:49:00,30.0,25.8,30.39,NE,34,0.1,2.3,84,0.00,CLR,OVC,0.00,WeatherDisplay:10.37,2013-10-29 06:49:00,
2013-10-29 02:50:00,30.0,25.8,30.39,NE,34,0.0,0.0,84,0.00,CLR,OVC,0.00,WeatherDisplay:10.37,2013-10-29 06:50:00,
2013-10-29 02:52:00,30.2,25.9,30.39,NE,34,0.0,0.0,84,0.00,CLR,OVC,0.00,WeatherDisplay:10.37,2013-10-29 06:52:00,
2013-10-29 02:53:00,30.2,25.9,30.39,NE,34,0.4,1.0,84,0.00,CLR,OVC,0.00,WeatherDisplay:10.37,2013-10-29 06:53:00,
2013-10-29 02:54:00,30.2,25.7,30.40,NE,34,0.1,2.3,83,0.00,CLR,OVC,0.00,WeatherDisplay:10.37,2013-10-29 06:54:00,
2013-10-29 02:55:00,30.2,25.7,30.40,NE,34,0.0,2.3,83,0.00,CLR,OVC,0.00,WeatherDisplay:10.37,2013-10-29 06:55:00,
2013-10-29 02:57:00,30.1,25.6,30.39,NE,34,0.0,1.0,83,0.00,CLR,OVC,0.00,WeatherDisplay:10.37,2013-10-29 06:57:00,
2013-10-29 02:58:00,30.1,25.8,30.40,NE,34,0.3,1.0,84,0.00,CLR,OVC,0.00,WeatherDisplay:10.37,2013-10-29 06:58:00,
2013-10-29 03:00:00,30.0,25.5,30.40,NE,34,1.7,3.5,83,0.00,CLR,OVC,0.00,WeatherDisplay:10.37,2013-10-29 07:00:00,
2013-10-29 03:02:00,29.8,25.3,30.40,NE,34,0.0,0.0,83,0.00,CLR,OVC,0.00,WeatherDisplay:10.37,2013-10-29 07:02:00,
2013-10-29 03:03:00,29.8,25.0,30.40,NE,34,0.0,0.0,82,0.00,CLR,OVC,0.00,WeatherDisplay:10.37,2013-10-29 07:03:00,
2013-10-29 03:05:00,29.5,24.7,30.40,NE,34,0.0,0.0,82,0.00,CLR,OVC,0.00,WeatherDisplay:10.37,2013-10-29 07:05:00,
2013-10-29 03:08:00,29.2,24.7,30.39,NE,34,0.0,0.0,83,0.00,CLR,OVC,0.00,WeatherDisplay:10.37,2013-10-29 07:08:00,
2013-10-29 03:09:00,29.1,24.6,30.40,NE,34,0.0,0.0,83,0.00,CLR,OVC,0.00,WeatherDisplay:10.37,2013-10-29 07:09:00,
2013-10-29 03:11:00,28.9,24.4,30.40,NE,34,0.0,0.0,83,0.00,CLR,OVC,0.00,WeatherDisplay:10.37,2013-10-29 07:11:00,
2013-10-29 03:13:00,28.8,24.3,30.40,NE,34,0.1,2.0,83,0.00,CLR,OVC,0.00,WeatherDisplay:10.37,2013-10-29 07:13:00,
2013-10-29 03:14:00,28.6,24.1,30.40,NE,34,1.8,3.0,83,0.00,CLR,OVC,0.00,WeatherDisplay:10.37,2013-10-29 07:14:00,
2013-10-29 03:16:00,28.5,24.0,30.40,NE,34,2.6,3.5,83,0.00,CLR,OVC,0.00,WeatherDisplay:10.37,2013-10-29 07:16:00,
2013-10-29 03:17:00,28.4,23.9,30.40,NE,34,1.7,3.5,83,0.00,CLR,OVC,0.00,WeatherDisplay:10.37,2013-10-29 07:17:00,
2013-10-29 03:18:00,28.4,23.9,30.39,NE,34,1.3,2.3,83,0.00,CLR,OVC,0.00,WeatherDisplay:10.37,2013-10-29 07:18:00,
2013-10-29 03:19:00,28.3,24.1,30.39,NE,34,0.1,2.3,84,0.00,CLR,OVC,0.00,WeatherDisplay:10.37,2013-10-29 07:19:00,
2013-10-29 03:20:00,28.2,24.0,30.40,NE,34,0.3,2.0,84,0.00,CLR,OVC,0.00,WeatherDisplay:10.37,2013-10-29 07:20:00,
2013-10-29 03:21:00,28.0,23.8,30.39,NE,34,1.3,2.3,84,0.00,CLR,OVC,0.00,WeatherDisplay:10.37,2013-10-29 07:21:00,
2013-10-29 03:22:00,28.0,23.8,30.40,NE,34,0.7,2.3,84,0.00,CLR,OVC,0.00,WeatherDisplay:10.37,2013-10-29 07:22:00,
2013-10-29 03:23:00,28.0,23.8,30.39,NE,34,0.0,1.2,84,0.00,CLR,OVC,0.00,WeatherDisplay:10.37,2013-10-29 07:23:00,
2013-10-29 03:24:00,27.9,23.7,30.40,NE,34,0.3,1.0,84,0.00,CLR,OVC,0.00,WeatherDisplay:10.37,2013-10-29 07:24:00,
2013-10-29 03:25:00,27.8,23.6,30.39,NE,34,0.7,1.2,84,0.00,CLR,OVC,0.00,WeatherDisplay:10.37,2013-10-29 07:25:00,
2013-10-29 03:26:00,27.7,23.5,30.40,NE,34,0.0,1.2,84,0.00,CLR,OVC,0.00,WeatherDisplay:10.37,2013-10-29 07:26:00,
2013-10-29 03:27:00,27.6,23.7,30.40,NE,34,0.0,0.0,85,0.00,CLR,OVC,0.00,WeatherDisplay:10.37,2013-10-29 07:27:00,
2013-10-29 03:28:00,27.5,23.6,30.40,NE,34,0.0,0.0,85,0.00,CLR,OVC,0.00,WeatherDisplay:10.37,2013-10-29 07:28:00,
2013-10-29 03:29:00,27.5,23.6,30.40,NE,34,0.0,0.0,85,0.00,CLR,OVC,0.00,WeatherDisplay:10.37,2013-10-29 07:29:00,
2013-10-29 03:30:00,27.4,23.5,30.40,NE,34,0.1,1.0,85,0.00,CLR,OVC,0.00,WeatherDisplay:10.37,2013-10-29 07:30:00,
2013-10-29 03:31:00,27.4,23.5,30.40,NE,34,0.5,2.0,85,0.00,CLR,OVC,0.00,WeatherDisplay:10.37,2013-10-29 07:31:00,
2013-10-29 03:32:00,27.3,23.4,30.40,NE,34,2.7,3.5,85,0.00,CLR,OVC,0.00,WeatherDisplay:10.37,2013-10-29 07:32:00,
2013-10-29 03:34:00,27.2,23.3,30.40,NE,34,2.3,3.5,85,0.00,CLR,OVC,0.00,WeatherDisplay:10.37,2013-10-29 07:34:00,
2013-10-29 03:35:00,27.2,23.6,30.40,NE,34,2.0,3.5,86,0.00,CLR,OVC,0.00,WeatherDisplay:10.37,2013-10-29 07:35:00,
2013-10-29 03:36:00,27.2,23.6,30.40,NE,34,1.3,3.5,86,0.00,CLR,OVC,0.00,WeatherDisplay:10.37,2013-10-29 07:36:00,
2013-10-29 03:38:00,27.2,23.6,30.40,NE,34,0.0,1.2,86,0.00,CLR,OVC,0.00,WeatherDisplay:10.37,2013-10-29 07:38:00,
2013-10-29 03:39:00,27.3,23.9,30.40,NE,34,0.1,1.2,87,0.00,CLR,OVC,0.00,WeatherDisplay:10.37,2013-10-29 07:39:00,
2013-10-29 03:40:00,27.3,23.7,30.40,NE,34,0.0,1.2,86,0.00,CLR,OVC,0.00,WeatherDisplay:10.37,2013-10-29 07:40:00,
2013-10-29 03:41:00,27.4,24.0,30.40,NE,34,0.0,0.0,87,0.00,CLR,OVC,0.00,WeatherDisplay:10.37,2013-10-29 07:41:00,
2013-10-29 03:43:00,27.5,24.1,30.40,NE,34,0.1,1.0,87,0.00,CLR,OVC,0.00,WeatherDisplay:10.37,2013-10-29 07:43:00,
2013-10-29 03:45:00,27.6,24.2,30.40,NE,34,1.1,2.3,87,0.00,CLR,OVC,0.00,WeatherDisplay:10.37,2013-10-29 07:45:00,
2013-10-29 03:46:00,27.7,24.3,30.40,NE,34,0.0,2.3,87,0.00,CLR,OVC,0.00,WeatherDisplay:10.37,2013-10-29 07:46:00,
2013-10-29 03:47:00,27.7,24.3,30.40,NE,34,0.0,0.0,87,0.00,CLR,OVC,0.00,WeatherDisplay:10.37,2013-10-29 07:47:00,
2013-10-29 03:48:00,27.8,24.4,30.40,NE,34,0.7,1.0,87,0.00,CLR,OVC,0.00,WeatherDisplay:10.37,2013-10-29 07:48:00,
2013-10-29 03:50:00,27.8,24.4,30.40,NE,34,1.4,2.3,87,0.00,CLR,OVC,0.00,WeatherDisplay:10.37,2013-10-29 07:50:00,
2013-10-29 03:52:00,27.8,24.4,30.41,NE,34,1.8,3.5,87,0.00,CLR,OVC,0.00,WeatherDisplay:10.37,2013-10-29 07:52:00,
2013-10-29 03:54:00,27.9,24.5,30.40,NE,34,1.3,2.3,87,0.00,CLR,OVC,0.00,WeatherDisplay:10.37,2013-10-29 07:54:00,
2013-10-29 03:55:00,27.9,24.5,30.40,NE,34,1.6,2.3,87,0.00,CLR,OVC,0.00,WeatherDisplay:10.37,2013-10-29 07:55:00,
2013-10-29 03:56:00,27.9,24.5,30.40,NE,34,1.6,2.3,87,0.00,CLR,OVC,0.00,WeatherDisplay:10.37,2013-10-29 07:56:00,
2013-10-29 03:57:00,27.9,24.5,30.40,NE,34,1.6,2.3,87,0.00,CLR,OVC,0.00,WeatherDisplay:10.37,2013-10-29 07:57:00,
2013-10-29 03:58:00,28.0,24.6,30.40,NE,34,1.1,2.3,87,0.00,CLR,OVC,0.00,WeatherDisplay:10.37,2013-10-29 07:58:00,
2013-10-29 03:59:00,28.0,24.6,30.40,NE,34,1.8,2.3,87,0.00,CLR,OVC,0.00,WeatherDisplay:10.37,2013-10-29 07:59:00,
2013-10-29 04:01:00,28.1,24.7,30.40,NE,34,0.4,2.3,87,0.00,CLR,OVC,0.00,WeatherDisplay:10.37,2013-10-29 08:01:00,
2013-10-29 04:02:00,28.0,24.6,30.40,NE,34,0.0,1.2,87,0.00,CLR,OVC,0.00,WeatherDisplay:10.37,2013-10-29 08:02:00,
2013-10-29 04:03:00,28.1,24.7,30.40,NE,34,0.0,0.0,87,0.00,CLR,OVC,0.00,WeatherDisplay:10.37,2013-10-29 08:03:00,
2013-10-29 04:04:00,28.0,24.6,30.40,NE,34,0.0,0.0,87,0.00,CLR,OVC,0.00,WeatherDisplay:10.37,2013-10-29 08:04:00,
2013-10-29 04:06:00,27.8,24.4,30.40,NE,34,0.0,0.0,87,0.00,CLR,OVC,0.00,WeatherDisplay:10.37,2013-10-29 08:06:00,
2013-10-29 04:07:00,27.5,24.1,30.40,NE,34,0.0,0.0,87,0.00,CLR,OVC,0.00,WeatherDisplay:10.37,2013-10-29 08:07:00,
2013-10-29 04:09:00,27.5,24.1,30.40,NE,34,0.0,0.0,87,0.00,CLR,OVC,0.00,WeatherDisplay:10.37,2013-10-29 08:09:00,
2013-10-29 04:11:00,27.5,24.1,30.40,NE,34,0.0,0.0,87,0.00,CLR,OVC,0.00,WeatherDisplay:10.37,2013-10-29 08:11:00,
2013-10-29 04:12:00,27.4,24.0,30.40,NE,34,0.0,0.0,87,0.00,CLR,OVC,0.00,WeatherDisplay:10.37,2013-10-29 08:12:00,
2013-10-29 04:14:00,27.4,24.0,30.40,NE,34,0.0,0.0,87,0.00,CLR,OVC,0.00,WeatherDisplay:10.37,2013-10-29 08:14:00,
2013-10-29 04:15:00,27.3,23.7,30.40,NE,34,0.0,0.0,86,0.00,CLR,OVC,0.00,WeatherDisplay:10.37,2013-10-29 08:15:00,
2013-10-29 04:16:00,27.2,23.8,30.40,NE,34,0.0,0.0,87,0.00,CLR,OVC,0.00,WeatherDisplay:10.37,2013-10-29 08:16:00,
2013-10-29 04:17:00,27.2,23.8,30.40,NE,34,0.0,0.0,87,0.00,CLR,OVC,0.00,WeatherDisplay:10.37,2013-10-29 08:17:00,
2013-10-29 04:19:00,27.0,23.6,30.40,NE,34,0.0,0.0,87,0.00,CLR,OVC,0.00,WeatherDisplay:10.37,2013-10-29 08:19:00,
2013-10-29 04:20:00,27.0,23.6,30.40,NE,34,0.0,0.0,87,0.00,CLR,OVC,0.00,WeatherDisplay:10.37,2013-10-29 08:20:00,
2013-10-29 04:21:00,26.8,23.4,30.40,NE,34,0.0,0.0,87,0.00,CLR,OVC,0.00,WeatherDisplay:10.37,2013-10-29 08:21:00,
2013-10-29 04:22:00,26.8,23.4,30.40,NE,34,0.0,0.0,87,0.00,CLR,OVC,0.00,WeatherDisplay:10.37,2013-10-29 08:22:00,
2013-10-29 04:25:00,26.9,23.5,30.40,NE,34,0.0,0.0,87,0.00,CLR,OVC,0.00,WeatherDisplay:10.37,2013-10-29 08:25:00,
2013-10-29 04:26:00,26.8,23.4,30.40,NE,34,0.0,0.0,87,0.00,CLR,OVC,0.00,WeatherDisplay:10.37,2013-10-29 08:26:00,
2013-10-29 04:27:00,26.8,23.4,30.40,NE,34,0.0,0.0,87,0.00,CLR,OVC,0.00,WeatherDisplay:10.37,2013-10-29 08:27:00,
2013-10-29 04:28:00,26.7,23.4,30.40,NE,34,0.0,0.0,87,0.00,CLR,OVC,0.00,WeatherDisplay:10.37,2013-10-29 08:28:00,
2013-10-29 04:30:00,26.6,23.3,30.40,NE,34,0.0,0.0,87,0.00,CLR,OVC,0.00,WeatherDisplay:10.37,2013-10-29 08:30:00,
2013-10-29 04:31:00,26.6,23.3,30.40,NE,34,0.0,0.0,87,0.00,CLR,OVC,0.00,WeatherDisplay:10.37,2013-10-29 08:31:00,
2013-10-29 04:32:00,26.5,23.2,30.40,NE,34,0.0,0.0,87,0.00,CLR,OVC,0.00,WeatherDisplay:10.37,2013-10-29 08:32:00,
2013-10-29 04:33:00,26.5,23.2,30.40,NE,34,0.0,0.0,87,0.00,CLR,OVC,0.00,WeatherDisplay:10.37,2013-10-29 08:33:00,
2013-10-29 04:35:00,26.4,23.1,30.40,NE,34,0.0,0.0,87,0.00,CLR,OVC,0.00,WeatherDisplay:10.37,2013-10-29 08:35:00,
2013-10-29 04:36:00,26.3,23.0,30.40,NE,34,0.0,0.0,87,0.00,CLR,OVC,0.00,WeatherDisplay:10.37,2013-10-29 08:36:00,
2013-10-29 04:37:00,26.3,23.0,30.40,NE,34,0.0,0.0,87,0.00,CLR,OVC,0.00,WeatherDisplay:10.37,2013-10-29 08:37:00,
2013-10-29 04:38:00,26.3,23.0,30.40,NE,34,0.0,0.0,87,0.00,CLR,OVC,0.00,WeatherDisplay:10.37,2013-10-29 08:38:00,
2013-10-29 04:40:00,26.3,23.0,30.40,NE,34,0.0,0.0,87,0.00,CLR,OVC,0.00,WeatherDisplay:10.37,2013-10-29 08:40:00,
2013-10-29 04:42:00,26.3,23.2,30.40,NE,34,0.9,1.0,88,0.00,CLR,OVC,0.00,WeatherDisplay:10.37,2013-10-29 08:42:00,
2013-10-29 04:43:00,26.3,23.2,30.40,NE,34,0.9,2.3,88,0.00,CLR,OVC,0.00,WeatherDisplay:10.37,2013-10-29 08:43:00,
2013-10-29 04:45:00,26.5,23.4,30.40,NE,34,0.0,0.0,88,0.00,CLR,OVC,0.00,WeatherDisplay:10.37,2013-10-29 08:45:00,
2013-10-29 04:47:00,26.5,23.4,30.40,NE,34,0.7,2.3,88,0.00,CLR,OVC,0.00,WeatherDisplay:10.37,2013-10-29 08:47:00,
2013-10-29 04:48:00,26.5,23.4,30.41,NE,34,0.8,2.3,88,0.00,CLR,OVC,0.00,WeatherDisplay:10.37,2013-10-29 08:48:00,
2013-10-29 04:49:00,26.5,23.4,30.41,NE,34,0.0,2.3,88,0.00,CLR,OVC,0.00,WeatherDisplay:10.37,2013-10-29 08:49:00,
2013-10-29 04:51:00,26.5,23.4,30.41,NE,34,0.0,0.0,88,0.00,CLR,OVC,0.00,WeatherDisplay:10.37,2013-10-29 08:51:00,
2013-10-29 04:53:00,26.4,23.3,30.40,NE,34,0.0,0.0,88,0.00,CLR,OVC,0.00,WeatherDisplay:10.37,2013-10-29 08:53:00,
2013-10-29 04:54:00,26.4,23.3,30.41,NE,34,0.0,0.0,88,0.00,CLR,OVC,0.00,WeatherDisplay:10.37,2013-10-29 08:54:00,
2013-10-29 04:56:00,26.3,23.2,30.41,NE,34,0.0,0.0,88,0.00,CLR,OVC,0.00,WeatherDisplay:10.37,2013-10-29 08:56:00,
2013-10-29 04:58:00,26.2,23.1,30.41,NE,34,1.9,3.5,88,0.00,CLR,OVC,0.00,WeatherDisplay:10.37,2013-10-29 08:58:00,
2013-10-29 04:59:00,26.2,23.1,30.41,NE,34,1.7,2.3,88,0.00,CLR,OVC,0.00,WeatherDisplay:10.37,2013-10-29 08:59:00,
2013-10-29 05:01:00,26.1,23.3,30.41,NE,34,0.0,0.0,89,0.00,CLR,OVC,0.00,WeatherDisplay:10.37,2013-10-29 09:01:00,
2013-10-29 05:03:00,26.0,22.9,30.41,NE,34,0.0,0.0,88,0.00,CLR,OVC,0.00,WeatherDisplay:10.37,2013-10-29 09:03:00,
2013-10-29 05:04:00,26.0,23.2,30.41,NE,34,0.0,0.0,89,0.00,CLR,OVC,0.00,WeatherDisplay:10.37,2013-10-29 09:04:00,
2013-10-29 05:05:00,26.0,23.2,30.41,NE,34,0.0,0.0,89,0.00,CLR,OVC,0.00,WeatherDisplay:10.37,2013-10-29 09:05:00,
2013-10-29 05:06:00,26.0,23.2,30.41,NE,34,0.0,1.2,89,0.00,CLR,OVC,0.00,WeatherDisplay:10.37,2013-10-29 09:06:00,
2013-10-29 05:08:00,26.0,23.2,30.41,NE,34,0.0,0.0,89,0.00,CLR,OVC,0.00,WeatherDisplay:10.37,2013-10-29 09:08:00,
2013-10-29 05:09:00,26.0,23.2,30.41,NE,34,0.0,0.0,89,0.00,CLR,OVC,0.00,WeatherDisplay:10.37,2013-10-29 09:09:00,
2013-10-29 05:10:00,26.0,23.2,30.41,NE,34,0.0,0.0,89,0.00,CLR,OVC,0.00,WeatherDisplay:10.37,2013-10-29 09:10:00,
2013-10-29 05:12:00,26.0,23.2,30.41,NE,34,0.0,0.0,89,0.00,CLR,OVC,0.00,WeatherDisplay:10.37,2013-10-29 09:12:00,
2013-10-29 05:13:00,26.1,23.3,30.41,NE,34,0.0,0.0,89,0.00,CLR,OVC,0.00,WeatherDisplay:10.37,2013-10-29 09:13:00,
2013-10-29 05:14:00,26.0,23.2,30.41,NE,34,0.0,0.0,89,0.00,CLR,OVC,0.00,WeatherDisplay:10.37,2013-10-29 09:14:00,
2013-10-29 05:15:00,26.1,23.3,30.41,NE,34,0.0,0.0,89,0.00,CLR,OVC,0.00,WeatherDisplay:10.37,2013-10-29 09:15:00,
2013-10-29 05:17:00,26.1,23.3,30.41,NE,34,0.0,0.0,89,0.00,CLR,OVC,0.00,WeatherDisplay:10.37,2013-10-29 09:17:00,
2013-10-29 05:18:00,26.1,23.3,30.41,NE,34,0.0,0.0,89,0.00,CLR,OVC,0.00,WeatherDisplay:10.37,2013-10-29 09:18:00,
2013-10-29 05:19:00,26.1,23.3,30.41,NE,34,0.0,0.0,89,0.00,CLR,OVC,0.00,WeatherDisplay:10.37,2013-10-29 09:19:00,
2013-10-29 05:20:00,26.1,23.3,30.42,NE,34,0.0,0.0,89,0.00,CLR,OVC,0.00,WeatherDisplay:10.37,2013-10-29 09:20:00,
2013-10-29 05:22:00,26.1,23.3,30.42,NE,34,0.0,2.0,89,0.00,CLR,OVC,0.00,WeatherDisplay:10.37,2013-10-29 09:22:00,
2013-10-29 05:23:00,26.1,23.3,30.42,NE,34,0.9,2.0,89,0.00,CLR,OVC,0.00,WeatherDisplay:10.37,2013-10-29 09:23:00,
2013-10-29 05:24:00,26.1,23.3,30.42,NE,34,1.0,2.3,89,0.00,CLR,OVC,0.00,WeatherDisplay:10.37,2013-10-29 09:24:00,
2013-10-29 05:25:00,26.1,23.3,30.42,NE,34,0.3,2.3,89,0.00,CLR,OVC,0.00,WeatherDisplay:10.37,2013-10-29 09:25:00,
2013-10-29 05:26:00,26.1,23.3,30.42,NE,34,0.0,1.2,89,0.00,CLR,OVC,0.00,WeatherDisplay:10.37,2013-10-29 09:26:00,
2013-10-29 05:28:00,26.1,23.6,30.42,NE,34,0.0,0.0,90,0.00,CLR,OVC,0.00,WeatherDisplay:10.37,2013-10-29 09:28:00,
2013-10-29 05:29:00,26.1,23.6,30.42,NE,34,0.0,1.0,90,0.00,CLR,OVC,0.00,WeatherDisplay:10.37,2013-10-29 09:29:00,
2013-10-29 05:30:00,26.1,23.6,30.42,NE,34,0.4,1.0,90,0.00,CLR,OVC,0.00,WeatherDisplay:10.37,2013-10-29 09:30:00,
2013-10-29 05:31:00,26.0,23.2,30.42,NE,34,1.2,2.3,89,0.00,CLR,OVC,0.00,WeatherDisplay:10.37,2013-10-29 09:31:00,
2013-10-29 05:34:00,26.0,23.2,30.42,NE,34,0.5,2.3,89,0.00,CLR,OVC,0.00,WeatherDisplay:10.37,2013-10-29 09:34:00,
2013-10-29 05:35:00,25.9,23.4,30.42,NE,34,0.0,1.2,90,0.00,CLR,OVC,0.00,WeatherDisplay:10.37,2013-10-29 09:35:00,
2013-10-29 05:37:00,25.8,23.0,30.42,NE,34,0.0,0.0,89,0.00,CLR,OVC,0.00,WeatherDisplay:10.37,2013-10-29 09:37:00,
2013-10-29 05:39:00,25.8,23.0,30.42,NE,34,0.0,0.0,89,0.00,CLR,OVC,0.00,WeatherDisplay:10.37,2013-10-29 09:39:00,
2013-10-29 05:40:00,25.8,23.0,30.42,NE,34,0.0,0.0,89,0.00,CLR,OVC,0.00,WeatherDisplay:10.37,2013-10-29 09:40:00,
2013-10-29 05:42:00,25.7,22.9,30.42,NE,34,0.0,0.0,89,0.00,CLR,OVC,0.00,WeatherDisplay:10.37,2013-10-29 09:42:00,
2013-10-29 05:44:00,25.6,22.8,30.42,NE,34,0.0,0.0,89,0.00,CLR,OVC,0.00,WeatherDisplay:10.37,2013-10-29 09:44:00,
2013-10-29 05:45:00,25.6,22.8,30.42,NE,34,0.0,0.0,89,0.00,CLR,OVC,0.00,WeatherDisplay:10.37,2013-10-29 09:45:00,
2013-10-29 05:48:00,25.5,22.7,30.43,NE,34,0.0,0.0,89,0.00,CLR,OVC,0.00,WeatherDisplay:10.37,2013-10-29 09:48:00,
2013-10-29 05:49:00,25.4,22.9,30.42,NE,34,0.0,0.0,90,0.00,CLR,OVC,0.00,WeatherDisplay:10.37,2013-10-29 09:49:00,
2013-10-29 05:50:00,25.4,22.6,30.43,NE,34,0.0,0.0,89,0.00,CLR,OVC,0.00,WeatherDisplay:10.37,2013-10-29 09:50:00,
2013-10-29 05:53:00,25.3,22.8,30.43,NE,34,0.0,0.0,90,0.00,CLR,OVC,0.00,WeatherDisplay:10.37,2013-10-29 09:53:00,
2013-10-29 05:54:00,25.2,22.7,30.43,NE,34,0.0,0.0,90,0.00,CLR,OVC,0.00,WeatherDisplay:10.37,2013-10-29 09:54:00,
2013-10-29 05:55:00,25.2,22.7,30.43,NE,34,0.0,0.0,90,0.00,CLR,OVC,0.00,WeatherDisplay:10.37,2013-10-29 09:55:00,
2013-10-29 05:56:00,25.2,22.7,30.43,NE,34,0.0,0.0,90,0.00,CLR,OVC,0.00,WeatherDisplay:10.37,2013-10-29 09:56:00,
2013-10-29 05:58:00,25.1,22.6,30.43,NE,34,0.0,0.0,90,0.00,CLR,OVC,0.00,WeatherDisplay:10.37,2013-10-29 09:58:00,
2013-10-29 06:00:00,25.0,22.5,30.43,NE,34,0.0,0.0,90,0.00,CLR,OVC,0.00,WeatherDisplay:10.37,2013-10-29 10:00:00,
2013-10-29 06:01:00,25.0,22.5,30.43,NE,34,0.0,0.0,90,0.00,CLR,OVC,0.00,WeatherDisplay:10.37,2013-10-29 10:01:00,
2013-10-29 06:03:00,25.0,22.5,30.43,NE,34,0.0,0.0,90,0.00,CLR,OVC,0.00,WeatherDisplay:10.37,2013-10-29 10:03:00,
2013-10-29 06:05:00,24.9,22.4,30.43,NE,34,0.0,0.0,90,0.00,CLR,OVC,0.00,WeatherDisplay:10.37,2013-10-29 10:05:00,
2013-10-29 06:06:00,24.9,22.4,30.43,NE,34,0.0,0.0,90,0.00,CLR,OVC,0.00,WeatherDisplay:10.37,2013-10-29 10:06:00,
2013-10-29 06:07:00,24.9,22.4,30.43,NE,34,0.0,0.0,90,0.00,CLR,OVC,0.00,WeatherDisplay:10.37,2013-10-29 10:07:00,
2013-10-29 06:09:00,24.9,22.4,30.43,NE,34,0.0,0.0,90,0.00,CLR,OVC,0.00,WeatherDisplay:10.37,2013-10-29 10:09:00,
2013-10-29 06:10:00,24.9,22.4,30.43,NE,34,0.0,0.0,90,0.00,CLR,OVC,0.00,WeatherDisplay:10.37,2013-10-29 10:10:00,
2013-10-29 06:11:00,24.9,22.4,30.43,NE,34,0.0,0.0,90,0.00,CLR,OVC,0.00,WeatherDisplay:10.37,2013-10-29 10:11:00,
2013-10-29 06:14:00,24.8,22.3,30.43,NE,34,0.0,0.0,90,0.00,CLR,OVC,0.00,WeatherDisplay:10.37,2013-10-29 10:14:00,
2013-10-29 06:15:00,24.6,22.1,30.43,NE,34,0.0,0.0,90,0.00,CLR,OVC,0.00,WeatherDisplay:10.37,2013-10-29 10:15:00,
2013-10-29 06:16:00,24.5,22.0,30.43,NE,34,0.0,0.0,90,0.00,CLR,OVC,0.00,WeatherDisplay:10.37,2013-10-29 10:16:00,
2013-10-29 06:19:00,24.7,22.2,30.43,NE,34,0.0,0.0,90,0.00,CLR,OVC,0.00,WeatherDisplay:10.37,2013-10-29 10:19:00,
2013-10-29 06:20:00,24.7,22.2,30.43,NE,34,0.0,0.0,90,0.00,CLR,OVC,0.00,WeatherDisplay:10.37,2013-10-29 10:20:00,
2013-10-29 06:21:00,24.8,22.3,30.43,NE,34,0.0,0.0,90,0.00,CLR,OVC,0.00,WeatherDisplay:10.37,2013-10-29 10:21:00,
2013-10-29 06:22:00,24.9,22.6,30.43,NE,34,0.0,0.0,91,0.00,CLR,OVC,0.00,WeatherDisplay:10.37,2013-10-29 10:22:00,
2013-10-29 06:24:00,24.9,22.6,30.43,NE,34,0.0,0.0,91,0.00,CLR,OVC,0.00,WeatherDisplay:10.37,2013-10-29 10:24:00,
2013-10-29 06:25:00,24.9,22.6,30.43,NE,34,0.0,0.0,91,0.00,CLR,OVC,0.00,WeatherDisplay:10.37,2013-10-29 10:25:00,
2013-10-29 06:26:00,24.8,22.3,30.43,NE,34,0.0,0.0,90,0.00,CLR,OVC,0.00,WeatherDisplay:10.37,2013-10-29 10:26:00,
2013-10-29 06:27:00,24.8,22.5,30.43,NE,34,0.0,0.0,91,0.00,CLR,OVC,0.00,WeatherDisplay:10.37,2013-10-29 10:27:00,
2013-10-29 06:29:00,24.7,22.4,30.43,NE,34,0.0,0.0,91,0.00,CLR,OVC,0.00,WeatherDisplay:10.37,2013-10-29 10:29:00,
2013-10-29 06:30:00,24.7,22.4,30.43,NE,34,0.0,0.0,91,0.00,CLR,OVC,0.00,WeatherDisplay:10.37,2013-10-29 10:30:00,
2013-10-29 06:32:00,24.7,22.4,30.43,NE,34,0.0,0.0,91,0.00,CLR,OVC,0.00,WeatherDisplay:10.37,2013-10-29 10:32:00,
2013-10-29 06:34:00,24.7,22.4,30.43,NE,34,0.0,0.0,91,0.00,CLR,OVC,0.00,WeatherDisplay:10.37,2013-10-29 10:34:00,
2013-10-29 06:35:00,24.6,22.3,30.43,NE,34,0.0,0.0,91,0.00,CLR,OVC,0.00,WeatherDisplay:10.37,2013-10-29 10:35:00,
2013-10-29 06:37:00,24.7,22.4,30.43,NE,34,0.0,0.0,91,0.00,CLR,OVC,0.00,WeatherDisplay:10.37,2013-10-29 10:37:00,
2013-10-29 06:40:00,24.7,22.4,30.43,NE,34,0.0,0.0,91,0.00,CLR,OVC,0.00,WeatherDisplay:10.37,2013-10-29 10:40:00,
2013-10-29 06:42:00,24.6,22.3,30.43,NE,34,0.0,0.0,91,0.00,CLR,OVC,0.00,WeatherDisplay:10.37,2013-10-29 10:42:00,
2013-10-29 06:45:00,24.8,22.5,30.43,NE,34,1.0,2.3,91,0.00,CLR,OVC,0.00,WeatherDisplay:10.37,2013-10-29 10:45:00,
2013-10-29 06:46:00,24.8,22.5,30.43,NE,34,0.4,2.3,91,0.00,CLR,OVC,0.00,WeatherDisplay:10.37,2013-10-29 10:46:00,
2013-10-29 06:47:00,24.8,22.5,30.43,NE,34,0.0,1.2,91,0.00,CLR,OVC,0.00,WeatherDisplay:10.37,2013-10-29 10:47:00,
2013-10-29 06:48:00,25.0,22.7,30.43,NE,34,0.0,1.2,91,0.00,CLR,OVC,0.00,WeatherDisplay:10.37,2013-10-29 10:48:00,
2013-10-29 06:50:00,25.1,22.8,30.43,NE,34,0.0,0.0,91,0.00,CLR,OVC,0.00,WeatherDisplay:10.37,2013-10-29 10:50:00,
2013-10-29 06:51:00,25.0,22.7,30.43,NE,34,0.0,0.0,91,0.00,CLR,OVC,0.00,WeatherDisplay:10.37,2013-10-29 10:51:00,
2013-10-29 06:52:00,25.1,23.1,30.43,NE,34,0.0,0.0,92,0.00,CLR,OVC,0.00,WeatherDisplay:10.37,2013-10-29 10:52:00,
2013-10-29 06:53:00,25.0,22.7,30.43,NE,34,0.0,0.0,91,0.00,CLR,OVC,0.00,WeatherDisplay:10.37,2013-10-29 10:53:00,
2013-10-29 06:55:00,25.1,22.8,30.43,NE,34,0.0,0.0,91,0.00,CLR,OVC,0.00,WeatherDisplay:10.37,2013-10-29 10:55:00,
2013-10-29 06:56:00,25.0,22.7,30.43,NE,34,0.0,0.0,91,0.00,CLR,OVC,0.00,WeatherDisplay:10.37,2013-10-29 10:56:00,
2013-10-29 06:57:00,25.0,22.7,30.43,NE,34,0.0,0.0,91,0.00,CLR,OVC,0.00,WeatherDisplay:10.37,2013-10-29 10:57:00,
2013-10-29 06:58:00,25.1,23.1,30.43,NE,34,0.0,0.0,92,0.00,CLR,OVC,0.00,WeatherDisplay:10.37,2013-10-29 10:58:00,
2013-10-29 07:01:00,25.0,22.7,30.43,NE,34,0.0,0.0,91,0.00,CLR,OVC,0.00,WeatherDisplay:10.37,2013-10-29 11:01:00,
2013-10-29 07:02:00,25.0,22.7,30.43,NE,34,0.0,0.0,91,0.00,CLR,OVC,0.00,WeatherDisplay:10.37,2013-10-29 11:02:00,
2013-10-29 07:03:00,24.9,22.6,30.43,NE,34,0.0,0.0,91,0.00,CLR,OVC,0.00,WeatherDisplay:10.37,2013-10-29 11:03:00,
2013-10-29 07:06:00,24.9,22.6,30.43,NE,34,0.0,0.0,91,0.00,CLR,OVC,0.00,WeatherDisplay:10.37,2013-10-29 11:06:00,
2013-10-29 07:07:00,24.9,22.9,30.43,NE,34,0.0,0.0,92,0.00,CLR,OVC,0.00,WeatherDisplay:10.37,2013-10-29 11:07:00,
2013-10-29 07:09:00,24.8,22.5,30.43,NE,34,0.0,0.0,91,0.00,CLR,OVC,0.00,WeatherDisplay:10.37,2013-10-29 11:09:00,
2013-10-29 07:11:00,24.8,22.5,30.43,NE,34,0.0,0.0,91,0.00,CLR,OVC,0.00,WeatherDisplay:10.37,2013-10-29 11:11:00,
2013-10-29 07:12:00,24.7,22.7,30.43,NE,34,0.0,0.0,92,0.00,CLR,OVC,0.00,WeatherDisplay:10.37,2013-10-29 11:12:00,
2013-10-29 07:13:00,24.7,22.4,30.44,NE,34,0.0,0.0,91,0.00,CLR,OVC,0.00,WeatherDisplay:10.37,2013-10-29 11:13:00,
2013-10-29 07:14:00,24.7,22.4,30.44,NE,34,0.0,0.0,91,0.00,CLR,OVC,0.00,WeatherDisplay:10.37,2013-10-29 11:14:00,
2013-10-29 07:16:00,24.7,22.4,30.44,NE,34,0.0,0.0,91,0.00,CLR,OVC,0.00,WeatherDisplay:10.37,2013-10-29 11:16:00,
2013-10-29 07:18:00,24.6,22.6,30.44,NE,34,0.0,1.0,92,0.00,CLR,OVC,0.00,WeatherDisplay:10.37,2013-10-29 11:18:00,
2013-10-29 07:19:00,24.6,22.3,30.43,NE,34,0.1,1.2,91,0.00,CLR,OVC,0.00,WeatherDisplay:10.37,2013-10-29 11:19:00,
2013-10-29 07:20:00,24.6,22.6,30.43,NE,34,0.0,0.0,92,0.00,CLR,OVC,0.00,WeatherDisplay:10.37,2013-10-29 11:20:00,
2013-10-29 07:22:00,24.6,22.6,30.44,NE,34,0.0,0.0,92,0.00,CLR,OVC,0.00,WeatherDisplay:10.37,2013-10-29 11:22:00,
2013-10-29 07:23:00,24.6,22.3,30.43,NE,34,0.0,0.0,91,0.00,CLR,OVC,0.00,WeatherDisplay:10.37,2013-10-29 11:23:00,
2013-10-29 07:24:00,24.6,22.6,30.43,NE,34,0.0,0.0,92,0.00,CLR,OVC,0.00,WeatherDisplay:10.37,2013-10-29 11:24:00,
2013-10-29 07:25:00,24.6,22.3,30.43,NE,34,0.0,0.0,91,0.00,CLR,OVC,0.00,WeatherDisplay:10.37,2013-10-29 11:25:00,
2013-10-29 07:27:00,24.5,22.2,30.44,NE,34,0.0,0.0,91,0.00,CLR,OVC,0.00,WeatherDisplay:10.37,2013-10-29 11:27:00,
2013-10-29 07:28:00,24.5,22.5,30.44,NE,34,0.0,0.0,92,0.00,CLR,OVC,0.00,WeatherDisplay:10.37,2013-10-29 11:28:00,
2013-10-29 07:29:00,24.5,22.5,30.44,NE,34,0.1,1.0,92,0.00,CLR,OVC,0.00,WeatherDisplay:10.37,2013-10-29 11:29:00,
2013-10-29 07:30:00,24.5,22.5,30.44,NE,34,0.1,1.2,92,0.00,CLR,OVC,0.00,WeatherDisplay:10.37,2013-10-29 11:30:00,
2013-10-29 07:32:00,24.4,22.4,30.44,NE,34,0.0,0.0,92,0.00,CLR,OVC,0.00,WeatherDisplay:10.37,2013-10-29 11:32:00,
2013-10-29 07:33:00,24.4,22.4,30.45,NE,34,0.0,0.0,92,0.00,CLR,OVC,0.00,WeatherDisplay:10.37,2013-10-29 11:33:00,
2013-10-29 07:34:00,24.4,22.4,30.44,NE,34,0.0,0.0,92,0.00,CLR,OVC,0.00,WeatherDisplay:10.37,2013-10-29 11:34:00,
2013-10-29 07:35:00,24.4,22.4,30.44,NE,34,0.0,0.0,92,0.00,CLR,OVC,0.00,WeatherDisplay:10.37,2013-10-29 11:35:00,
2013-10-29 07:36:00,24.4,22.2,30.44,NE,34,0.0,0.0,91,0.00,CLR,OVC,0.00,WeatherDisplay:10.37,2013-10-29 11:36:00,
2013-10-29 07:37:00,24.3,22.3,30.44,NE,34,0.0,0.0,92,0.00,CLR,OVC,0.00,WeatherDisplay:10.37,2013-10-29 11:37:00,
2013-10-29 07:38:00,24.3,22.3,30.45,NE,34,0.0,0.0,92,0.00,CLR,OVC,0.00,WeatherDisplay:10.37,2013-10-29 11:38:00,
2013-10-29 07:39:00,24.3,22.3,30.44,NE,34,0.0,0.0,92,0.00,CLR,OVC,0.00,WeatherDisplay:10.37,2013-10-29 11:39:00,
2013-10-29 07:40:00,24.3,22.1,30.44,NE,34,0.0,0.0,91,0.00,CLR,OVC,0.00,WeatherDisplay:10.37,2013-10-29 11:40:00,
2013-10-29 07:41:00,24.2,22.2,30.44,NE,34,0.0,0.0,92,0.00,CLR,OVC,0.00,WeatherDisplay:10.37,2013-10-29 11:41:00,
2013-10-29 07:43:00,24.2,22.2,30.44,NE,34,0.0,0.0,92,0.00,CLR,OVC,0.00,WeatherDisplay:10.37,2013-10-29 11:43:00,
2013-10-29 07:44:00,24.2,22.2,30.44,NE,34,0.0,0.0,92,0.00,CLR,OVC,0.00,WeatherDisplay:10.37,2013-10-29 11:44:00,
2013-10-29 07:46:00,24.2,22.2,30.45,NE,34,0.0,0.0,92,0.00,CLR,OVC,0.00,WeatherDisplay:10.37,2013-10-29 11:46:00,
2013-10-29 07:48:00,24.2,22.2,30.45,NE,34,0.0,0.0,92,0.00,CLR,OVC,0.00,WeatherDisplay:10.37,2013-10-29 11:48:00,
2013-10-29 07:49:00,24.1,22.1,30.45,NE,34,0.0,0.0,92,0.00,CLR,OVC,0.00,WeatherDisplay:10.37,2013-10-29 11:49:00,
2013-10-29 07:50:00,24.1,22.1,30.45,NE,34,0.0,0.0,92,0.00,CLR,OVC,0.00,WeatherDisplay:10.37,2013-10-29 11:50:00,
2013-10-29 07:51:00,24.1,22.1,30.45,NE,34,0.1,0.0,92,0.00,CLR,OVC,0.00,WeatherDisplay:10.37,2013-10-29 11:51:00,
2013-10-29 07:53:00,24.2,22.2,30.45,NE,34,0.0,1.2,92,0.00,CLR,OVC,0.00,WeatherDisplay:10.37,2013-10-29 11:53:00,
2013-10-29 07:55:00,24.2,22.2,30.45,NE,34,0.0,0.0,92,0.00,CLR,OVC,0.00,WeatherDisplay:10.37,2013-10-29 11:55:00,
2013-10-29 07:56:00,24.2,22.2,30.45,NE,34,0.0,0.0,92,0.00,CLR,OVC,0.00,WeatherDisplay:10.37,2013-10-29 11:56:00,
2013-10-29 07:57:00,24.2,22.2,30.46,NE,34,0.0,0.0,92,0.00,CLR,OVC,0.00,WeatherDisplay:10.37,2013-10-29 11:57:00,
2013-10-29 07:58:00,24.2,22.2,30.46,NE,34,0.0,0.0,92,0.00,CLR,OVC,0.00,WeatherDisplay:10.37,2013-10-29 11:58:00,
2013-10-29 07:59:00,24.2,22.2,30.46,NE,34,0.0,0.0,92,0.00,CLR,OVC,0.00,WeatherDisplay:10.37,2013-10-29 11:59:00,
2013-10-29 08:00:00,24.2,22.2,30.46,NE,34,0.0,0.0,92,0.00,CLR,OVC,0.00,WeatherDisplay:10.37,2013-10-29 12:00:00,
2013-10-29 08:01:00,24.2,22.2,30.46,NE,34,0.0,0.0,92,0.00,CLR,OVC,0.00,WeatherDisplay:10.37,2013-10-29 12:01:00,
2013-10-29 08:03:00,24.2,22.2,30.46,NE,34,0.0,0.0,92,0.00,CLR,OVC,0.00,WeatherDisplay:10.37,2013-10-29 12:03:00,
2013-10-29 08:04:00,24.3,22.3,30.46,NE,34,0.0,0.0,92,0.00,CLR,OVC,0.00,WeatherDisplay:10.37,2013-10-29 12:04:00,
2013-10-29 08:05:00,24.3,22.3,30.46,NE,34,0.0,0.0,92,0.00,CLR,OVC,0.00,WeatherDisplay:10.37,2013-10-29 12:05:00,
2013-10-29 08:06:00,24.3,22.6,30.46,NE,34,0.0,0.0,93,0.00,CLR,OVC,0.00,WeatherDisplay:10.37,2013-10-29 12:06:00,
2013-10-29 08:08:00,24.3,22.6,30.46,NE,34,0.0,0.0,93,0.00,CLR,OVC,0.00,WeatherDisplay:10.37,2013-10-29 12:08:00,
2013-10-29 08:09:00,24.4,22.7,30.46,NE,34,0.0,0.0,93,0.00,CLR,OVC,0.00,WeatherDisplay:10.37,2013-10-29 12:09:00,
2013-10-29 08:10:00,24.4,22.7,30.46,NE,34,0.0,0.0,93,0.00,CLR,OVC,0.00,WeatherDisplay:10.37,2013-10-29 12:10:00,
2013-10-29 08:11:00,24.4,22.7,30.46,NE,34,0.0,0.0,93,0.00,CLR,OVC,0.00,WeatherDisplay:10.37,2013-10-29 12:11:00,
2013-10-29 08:13:00,24.4,22.7,30.46,NE,34,0.0,0.0,93,0.00,CLR,OVC,0.00,WeatherDisplay:10.37,2013-10-29 12:13:00,
2013-10-29 08:14:00,24.4,22.7,30.46,NE,34,0.0,0.0,93,0.00,CLR,OVC,0.00,WeatherDisplay:10.37,2013-10-29 12:14:00,
2013-10-29 08:15:00,24.5,22.8,30.46,NE,34,0.0,0.0,93,0.00,CLR,OVC,0.00,WeatherDisplay:10.37,2013-10-29 12:15:00,
2013-10-29 08:16:00,24.5,22.8,30.46,NE,34,0.0,0.0,93,0.00,CLR,OVC,0.00,WeatherDisplay:10.37,2013-10-29 12:16:00,
2013-10-29 08:17:00,24.5,22.8,30.46,NE,34,0.0,0.0,93,0.00,CLR,OVC,0.00,WeatherDisplay:10.37,2013-10-29 12:17:00,
2013-10-29 08:18:00,24.5,22.8,30.46,NE,34,0.0,0.0,93,0.00,CLR,OVC,0.00,WeatherDisplay:10.37,2013-10-29 12:18:00,
2013-10-29 08:20:00,24.5,22.8,30.46,NE,34,0.0,0.0,93,0.00,CLR,OVC,0.00,WeatherDisplay:10.37,2013-10-29 12:20:00,
2013-10-29 08:21:00,24.6,22.9,30.46,NE,34,0.0,0.0,93,0.00,CLR,OVC,0.00,WeatherDisplay:10.37,2013-10-29 12:21:00,
2013-10-29 08:22:00,24.5,22.8,30.46,NE,34,0.0,0.0,93,0.00,CLR,OVC,0.00,WeatherDisplay:10.37,2013-10-29 12:22:00,
2013-10-29 08:24:00,24.6,22.9,30.46,NE,34,0.0,0.0,93,0.00,CLR,OVC,0.00,WeatherDisplay:10.37,2013-10-29 12:24:00,
2013-10-29 08:25:00,24.6,22.9,30.46,NE,34,0.0,0.0,93,0.00,CLR,OVC,0.00,WeatherDisplay:10.37,2013-10-29 12:25:00,
2013-10-29 08:26:00,24.6,22.9,30.46,NE,34,0.0,0.0,93,0.00,CLR,OVC,0.00,WeatherDisplay:10.37,2013-10-29 12:26:00,
2013-10-29 08:28:00,24.6,22.9,30.46,NE,34,0.0,0.0,93,0.00,CLR,OVC,0.00,WeatherDisplay:10.37,2013-10-29 12:28:00,
2013-10-29 08:29:00,24.7,23.0,30.46,NE,34,0.0,0.0,93,0.00,CLR,OVC,0.00,WeatherDisplay:10.37,2013-10-29 12:29:00,
2013-10-29 08:30:00,24.7,23.0,30.46,NE,34,0.0,0.0,93,0.00,CLR,OVC,0.00,WeatherDisplay:10.37,2013-10-29 12:30:00,
2013-10-29 08:32:00,24.7,23.0,30.46,NE,34,0.0,0.0,93,0.00,CLR,OVC,0.00,WeatherDisplay:10.37,2013-10-29 12:32:00,
2013-10-29 08:33:00,24.7,23.0,30.46,NE,34,0.0,0.0,93,0.00,CLR,OVC,0.00,WeatherDisplay:10.37,2013-10-29 12:33:00,
2013-10-29 08:34:00,24.7,23.0,30.46,NE,34,0.0,0.0,93,0.00,CLR,OVC,0.00,WeatherDisplay:10.37,2013-10-29 12:34:00,
2013-10-29 08:35:00,24.7,23.0,30.46,NE,34,0.0,0.0,93,0.00,CLR,OVC,0.00,WeatherDisplay:10.37,2013-10-29 12:35:00,
2013-10-29 08:37:00,24.8,23.1,30.46,NE,34,0.0,0.0,93,0.00,CLR,OVC,0.00,WeatherDisplay:10.37,2013-10-29 12:37:00,
2013-10-29 08:38:00,24.8,23.1,30.46,NE,34,0.0,0.0,93,0.00,CLR,OVC,0.00,WeatherDisplay:10.37,2013-10-29 12:38:00,
2013-10-29 08:39:00,24.8,23.1,30.46,NE,34,0.0,0.0,93,0.00,CLR,OVC,0.00,WeatherDisplay:10.37,2013-10-29 12:39:00,
2013-10-29 08:40:00,24.8,23.1,30.46,NE,34,0.0,0.0,93,0.00,CLR,OVC,0.00,WeatherDisplay:10.37,2013-10-29 12:40:00,
2013-10-29 08:42:00,24.8,23.1,30.47,NE,34,0.0,0.0,93,0.00,CLR,OVC,0.00,WeatherDisplay:10.37,2013-10-29 12:42:00,
2013-10-29 08:43:00,24.8,23.1,30.47,NE,34,0.0,0.0,93,0.00,CLR,OVC,0.00,WeatherDisplay:10.37,2013-10-29 12:43:00,
2013-10-29 08:45:00,24.8,23.1,30.47,NE,34,0.0,0.0,93,0.00,CLR,OVC,0.00,WeatherDisplay:10.37,2013-10-29 12:45:00,
2013-10-29 08:46:00,24.9,23.2,30.47,NE,34,0.0,0.0,93,0.00,CLR,OVC,0.00,WeatherDisplay:10.37,2013-10-29 12:46:00,
2013-10-29 08:48:00,24.9,23.2,30.47,NE,34,0.0,0.0,93,0.00,CLR,OVC,0.00,WeatherDisplay:10.37,2013-10-29 12:48:00,
2013-10-29 08:50:00,24.9,23.2,30.47,NE,34,0.0,0.0,93,0.00,CLR,OVC,0.00,WeatherDisplay:10.37,2013-10-29 12:50:00,
2013-10-29 08:51:00,24.9,23.2,30.46,NE,34,0.0,0.0,93,0.00,CLR,OVC,0.00,WeatherDisplay:10.37,2013-10-29 12:51:00,
2013-10-29 08:53:00,25.0,23.3,30.46,NE,34,0.0,0.0,93,0.00,CLR,OVC,0.00,WeatherDisplay:10.37,2013-10-29 12:53:00,
2013-10-29 08:54:00,25.0,23.3,30.46,NE,34,0.0,0.0,93,0.00,CLR,OVC,0.00,WeatherDisplay:10.37,2013-10-29 12:54:00,
2013-10-29 08:55:00,25.1,23.6,30.47,NE,34,0.0,0.0,94,0.00,CLR,OVC,0.00,WeatherDisplay:10.37,2013-10-29 12:55:00,
2013-10-29 08:56:00,25.1,23.4,30.47,NE,34,0.0,0.0,93,0.00,CLR,OVC,0.00,WeatherDisplay:10.37,2013-10-29 12:56:00,
2013-10-29 08:58:00,25.3,23.8,30.47,NE,34,0.0,0.0,94,0.00,CLR,OVC,0.00,WeatherDisplay:10.37,2013-10-29 12:58:00,
2013-10-29 08:59:00,25.3,23.8,30.47,NE,34,0.0,0.0,94,0.00,CLR,OVC,0.00,WeatherDisplay:10.37,2013-10-29 12:59:00,
2013-10-29 09:00:00,25.4,23.9,30.47,NE,34,0.0,0.0,94,0.00,CLR,OVC,0.00,WeatherDisplay:10.37,2013-10-29 13:00:00,
2013-10-29 09:01:00,25.5,24.0,30.47,NE,34,0.0,0.0,94,0.00,CLR,OVC,0.00,WeatherDisplay:10.37,2013-10-29 13:01:00,
2013-10-29 09:02:00,25.5,24.0,30.47,NE,34,0.0,0.0,94,0.00,CLR,OVC,0.00,WeatherDisplay:10.37,2013-10-29 13:02:00,
2013-10-29 09:04:00,25.7,24.2,30.47,NE,37,0.1,1.2,94,0.00,CLR,OVC,0.00,WeatherDisplay:10.37,2013-10-29 13:04:00,
2013-10-29 09:06:00,25.9,24.4,30.47,NE,37,0.0,0.0,94,0.00,CLR,OVC,0.00,WeatherDisplay:10.37,2013-10-29 13:06:00,
2013-10-29 09:07:00,26.0,24.5,30.47,NE,37,0.0,0.0,94,0.00,CLR,OVC,0.00,WeatherDisplay:10.37,2013-10-29 13:07:00,
2013-10-29 09:09:00,26.1,24.6,30.47,NE,37,0.0,0.0,94,0.00,CLR,OVC,0.00,WeatherDisplay:10.37,2013-10-29 13:09:00,
2013-10-29 09:10:00,26.2,24.7,30.47,NE,37,0.0,0.0,94,0.00,CLR,OVC,0.00,WeatherDisplay:10.37,2013-10-29 13:10:00,
2013-10-29 09:11:00,26.3,24.8,30.47,NE,37,0.0,0.0,94,0.00,CLR,OVC,0.00,WeatherDisplay:10.37,2013-10-29 13:11:00,
2013-10-29 09:12:00,26.4,24.9,30.47,NE,36,0.0,0.0,94,0.00,CLR,OVC,0.00,WeatherDisplay:10.37,2013-10-29 13:12:00,
2013-10-29 09:14:00,26.5,25.0,30.47,NE,37,0.0,0.0,94,0.00,CLR,OVC,0.00,WeatherDisplay:10.37,2013-10-29 13:14:00,
2013-10-29 09:15:00,26.5,25.0,30.47,NE,37,0.0,0.0,94,0.00,CLR,OVC,0.00,WeatherDisplay:10.37,2013-10-29 13:15:00,
2013-10-29 09:16:00,26.7,25.2,30.47,NE,37,0.0,0.0,94,0.00,CLR,OVC,0.00,WeatherDisplay:10.37,2013-10-29 13:16:00,
2013-10-29 09:17:00,26.9,25.4,30.48,NE,37,0.0,0.0,94,0.00,CLR,OVC,0.00,WeatherDisplay:10.37,2013-10-29 13:17:00,
2013-10-29 09:18:00,26.9,25.7,30.48,NE,37,0.0,0.0,95,0.00,CLR,OVC,0.00,WeatherDisplay:10.37,2013-10-29 13:18:00,
2013-10-29 09:19:00,27.0,25.8,30.47,NE,37,0.0,0.0,95,0.00,CLR,OVC,0.00,WeatherDisplay:10.37,2013-10-29 13:19:00,
2013-10-29 09:20:00,27.2,26.0,30.47,NE,37,0.0,0.0,95,0.00,CLR,OVC,0.00,WeatherDisplay:10.37,2013-10-29 13:20:00,
2013-10-29 09:21:00,27.3,26.1,30.47,NE,37,0.0,0.0,95,0.00,CLR,OVC,0.00,WeatherDisplay:10.37,2013-10-29 13:21:00,
2013-10-29 09:23:00,27.4,25.9,30.47,NE,37,0.0,0.0,94,0.00,CLR,OVC,0.00,WeatherDisplay:10.37,2013-10-29 13:23:00,
2013-10-29 09:24:00,27.6,26.4,30.47,NE,37,0.0,0.0,95,0.00,CLR,OVC,0.00,WeatherDisplay:10.37,2013-10-29 13:24:00,
2013-10-29 09:25:00,27.7,26.5,30.47,NE,37,0.0,0.0,95,0.00,CLR,OVC,0.00,WeatherDisplay:10.37,2013-10-29 13:25:00,
2013-10-29 09:27:00,27.9,26.7,30.47,NE,37,0.0,0.0,95,0.00,CLR,OVC,0.00,WeatherDisplay:10.37,2013-10-29 13:27:00,
2013-10-29 09:28:00,28.1,26.9,30.47,NE,37,0.0,0.0,95,0.00,CLR,OVC,0.00,WeatherDisplay:10.37,2013-10-29 13:28:00,
2013-10-29 09:29:00,28.2,27.0,30.47,NE,37,0.0,0.0,95,0.00,CLR,OVC,0.00,WeatherDisplay:10.37,2013-10-29 13:29:00,
2013-10-29 09:30:00,28.4,27.2,30.47,NE,37,0.0,0.0,95,0.00,CLR,OVC,0.00,WeatherDisplay:10.37,2013-10-29 13:30:00,
2013-10-29 09:31:00,28.5,27.5,30.47,NE,37,0.0,0.0,96,0.00,CLR,OVC,0.00,WeatherDisplay:10.37,2013-10-29 13:31:00,
2013-10-29 09:32:00,28.6,27.4,30.47,NE,37,0.0,0.0,95,0.00,CLR,OVC,0.00,WeatherDisplay:10.37,2013-10-29 13:32:00,
2013-10-29 09:33:00,28.8,27.5,30.47,NE,37,0.0,0.0,95,0.00,CLR,OVC,0.00,WeatherDisplay:10.37,2013-10-29 13:33:00,
2013-10-29 09:34:00,28.9,27.6,30.47,NE,37,0.0,0.0,95,0.00,CLR,OVC,0.00,WeatherDisplay:10.37,2013-10-29 13:34:00,
2013-10-29 09:35:00,29.0,27.7,30.47,NE,37,0.0,0.0,95,0.00,CLR,OVC,0.00,WeatherDisplay:10.37,2013-10-29 13:35:00,
2013-10-29 09:36:00,29.1,28.1,30.47,NE,37,0.0,0.0,96,0.00,CLR,OVC,0.00,WeatherDisplay:10.37,2013-10-29 13:36:00,
2013-10-29 09:37:00,29.2,27.9,30.47,NE,37,0.0,0.0,95,0.00,CLR,OVC,0.00,WeatherDisplay:10.37,2013-10-29 13:37:00,
2013-10-29 09:39:00,29.4,28.4,30.47,NE,37,0.0,0.0,96,0.00,CLR,OVC,0.00,WeatherDisplay:10.37,2013-10-29 13:39:00,
2013-10-29 09:40:00,29.5,28.2,30.47,NE,37,0.0,0.0,95,0.00,CLR,OVC,0.00,WeatherDisplay:10.37,2013-10-29 13:40:00,
2013-10-29 09:41:00,29.8,28.8,30.47,NE,35,0.0,0.0,96,0.00,CLR,OVC,0.00,WeatherDisplay:10.37,2013-10-29 13:41:00,
2013-10-29 09:42:00,29.9,28.9,30.47,NE,35,0.1,1.0,96,0.00,CLR,OVC,0.00,WeatherDisplay:10.37,2013-10-29 13:42:00,
2013-10-29 09:44:00,30.2,29.2,30.47,NE,35,0.0,1.2,96,0.00,CLR,OVC,0.00,WeatherDisplay:10.37,2013-10-29 13:44:00,
2013-10-29 09:45:00,30.4,29.4,30.47,NE,36,0.0,1.2,96,0.00,CLR,OVC,0.00,WeatherDisplay:10.37,2013-10-29 13:45:00,
2013-10-29 09:46:00,30.7,29.7,30.47,NE,36,0.0,0.0,96,0.00,CLR,OVC,0.00,WeatherDisplay:10.37,2013-10-29 13:46:00,
2013-10-29 09:47:00,30.9,30.1,30.47,NE,35,0.0,0.0,97,0.00,CLR,OVC,0.00,WeatherDisplay:10.37,2013-10-29 13:47:00,
2013-10-29 09:49:00,31.3,30.5,30.47,NE,36,0.0,0.0,97,0.00,CLR,OVC,0.00,WeatherDisplay:10.37,2013-10-29 13:49:00,
2013-10-29 09:50:00,31.5,30.7,30.47,NE,35,0.0,0.0,97,0.00,CLR,OVC,0.00,WeatherDisplay:10.37,2013-10-29 13:50:00,
2013-10-29 09:51:00,31.9,31.1,30.47,NE,53,1.0,2.0,97,0.00,CLR,OVC,0.00,WeatherDisplay:10.37,2013-10-29 13:51:00,
2013-10-29 09:52:00,32.0,31.2,30.47,ENE,66,1.2,2.3,97,0.00,CLR,OVC,0.00,WeatherDisplay:10.37,2013-10-29 13:52:00,
2013-10-29 09:54:00,32.5,31.7,30.47,ENE,66,0.5,1.2,97,0.00,CLR,OVC,0.00,WeatherDisplay:10.37,2013-10-29 13:54:00,
2013-10-29 09:55:00,32.7,31.9,30.47,ENE,66,0.9,1.2,97,0.00,CLR,OVC,0.00,WeatherDisplay:10.37,2013-10-29 13:55:00,
2013-10-29 09:56:00,32.9,32.1,30.47,ENE,66,0.7,1.2,97,0.00,CLR,OVC,0.00,WeatherDisplay:10.37,2013-10-29 13:56:00,
2013-10-29 09:57:00,33.1,32.3,30.47,ENE,66,0.1,2.3,97,0.00,CLR,OVC,0.00,WeatherDisplay:10.37,2013-10-29 13:57:00,
2013-10-29 09:59:00,33.4,32.6,30.47,ENE,66,0.0,0.0,97,0.00,CLR,OVC,0.00,WeatherDisplay:10.37,2013-10-29 13:59:00,
2013-10-29 10:00:00,33.5,32.7,30.46,ENE,66,0.3,1.0,97,0.00,CLR,OVC,0.00,WeatherDisplay:10.37,2013-10-29 14:00:00,
2013-10-29 10:01:00,33.6,32.6,30.46,ENE,66,0.9,2.3,96,0.00,CLR,OVC,0.00,WeatherDisplay:10.37,2013-10-29 14:01:00,
2013-10-29 10:02:00,33.7,32.7,30.46,ENE,66,0.4,1.2,96,0.00,CLR,OVC,0.00,WeatherDisplay:10.37,2013-10-29 14:02:00,
2013-10-29 10:03:00,33.7,32.7,30.46,ENE,66,0.3,1.2,96,0.00,CLR,OVC,0.00,WeatherDisplay:10.37,2013-10-29 14:03:00,
2013-10-29 10:04:00,33.9,32.9,30.46,ENE,66,0.7,1.2,96,0.00,CLR,OVC,0.00,WeatherDisplay:10.37,2013-10-29 14:04:00,
2013-10-29 10:05:00,33.9,32.9,30.46,ENE,66,0.4,1.2,96,0.00,CLR,OVC,0.00,WeatherDisplay:10.37,2013-10-29 14:05:00,
2013-10-29 10:06:00,34.0,33.0,30.46,ENE,66,0.2,2.0,96,0.00,CLR,OVC,0.00,WeatherDisplay:10.37,2013-10-29 14:06:00,
2013-10-29 10:07:00,34.2,33.2,30.46,ENE,66,1.1,2.3,96,0.00,CLR,OVC,0.00,WeatherDisplay:10.37,2013-10-29 14:07:00,
2013-10-29 10:08:00,34.3,33.3,30.46,ENE,66,0.7,2.3,96,0.00,CLR,OVC,0.00,WeatherDisplay:10.37,2013-10-29 14:08:00,
2013-10-29 10:09:00,34.4,33.4,30.46,ENE,66,1.0,3.0,96,0.00,CLR,OVC,0.00,WeatherDisplay:10.37,2013-10-29 14:09:00,
2013-10-29 10:10:00,34.6,33.6,30.46,ENE,66,1.3,3.5,96,0.00,CLR,OVC,0.00,WeatherDisplay:10.37,2013-10-29 14:10:00,
2013-10-29 10:11:00,34.8,33.5,30.45,ENE,63,2.6,4.6,95,0.00,CLR,OVC,0.00,WeatherDisplay:10.37,2013-10-29 14:11:00,
2013-10-29 10:12:00,34.9,33.6,30.46,ENE,62,3.6,4.6,95,0.00,CLR,OVC,0.00,WeatherDisplay:10.37,2013-10-29 14:12:00,
2013-10-29 10:13:00,34.9,33.6,30.46,ENE,62,3.0,4.6,95,0.00,CLR,OVC,0.00,WeatherDisplay:10.37,2013-10-29 14:13:00,
2013-10-29 10:14:00,35.1,33.8,30.46,North,7,3.6,4.0,95,0.00,CLR,OVC,0.00,WeatherDisplay:10.37,2013-10-29 14:14:00,
2013-10-29 10:15:00,35.3,34.0,30.46,North,7,3.9,5.0,95,0.00,CLR,OVC,0.00,WeatherDisplay:10.37,2013-10-29 14:15:00,
2013-10-29 10:17:00,35.5,33.9,30.45,North,3,3.5,5.0,94,0.00,CLR,OVC,0.00,WeatherDisplay:10.37,2013-10-29 14:17:00,
2013-10-29 10:18:00,35.5,33.9,30.45,North,0,3.6,3.6,94,0.00,CLR,OVC,0.00,WeatherDisplay:10.37,2013-10-29 14:18:00,
2013-10-29 10:19:00,35.7,33.9,30.45,North,0,3.8,4.6,93,0.00,CLR,OVC,0.00,WeatherDisplay:10.37,2013-10-29 14:19:00,
2013-10-29 10:20:00,35.9,34.1,30.45,North,0,3.1,3.5,93,0.00,CLR,OVC,0.00,WeatherDisplay:10.37,2013-10-29 14:20:00,
2013-10-29 10:23:00,36.2,34.4,30.45,North,0,2.0,3.5,93,0.00,CLR,OVC,0.00,WeatherDisplay:10.37,2013-10-29 14:23:00,
2013-10-29 10:25:00,36.4,34.3,30.45,North,0,3.1,4.6,92,0.00,CLR,OVC,0.00,WeatherDisplay:10.37,2013-10-29 14:25:00,
2013-10-29 10:28:00,36.8,34.4,30.45,North,0,5.0,6.0,91,0.00,CLR,OVC,0.00,WeatherDisplay:10.37,2013-10-29 14:28:00,
2013-10-29 10:30:00,37.0,34.3,30.44,North,0,4.6,6.9,90,0.00,CLR,OVC,0.00,WeatherDisplay:10.37,2013-10-29 14:30:00,
2013-10-29 10:33:00,37.3,34.4,30.45,North,356,5.6,5.8,89,0.00,CLR,OVC,0.00,WeatherDisplay:10.37,2013-10-29 14:33:00,
2013-10-29 10:34:00,37.4,34.2,30.45,North,356,4.8,9.2,88,0.00,CLR,OVC,0.00,WeatherDisplay:10.37,2013-10-29 14:34:00,
2013-10-29 10:35:00,37.5,34.3,30.45,North,356,4.5,6.9,88,0.00,CLR,OVC,0.00,WeatherDisplay:10.37,2013-10-29 14:35:00,
2013-10-29 10:36:00,37.5,34.3,30.45,North,357,4.2,8.0,88,0.00,CLR,OVC,0.00,WeatherDisplay:10.37,2013-10-29 14:36:00,
2013-10-29 10:38:00,37.7,34.2,30.45,North,359,4.3,6.9,87,0.00,CLR,OVC,0.00,WeatherDisplay:10.37,2013-10-29 14:38:00,
2013-10-29 10:40:00,37.9,34.1,30.45,North,359,4.3,6.0,86,0.00,CLR,OVC,0.00,WeatherDisplay:10.37,2013-10-29 14:40:00,
2013-10-29 10:41:00,37.9,34.1,30.45,North,359,4.9,5.8,86,0.00,CLR,OVC,0.00,WeatherDisplay:10.37,2013-10-29 14:41:00,
2013-10-29 10:43:00,38.0,33.9,30.45,North,0,4.8,6.0,85,0.00,CLR,OVC,0.00,WeatherDisplay:10.37,2013-10-29 14:43:00,
2013-10-29 10:44:00,38.1,34.0,30.45,North,0,5.2,6.9,85,0.00,CLR,OVC,0.00,WeatherDisplay:10.37,2013-10-29 14:44:00,
2013-10-29 10:45:00,38.1,33.7,30.45,North,0,5.2,6.9,84,0.00,CLR,OVC,0.00,WeatherDisplay:10.37,2013-10-29 14:45:00,
2013-10-29 10:46:00,38.2,33.8,30.45,North,0,4.2,8.1,84,0.00,CLR,OVC,0.00,WeatherDisplay:10.37,2013-10-29 14:46:00,
2013-10-29 10:47:00,38.3,33.6,30.45,North,0,3.1,4.6,83,0.00,CLR,OVC,0.00,WeatherDisplay:10.37,2013-10-29 14:47:00,
2013-10-29 10:48:00,38.3,33.6,30.45,North,0,4.2,5.8,83,0.00,CLR,OVC,0.00,WeatherDisplay:10.37,2013-10-29 14:48:00,
2013-10-29 10:49:00,38.4,33.7,30.45,North,0,2.7,5.8,83,0.00,CLR,OVC,0.00,WeatherDisplay:10.37,2013-10-29 14:49:00,
2013-10-29 10:51:00,38.5,33.8,30.45,North,0,2.3,6.9,83,0.00,CLR,OVC,0.00,WeatherDisplay:10.37,2013-10-29 14:51:00,
2013-10-29 10:52:00,38.6,33.9,30.45,North,0,2.7,6.9,83,0.00,CLR,OVC,0.00,WeatherDisplay:10.37,2013-10-29 14:52:00,
2013-10-29 10:53:00,38.7,33.7,30.45,North,0,4.0,5.8,82,0.00,CLR,OVC,0.00,WeatherDisplay:10.37,2013-10-29 14:53:00,
2013-10-29 10:54:00,38.8,33.5,30.45,North,0,2.4,4.0,81,0.00,CLR,OVC,0.00,WeatherDisplay:10.37,2013-10-29 14:54:00,
2013-10-29 10:56:00,38.9,33.6,30.45,North,0,2.1,5.0,81,0.00,CLR,OVC,0.00,WeatherDisplay:10.37,2013-10-29 14:56:00,
2013-10-29 10:57:00,39.0,33.7,30.45,North,0,4.6,6.0,81,0.00,CLR,OVC,0.00,WeatherDisplay:10.37,2013-10-29 14:57:00,
2013-10-29 10:58:00,39.1,33.5,30.45,North,0,2.3,6.9,80,0.00,CLR,OVC,0.00,WeatherDisplay:10.37,2013-10-29 14:58:00,
2013-10-29 11:00:00,39.1,33.1,30.45,North,0,2.4,3.5,79,0.00,CLR,OVC,0.00,WeatherDisplay:10.37,2013-10-29 15:00:00,
2013-10-29 11:01:00,39.2,33.2,30.45,North,0,0.9,3.5,79,0.00,CLR,OVC,0.00,WeatherDisplay:10.37,2013-10-29 15:01:00,
2013-10-29 11:02:00,39.3,33.3,30.45,North,0,0.7,2.3,79,0.00,CLR,OVC,0.00,WeatherDisplay:10.37,2013-10-29 15:02:00,
2013-10-29 11:03:00,39.3,33.3,30.45,North,0,1.4,5.0,79,0.00,CLR,OVC,0.00,WeatherDisplay:10.37,2013-10-29 15:03:00,
2013-10-29 11:04:00,39.4,33.4,30.45,North,0,4.3,5.8,79,0.00,CLR,OVC,0.00,WeatherDisplay:10.37,2013-10-29 15:04:00,
2013-10-29 11:05:00,39.5,33.5,30.45,North,0,3.4,5.8,79,0.00,CLR,OVC,0.00,WeatherDisplay:10.37,2013-10-29 15:05:00,
2013-10-29 11:06:00,39.6,33.6,30.45,North,0,4.6,4.6,79,0.00,CLR,OVC,0.00,WeatherDisplay:10.37,2013-10-29 15:06:00,
2013-10-29 11:07:00,39.7,33.4,30.45,North,0,3.3,5.8,78,0.00,CLR,OVC,0.00,WeatherDisplay:10.37,2013-10-29 15:07:00,
2013-10-29 11:08:00,39.8,33.5,30.45,North,0,4.5,6.0,78,0.00,CLR,OVC,0.00,WeatherDisplay:10.37,2013-10-29 15:08:00,
2013-10-29 11:09:00,39.9,33.3,30.45,North,0,4.7,5.8,77,0.00,CLR,OVC,0.00,WeatherDisplay:10.37,2013-10-29 15:09:00,
2013-10-29 11:10:00,39.9,32.9,30.45,North,0,3.2,5.8,76,0.00,CLR,OVC,0.00,WeatherDisplay:10.37,2013-10-29 15:10:00,
2013-10-29 11:11:00,40.0,33.0,30.45,North,0,4.3,5.8,76,0.00,CLR,OVC,0.00,WeatherDisplay:10.37,2013-10-29 15:11:00,
2013-10-29 11:12:00,40.0,33.0,30.45,North,0,4.6,7.0,76,0.00,CLR,OVC,0.00,WeatherDisplay:10.37,2013-10-29 15:12:00,
2013-10-29 11:13:00,40.1,33.1,30.45,NNE,15,5.5,8.0,76,0.00,CLR,OVC,0.00,WeatherDisplay:10.37,2013-10-29 15:13:00,
2013-10-29 11:14:00,40.1,32.8,30.45,NNE,18,5.6,9.2,75,0.00,CLR,OVC,0.00,WeatherDisplay:10.37,2013-10-29 15:14:00,
2013-10-29 11:15:00,40.1,32.8,30.45,NNE,14,4.4,9.2,75,0.00,CLR,OVC,0.00,WeatherDisplay:10.37,2013-10-29 15:15:00,
2013-10-29 11:16:00,40.1,32.5,30.45,North,0,6.7,8.1,74,0.00,CLR,OVC,0.00,WeatherDisplay:10.37,2013-10-29 15:16:00,
2013-10-29 11:17:00,40.1,32.5,30.45,North,1,6.0,8.1,74,0.00,CLR,OVC,0.00,WeatherDisplay:10.37,2013-10-29 15:17:00,
2013-10-29 11:18:00,40.1,32.5,30.45,NNW,347,4.4,6.9,74,0.00,CLR,OVC,0.00,WeatherDisplay:10.37,2013-10-29 15:18:00,
2013-10-29 11:19:00,40.1,32.5,30.45,NNW,346,4.8,6.9,74,0.00,CLR,OVC,0.00,WeatherDisplay:10.37,2013-10-29 15:19:00,
2013-10-29 11:20:00,40.1,32.5,30.45,NNW,346,5.0,6.0,74,0.00,CLR,OVC,0.00,WeatherDisplay:10.37,2013-10-29 15:20:00,
2013-10-29 11:21:00,40.2,32.6,30.45,NNW,343,6.0,6.9,74,0.00,CLR,OVC,0.00,WeatherDisplay:10.37,2013-10-29 15:21:00,
2013-10-29 11:22:00,40.2,32.6,30.45,NNW,343,5.4,6.9,74,0.00,CLR,OVC,0.00,WeatherDisplay:10.37,2013-10-29 15:22:00,
2013-10-29 11:23:00,40.3,32.7,30.45,North,358,4.5,8.0,74,0.00,CLR,OVC,0.00,WeatherDisplay:10.37,2013-10-29 15:23:00,
2013-10-29 11:24:00,40.3,32.7,30.45,North,8,5.3,6.9,74,0.00,CLR,OVC,0.00,WeatherDisplay:10.37,2013-10-29 15:24:00,
2013-10-29 11:26:00,40.3,32.3,30.45,North,8,3.9,8.1,73,0.00,CLR,OVC,0.00,WeatherDisplay:10.37,2013-10-29 15:26:00,
2013-10-29 11:28:00,40.3,32.3,30.45,North,9,2.1,7.0,73,0.00,CLR,OVC,0.00,WeatherDisplay:10.37,2013-10-29 15:28:00,
2013-10-29 11:29:00,40.4,32.1,30.45,NE,46,8.4,9.2,72,0.00,CLR,OVC,0.00,WeatherDisplay:10.37,2013-10-29 15:29:00,
2013-10-29 11:30:00,40.4,32.1,30.45,NE,52,7.1,11.5,72,0.00,CLR,OVC,0.00,WeatherDisplay:10.37,2013-10-29 15:30:00,
2013-10-29 11:31:00,40.4,32.1,30.45,NNE,33,5.7,9.2,72,0.00,CLR,OVC,0.00,WeatherDisplay:10.37,2013-10-29 15:31:00,
2013-10-29 11:33:00,40.5,31.8,30.45,North,1,5.3,8.1,71,0.00,CLR,OVC,0.00,WeatherDisplay:10.37,2013-10-29 15:33:00,
2013-10-29 11:34:00,40.5,31.8,30.45,North,356,8.3,10.4,71,0.00,CLR,OVC,0.00,WeatherDisplay:10.37,2013-10-29 15:34:00,
2013-10-29 11:35:00,40.5,31.8,30.45,North,6,7.9,10.4,71,0.00,CLR,OVC,0.00,WeatherDisplay:10.37,2013-10-29 15:35:00,
2013-10-29 11:36:00,40.6,31.9,30.45,North,358,7.3,9.2,71,0.00,CLR,OVC,0.00,WeatherDisplay:10.37,2013-10-29 15:36:00,
2013-10-29 11:37:00,40.5,31.5,30.45,North,0,7.5,9.2,70,0.00,CLR,OVC,0.00,WeatherDisplay:10.37,2013-10-29 15:37:00,
2013-10-29 11:38:00,40.6,31.6,30.45,North,0,7.7,9.2,70,0.00,CLR,OVC,0.00,WeatherDisplay:10.37,2013-10-29 15:38:00,
2013-10-29 11:39:00,40.6,31.6,30.45,NNW,341,5.5,9.2,70,0.00,CLR,OVC,0.00,WeatherDisplay:10.37,2013-10-29 15:39:00,
2013-10-29 11:40:00,40.6,31.6,30.45,NNW,336,5.0,6.9,70,0.00,CLR,OVC,0.00,WeatherDisplay:10.37,2013-10-29 15:40:00,
2013-10-29 11:41:00,40.6,31.9,30.45,NNW,336,3.1,6.9,71,0.00,CLR,OVC,0.00,WeatherDisplay:10.37,2013-10-29 15:41:00,
2013-10-29 11:42:00,40.7,32.0,30.45,NNW,336,3.5,4.6,71,0.00,CLR,OVC,0.00,WeatherDisplay:10.37,2013-10-29 15:42:00,
2013-10-29 11:43:00,40.8,32.5,30.45,NNW,336,2.6,3.5,72,0.00,CLR,OVC,0.00,WeatherDisplay:10.37,2013-10-29 15:43:00,
2013-10-29 11:44:00,40.8,32.5,30.45,NNW,336,2.5,4.0,72,0.00,CLR,OVC,0.00,WeatherDisplay:10.37,2013-10-29 15:44:00,
2013-10-29 11:45:00,40.9,32.6,30.45,NNW,336,2.5,3.5,72,0.00,CLR,OVC,0.00,WeatherDisplay:10.37,2013-10-29 15:45:00,
2013-10-29 11:46:00,41.1,32.8,30.45,NNW,336,3.5,4.6,72,0.00,CLR,OVC,0.00,WeatherDisplay:10.37,2013-10-29 15:46:00,
2013-10-29 11:47:00,41.1,32.8,30.45,NNW,336,3.7,4.6,72,0.00,CLR,OVC,0.00,WeatherDisplay:10.37,2013-10-29 15:47:00,
2013-10-29 11:49:00,41.2,32.9,30.45,NNW,337,2.7,6.9,72,0.00,CLR,OVC,0.00,WeatherDisplay:10.37,2013-10-29 15:49:00,
2013-10-29 11:50:00,41.4,33.0,30.45,NNW,337,3.1,4.6,72,0.00,CLR,OVC,0.00,WeatherDisplay:10.37,2013-10-29 15:50:00,
2013-10-29 11:52:00,41.5,32.8,30.45,NNW,337,3.1,4.6,71,0.00,CLR,OVC,0.00,WeatherDisplay:10.37,2013-10-29 15:52:00,
2013-10-29 11:54:00,41.7,33.0,30.45,NNW,337,1.9,3.5,71,0.00,CLR,OVC,0.00,WeatherDisplay:10.37,2013-10-29 15:54:00,
2013-10-29 11:55:00,41.8,33.1,30.45,WNW,298,5.4,8.1,71,0.00,CLR,OVC,0.00,WeatherDisplay:10.37,2013-10-29 15:55:00,
2013-10-29 11:57:00,41.8,32.7,30.45,WNW,298,4.7,5.8,70,0.00,CLR,OVC,0.00,WeatherDisplay:10.37,2013-10-29 15:57:00,
2013-10-29 11:59:00,41.9,32.8,30.45,NW,308,3.8,6.9,70,0.00,CLR,OVC,0.00,WeatherDisplay:10.37,2013-10-29 15:59:00,
2013-10-29 12:00:00,41.9,32.8,30.45,North,358,4.9,8.0,70,0.00,CLR,OVC,0.00,WeatherDisplay:10.37,2013-10-29 16:00:00,
2013-10-29 12:01:00,42.0,32.2,30.45,North,7,8.5,9.2,68,0.00,CLR,OVC,0.00,WeatherDisplay:10.37,2013-10-29 16:01:00,
2013-10-29 12:02:00,41.9,32.1,30.45,North,359,7.9,11.5,68,0.00,CLR,OVC,0.00,WeatherDisplay:10.37,2013-10-29 16:02:00,
2013-10-29 12:03:00,42.0,32.2,30.45,North,0,7.7,11.5,68,0.00,CLR,OVC,0.00,WeatherDisplay:10.37,2013-10-29 16:03:00,
2013-10-29 12:04:00,41.9,31.7,30.45,NNW,347,7.4,10.4,67,0.00,CLR,OVC,0.00,WeatherDisplay:10.37,2013-10-29 16:04:00,
2013-10-29 12:05:00,41.9,31.7,30.45,North,358,7.1,9.2,67,0.00,CLR,OVC,0.00,WeatherDisplay:10.37,2013-10-29 16:05:00,
2013-10-29 12:06:00,41.9,31.7,30.44,North,8,4.9,8.1,67,0.00,CLR,OVC,0.00,WeatherDisplay:10.37,2013-10-29 16:06:00,
2013-10-29 12:07:00,41.9,31.7,30.45,North,7,5.9,8.1,67,0.00,CLR,OVC,0.00,WeatherDisplay:10.37,2013-10-29 16:07:00,
2013-10-29 12:08:00,41.8,31.3,30.45,North,6,5.3,6.9,66,0.00,CLR,OVC,0.00,WeatherDisplay:10.37,2013-10-29 16:08:00,
2013-10-29 12:09:00,41.7,31.5,30.45,NE,51,7.0,7.0,67,0.00,CLR,OVC,0.00,WeatherDisplay:10.37,2013-10-29 16:09:00,
2013-10-29 12:11:00,41.7,31.5,30.44,NE,45,4.7,9.2,67,0.00,CLR,OVC,0.00,WeatherDisplay:10.37,2013-10-29 16:11:00,
2013-10-29 12:12:00,41.7,31.5,30.44,NNE,21,3.2,4.6,67,0.00,CLR,OVC,0.00,WeatherDisplay:10.37,2013-10-29 16:12:00,
2013-10-29 12:13:00,41.7,31.2,30.45,NNE,21,1.5,4.0,66,0.00,CLR,OVC,0.00,WeatherDisplay:10.37,2013-10-29 16:13:00,
2013-10-29 12:14:00,41.7,31.5,30.44,NNE,20,2.4,3.5,67,0.00,CLR,OVC,0.00,WeatherDisplay:10.37,2013-10-29 16:14:00,
2013-10-29 12:16:00,41.8,31.6,30.44,NNW,338,3.8,4.6,67,0.00,CLR,OVC,0.00,WeatherDisplay:10.37,2013-10-29 16:16:00,
2013-10-29 12:17:00,41.9,32.1,30.44,NNW,331,5.2,7.0,68,0.00,CLR,OVC,0.00,WeatherDisplay:10.37,2013-10-29 16:17:00,
2013-10-29 12:18:00,42.0,32.2,30.44,NNW,331,4.6,6.9,68,0.00,CLR,OVC,0.00,WeatherDisplay:10.37,2013-10-29 16:18:00,
2013-10-29 12:20:00,42.0,31.8,30.44,NNW,335,3.1,4.0,67,0.00,CLR,OVC,0.00,WeatherDisplay:10.37,2013-10-29 16:20:00,
2013-10-29 12:21:00,42.1,31.9,30.44,NNW,339,4.0,5.8,67,0.00,CLR,OVC,0.00,WeatherDisplay:10.37,2013-10-29 16:21:00,
2013-10-29 12:22:00,42.1,31.9,30.44,NNE,21,4.8,8.1,67,0.00,CLR,OVC,0.00,WeatherDisplay:10.37,2013-10-29 16:22:00,
2013-10-29 12:23:00,42.1,31.9,30.44,NNE,21,2.5,3.5,67,0.00,CLR,OVC,0.00,WeatherDisplay:10.37,2013-10-29 16:23:00,
2013-10-29 12:24:00,42.1,31.9,30.44,NNE,21,2.6,3.5,67,0.00,CLR,OVC,0.00,WeatherDisplay:10.37,2013-10-29 16:24:00,
2013-10-29 12:25:00,42.2,31.6,30.44,NNE,21,2.9,5.0,66,0.00,CLR,OVC,0.00,WeatherDisplay:10.37,2013-10-29 16:25:00,
2013-10-29 12:26:00,42.2,31.6,30.44,NNE,21,3.2,5.8,66,0.00,CLR,OVC,0.00,WeatherDisplay:10.37,2013-10-29 16:26:00,
2013-10-29 12:27:00,42.3,31.7,30.43,NW,322,2.6,5.8,66,0.00,CLR,OVC,0.00,WeatherDisplay:10.37,2013-10-29 16:27:00,
2013-10-29 12:28:00,42.4,31.5,30.43,NW,322,0.7,3.5,65,0.00,CLR,OVC,0.00,WeatherDisplay:10.37,2013-10-29 16:28:00,
2013-10-29 12:29:00,42.4,31.5,30.43,North,6,2.0,7.0,65,0.00,CLR,OVC,0.00,WeatherDisplay:10.37,2013-10-29 16:29:00,
2013-10-29 12:30:00,42.4,31.5,30.43,NNE,22,5.4,8.1,65,0.00,CLR,OVC,0.00,WeatherDisplay:10.37,2013-10-29 16:30:00,
2013-10-29 12:32:00,42.4,31.5,30.43,NNE,22,1.7,4.6,65,0.00,CLR,OVC,0.00,WeatherDisplay:10.37,2013-10-29 16:32:00,
2013-10-29 12:33:00,42.4,31.8,30.43,NNE,22,2.0,3.5,66,0.00,CLR,OVC,0.00,WeatherDisplay:10.37,2013-10-29 16:33:00,
2013-10-29 12:34:00,42.5,31.6,30.43,NNE,21,2.5,3.5,65,0.00,CLR,OVC,0.00,WeatherDisplay:10.37,2013-10-29 16:34:00,
2013-10-29 12:35:00,42.5,31.6,30.43,NNE,21,1.5,3.5,65,0.00,CLR,OVC,0.00,WeatherDisplay:10.37,2013-10-29 16:35:00,
2013-10-29 12:37:00,42.7,32.1,30.43,NNE,21,1.3,3.5,66,0.00,CLR,OVC,0.00,WeatherDisplay:10.37,2013-10-29 16:37:00,
2013-10-29 12:39:00,42.8,32.2,30.43,NNE,21,2.1,3.5,66,0.00,CLR,OVC,0.00,WeatherDisplay:10.37,2013-10-29 16:39:00,
2013-10-29 12:40:00,42.8,32.2,30.43,North,0,3.0,5.0,66,0.00,CLR,OVC,0.00,WeatherDisplay:10.37,2013-10-29 16:40:00,
2013-10-29 12:42:00,42.9,31.9,30.43,North,0,3.2,7.0,65,0.00,CLR,OVC,0.00,WeatherDisplay:10.37,2013-10-29 16:42:00,
2013-10-29 12:43:00,42.9,31.9,30.43,North,0,4.0,5.8,65,0.00,CLR,OVC,0.00,WeatherDisplay:10.37,2013-10-29 16:43:00,
2013-10-29 12:44:00,43.0,32.4,30.43,North,355,5.9,8.1,66,0.00,CLR,OVC,0.00,WeatherDisplay:10.37,2013-10-29 16:44:00,
2013-10-29 12:45:00,43.0,32.4,30.43,North,355,4.3,6.9,66,0.00,CLR,OVC,0.00,WeatherDisplay:10.37,2013-10-29 16:45:00,
2013-10-29 12:48:00,43.2,32.6,30.43,North,358,6.3,10.4,66,0.00,CLR,OVC,0.00,WeatherDisplay:10.37,2013-10-29 16:48:00,
2013-10-29 12:49:00,43.3,32.7,30.43,NNW,343,6.8,8.1,66,0.00,CLR,OVC,0.00,WeatherDisplay:10.37,2013-10-29 16:49:00,
2013-10-29 12:50:00,43.3,32.7,30.43,North,0,6.7,9.2,66,0.00,CLR,OVC,0.00,WeatherDisplay:10.37,2013-10-29 16:50:00,
2013-10-29 12:53:00,43.5,32.9,30.43,North,352,5.1,8.1,66,0.00,CLR,OVC,0.00,WeatherDisplay:10.37,2013-10-29 16:53:00,
2013-10-29 12:54:00,43.5,32.5,30.42,North,352,5.1,6.9,65,0.00,CLR,OVC,0.00,WeatherDisplay:10.37,2013-10-29 16:54:00,
2013-10-29 12:55:00,43.4,32.4,30.42,North,352,3.1,5.8,65,0.00,CLR,OVC,0.00,WeatherDisplay:10.37,2013-10-29 16:55:00,
2013-10-29 12:56:00,43.4,32.4,30.42,North,358,3.0,5.0,65,0.00,CLR,OVC,0.00,WeatherDisplay:10.37,2013-10-29 16:56:00,
2013-10-29 12:58:00,43.5,32.5,30.42,NE,56,3.0,5.8,65,0.00,CLR,OVC,0.00,WeatherDisplay:10.37,2013-10-29 16:58:00,
2013-10-29 12:59:00,43.6,32.6,30.42,North,5,4.6,5.8,65,0.00,CLR,OVC,0.00,WeatherDisplay:10.37,2013-10-29 16:59:00,
2013-10-29 13:00:00,43.6,32.2,30.42,North,359,5.1,8.1,64,0.00,CLR,OVC,0.00,WeatherDisplay:10.37,2013-10-29 17:00:00,
2013-10-29 13:01:00,43.5,32.1,30.42,NNE,25,4.9,10.0,64,0.00,CLR,OVC,0.00,WeatherDisplay:10.37,2013-10-29 17:01:00,
2013-10-29 13:03:00,43.4,32.0,30.42,NNE,24,6.6,10.4,64,0.00,CLR,OVC,0.00,WeatherDisplay:10.37,2013-10-29 17:03:00,
2013-10-29 13:04:00,43.4,32.4,30.42,NNE,20,6.1,10.4,65,0.00,CLR,OVC,0.00,WeatherDisplay:10.37,2013-10-29 17:04:00,
2013-10-29 13:05:00,43.4,32.0,30.42,NNE,14,5.2,9.2,64,0.00,CLR,OVC,0.00,WeatherDisplay:10.37,2013-10-29 17:05:00,
2013-10-29 13:06:00,43.3,31.5,30.42,NNE,14,2.6,6.9,63,0.00,CLR,OVC,0.00,WeatherDisplay:10.37,2013-10-29 17:06:00,
2013-10-29 13:08:00,43.3,31.9,30.42,North,1,4.3,6.9,64,0.00,CLR,OVC,0.00,WeatherDisplay:10.37,2013-10-29 17:08:00,
2013-10-29 13:09:00,43.3,31.5,30.42,North,3,5.4,6.9,63,0.00,CLR,OVC,0.00,WeatherDisplay:10.37,2013-10-29 17:09:00,
2013-10-29 13:10:00,43.3,31.1,30.42,North,3,4.2,6.9,62,0.00,CLR,OVC,0.00,WeatherDisplay:10.37,2013-10-29 17:10:00,
2013-10-29 13:11:00,43.4,31.2,30.42,North,2,2.0,5.8,62,0.00,CLR,OVC,0.00,WeatherDisplay:10.37,2013-10-29 17:11:00,
2013-10-29 13:13:00,43.5,31.7,30.42,North,355,3.0,6.0,63,0.00,CLR,OVC,0.00,WeatherDisplay:10.37,2013-10-29 17:13:00,
2013-10-29 13:15:00,43.6,31.8,30.42,North,350,4.4,8.0,63,0.00,CLR,OVC,0.00,WeatherDisplay:10.37,2013-10-29 17:15:00,
2013-10-29 13:16:00,43.7,31.9,30.42,North,350,6.9,8.1,63,0.00,CLR,OVC,0.00,WeatherDisplay:10.37,2013-10-29 17:16:00,
2013-10-29 13:18:00,43.8,31.6,30.42,NNE,25,4.9,6.9,62,0.00,CLR,OVC,0.00,WeatherDisplay:10.37,2013-10-29 17:18:00,
2013-10-29 13:20:00,43.8,31.2,30.42,North,3,3.9,5.8,61,0.00,CLR,OVC,0.00,WeatherDisplay:10.37,2013-10-29 17:20:00,
2013-10-29 13:21:00,43.8,31.2,30.42,North,3,2.4,3.5,61,0.00,CLR,OVC,0.00,WeatherDisplay:10.37,2013-10-29 17:21:00,
2013-10-29 13:23:00,43.9,30.9,30.42,NNW,344,2.3,3.5,60,0.00,CLR,OVC,0.00,WeatherDisplay:10.37,2013-10-29 17:23:00,
2013-10-29 13:24:00,43.9,30.9,30.41,NNW,344,1.9,3.5,60,0.00,CLR,OVC,0.00,WeatherDisplay:10.37,2013-10-29 17:24:00,
2013-10-29 13:25:00,44.0,31.0,30.41,NNW,344,1.8,2.3,60,0.00,CLR,OVC,0.00,WeatherDisplay:10.37,2013-10-29 17:25:00,
2013-10-29 13:26:00,44.1,31.1,30.41,NNW,344,1.9,4.0,60,0.00,CLR,OVC,0.00,WeatherDisplay:10.37,2013-10-29 17:26:00,
2013-10-29 13:27:00,44.1,31.1,30.41,NNW,344,2.5,3.5,60,0.00,CLR,OVC,0.00,WeatherDisplay:10.37,2013-10-29 17:27:00,
2013-10-29 13:29:00,44.2,30.8,30.41,NNW,333,4.8,5.8,59,0.00,CLR,OVC,0.00,WeatherDisplay:10.37,2013-10-29 17:29:00,
2013-10-29 13:30:00,44.1,30.7,30.41,NNW,333,4.6,6.0,59,0.00,CLR,OVC,0.00,WeatherDisplay:10.37,2013-10-29 17:30:00,
2013-10-29 13:31:00,44.1,31.1,30.41,NNW,333,4.6,5.8,60,0.00,CLR,OVC,0.00,WeatherDisplay:10.37,2013-10-29 17:31:00,
2013-10-29 13:32:00,44.1,31.5,30.41,NNW,333,4.6,5.8,61,0.00,CLR,OVC,0.00,WeatherDisplay:10.37,2013-10-29 17:32:00,
2013-10-29 13:34:00,44.1,31.1,30.41,NNW,327,4.2,6.0,60,0.00,CLR,OVC,0.00,WeatherDisplay:10.37,2013-10-29 17:34:00,
2013-10-29 13:35:00,44.1,31.1,30.41,NNW,327,1.7,3.5,60,0.00,CLR,OVC,0.00,WeatherDisplay:10.37,2013-10-29 17:35:00,
2013-10-29 13:36:00,44.1,31.1,30.41,NNW,327,0.7,3.5,60,0.00,CLR,OVC,0.00,WeatherDisplay:10.37,2013-10-29 17:36:00,
2013-10-29 13:37:00,44.1,31.1,30.40,NNW,327,0.8,2.3,60,0.00,CLR,OVC,0.00,WeatherDisplay:10.37,2013-10-29 17:37:00,
2013-10-29 13:39:00,44.2,31.2,30.40,NW,311,4.8,5.8,60,0.00,CLR,OVC,0.00,WeatherDisplay:10.37,2013-10-29 17:39:00,
2013-10-29 13:40:00,44.2,30.8,30.40,NW,310,4.7,6.9,59,0.00,CLR,OVC,0.00,WeatherDisplay:10.37,2013-10-29 17:40:00,
2013-10-29 13:41:00,44.2,30.8,30.40,NW,310,3.8,6.9,59,0.00,CLR,OVC,0.00,WeatherDisplay:10.37,2013-10-29 17:41:00,
2013-10-29 13:42:00,44.2,30.8,30.40,NW,310,3.9,5.8,59,0.00,CLR,OVC,0.00,WeatherDisplay:10.37,2013-10-29 17:42:00,
2013-10-29 13:44:00,44.2,31.2,30.40,NW,310,2.9,4.6,60,0.00,CLR,OVC,0.00,WeatherDisplay:10.37,2013-10-29 17:44:00,
2013-10-29 13:46:00,44.3,31.3,30.40,NW,310,3.7,4.6,60,0.00,CLR,OVC,0.00,WeatherDisplay:10.37,2013-10-29 17:46:00,
2013-10-29 13:47:00,44.3,31.3,30.41,NW,310,3.2,4.6,60,0.00,CLR,OVC,0.00,WeatherDisplay:10.37,2013-10-29 17:47:00,
2013-10-29 13:49:00,44.3,30.9,30.41,NW,310,2.5,3.5,59,0.00,CLR,OVC,0.00,WeatherDisplay:10.37,2013-10-29 17:49:00,
2013-10-29 13:51:00,44.4,30.5,30.41,NW,310,1.3,3.0,58,0.00,CLR,OVC,0.00,WeatherDisplay:10.37,2013-10-29 17:51:00,
2013-10-29 13:52:00,44.5,30.6,30.41,NW,310,1.4,3.5,58,0.00,CLR,OVC,0.00,WeatherDisplay:10.37,2013-10-29 17:52:00,
2013-10-29 13:54:00,44.7,31.2,30.41,NW,311,4.9,6.0,59,0.00,CLR,OVC,0.00,WeatherDisplay:10.37,2013-10-29 17:54:00,
2013-10-29 13:56:00,44.9,31.4,30.41,NW,306,3.5,4.6,59,0.00,CLR,OVC,0.00,WeatherDisplay:10.37,2013-10-29 17:56:00,
2013-10-29 13:57:00,44.9,31.4,30.41,NW,306,2.3,4.6,59,0.00,CLR,OVC,0.00,WeatherDisplay:10.37,2013-10-29 17:57:00,
2013-10-29 13:59:00,45.0,31.5,30.41,NE,39,4.5,5.8,59,0.00,CLR,OVC,0.00,WeatherDisplay:10.37,2013-10-29 17:59:00,
2013-10-29 14:01:00,45.2,30.9,30.41,NNE,16,6.5,10.4,57,0.00,CLR,OVC,0.00,WeatherDisplay:10.37,2013-10-29 18:01:00,
2013-10-29 14:02:00,45.2,30.9,30.41,NNE,15,6.9,10.4,57,0.00,CLR,OVC,0.00,WeatherDisplay:10.37,2013-10-29 18:02:00,
2013-10-29 14:04:00,45.1,30.3,30.41,NNE,24,3.5,6.9,56,0.00,CLR,OVC,0.00,WeatherDisplay:10.37,2013-10-29 18:04:00,
2013-10-29 14:07:00,45.0,30.7,30.40,NNE,24,1.0,3.5,57,0.00,CLR,OVC,0.00,WeatherDisplay:10.37,2013-10-29 18:07:00,
2013-10-29 14:09:00,45.1,30.8,30.40,NNE,24,1.7,3.5,57,0.00,CLR,OVC,0.00,WeatherDisplay:10.37,2013-10-29 18:09:00,
2013-10-29 14:10:00,45.2,30.4,30.40,NNE,24,2.7,5.8,56,0.00,CLR,OVC,0.00,WeatherDisplay:10.37,2013-10-29 18:10:00,
2013-10-29 14:12:00,45.3,30.5,30.40,NNE,24,2.5,3.5,56,0.00,CLR,OVC,0.00,WeatherDisplay:10.37,2013-10-29 18:12:00,
2013-10-29 14:13:00,45.4,31.0,30.40,NE,43,3.0,3.5,57,0.00,CLR,OVC,0.00,WeatherDisplay:10.37,2013-10-29 18:13:00,
2013-10-29 14:14:00,45.5,31.1,30.40,NE,43,1.7,3.5,57,0.00,CLR,OVC,0.00,WeatherDisplay:10.37,2013-10-29 18:14:00,
2013-10-29 14:16:00,45.6,31.2,30.40,NE,43,1.6,2.3,57,0.00,CLR,OVC,0.00,WeatherDisplay:10.37,2013-10-29 18:16:00,
2013-10-29 14:17:00,45.7,30.9,30.39,NE,43,2.3,3.5,56,0.00,CLR,OVC,0.00,WeatherDisplay:10.37,2013-10-29 18:17:00,
2013-10-29 14:18:00,45.8,31.0,30.40,NE,43,2.3,3.5,56,0.00,CLR,OVC,0.00,WeatherDisplay:10.37,2013-10-29 18:18:00,
2013-10-29 14:19:00,45.9,30.6,30.40,NE,43,1.4,3.5,55,0.00,CLR,OVC,0.00,WeatherDisplay:10.37,2013-10-29 18:19:00,
2013-10-29 14:21:00,46.1,30.4,30.39,NE,43,0.8,3.5,54,0.00,CLR,OVC,0.00,WeatherDisplay:10.37,2013-10-29 18:21:00,
2013-10-29 14:22:00,46.3,30.5,30.40,NE,43,1.8,3.5,54,0.00,CLR,OVC,0.00,WeatherDisplay:10.37,2013-10-29 18:22:00,
2013-10-29 14:23:00,46.3,31.0,30.40,NE,43,1.5,3.5,55,0.00,CLR,OVC,0.00,WeatherDisplay:10.37,2013-10-29 18:23:00,
2013-10-29 14:24:00,46.5,31.2,30.40,NNE,12,2.1,6.0,55,0.00,CLR,OVC,0.00,WeatherDisplay:10.37,2013-10-29 18:24:00,
2013-10-29 14:26:00,46.5,30.3,30.40,North,0,4.5,5.8,53,0.00,CLR,OVC,0.00,WeatherDisplay:10.37,2013-10-29 18:26:00,
2013-10-29 14:28:00,46.5,30.3,30.39,North,359,5.6,5.8,53,0.00,CLR,OVC,0.00,WeatherDisplay:10.37,2013-10-29 18:28:00,
2013-10-29 14:29:00,46.5,30.3,30.40,North,0,4.1,5.8,53,0.00,CLR,OVC,0.00,WeatherDisplay:10.37,2013-10-29 18:29:00,
2013-10-29 14:31:00,46.4,29.7,30.40,North,0,3.9,5.8,52,0.00,CLR,OVC,0.00,WeatherDisplay:10.37,2013-10-29 18:31:00,
2013-10-29 14:33:00,46.3,30.1,30.39,North,0,2.7,4.0,53,0.00,CLR,OVC,0.00,WeatherDisplay:10.37,2013-10-29 18:33:00,
2013-10-29 14:34:00,46.3,29.6,30.39,North,0,3.1,3.5,52,0.00,CLR,OVC,0.00,WeatherDisplay:10.37,2013-10-29 18:34:00,
2013-10-29 14:35:00,46.3,29.1,30.39,North,0,2.8,3.5,51,0.00,CLR,OVC,0.00,WeatherDisplay:10.37,2013-10-29 18:35:00,
2013-10-29 14:37:00,46.1,29.0,30.39,North,0,0.9,3.5,51,0.00,CLR,OVC,0.00,WeatherDisplay:10.37,2013-10-29 18:37:00,
2013-10-29 14:38:00,46.1,29.4,30.39,North,0,1.5,1.5,52,0.00,CLR,OVC,0.00,WeatherDisplay:10.37,2013-10-29 18:38:00,
2013-10-29 14:39:00,46.2,30.0,30.39,North,0,1.3,2.3,53,0.00,CLR,OVC,0.00,WeatherDisplay:10.37,2013-10-29 18:39:00,
2013-10-29 14:40:00,46.3,30.5,30.39,North,0,1.8,2.3,54,0.00,CLR,OVC,0.00,WeatherDisplay:10.37,2013-10-29 18:40:00,
2013-10-29 14:42:00,46.5,30.3,30.39,NNW,345,3.0,5.0,53,0.00,CLR,OVC,0.00,WeatherDisplay:10.37,2013-10-29 18:42:00,
2013-10-29 14:43:00,46.5,30.7,30.39,NNW,341,4.0,5.8,54,0.00,CLR,OVC,0.00,WeatherDisplay:10.37,2013-10-29 18:43:00,
2013-10-29 14:44:00,46.6,31.3,30.39,NW,324,4.9,8.1,55,0.00,CLR,OVC,0.00,WeatherDisplay:10.37,2013-10-29 18:44:00,
2013-10-29 14:45:00,46.6,31.3,30.39,NW,324,5.0,8.1,55,0.00,CLR,OVC,0.00,WeatherDisplay:10.37,2013-10-29 18:45:00,
2013-10-29 14:48:00,46.6,30.8,30.39,NW,312,3.9,5.8,54,0.00,CLR,OVC,0.00,WeatherDisplay:10.37,2013-10-29 18:48:00,
2013-10-29 14:49:00,46.6,30.4,30.39,NW,312,3.5,4.6,53,0.00,CLR,OVC,0.00,WeatherDisplay:10.37,2013-10-29 18:49:00,
2013-10-29 14:50:00,46.5,30.3,30.39,NW,312,0.9,3.5,53,0.00,CLR,OVC,0.00,WeatherDisplay:10.37,2013-10-29 18:50:00,
2013-10-29 14:51:00,46.5,30.7,30.39,NW,312,1.0,2.3,54,0.00,CLR,OVC,0.00,WeatherDisplay:10.37,2013-10-29 18:51:00,
2013-10-29 14:53:00,46.6,30.4,30.39,NW,312,0.9,2.3,53,0.00,CLR,OVC,0.00,WeatherDisplay:10.37,2013-10-29 18:53:00,
2013-10-29 14:54:00,46.7,30.5,30.39,NW,312,0.8,2.3,53,0.00,CLR,OVC,0.00,WeatherDisplay:10.37,2013-10-29 18:54:00,
2013-10-29 14:55:00,46.8,30.6,30.39,NW,312,1.8,4.0,53,0.00,CLR,OVC,0.00,WeatherDisplay:10.37,2013-10-29 18:55:00,
2013-10-29 14:56:00,46.8,31.0,30.39,NW,312,4.2,5.8,54,0.00,CLR,OVC,0.00,WeatherDisplay:10.37,2013-10-29 18:56:00,
2013-10-29 14:57:00,46.9,31.1,30.39,NW,326,6.0,8.1,54,0.00,CLR,OVC,0.00,WeatherDisplay:10.37,2013-10-29 18:57:00,
2013-10-29 14:58:00,47.0,30.7,30.39,NW,326,6.1,6.9,53,0.00,CLR,OVC,0.00,WeatherDisplay:10.37,2013-10-29 18:58:00,
2013-10-29 14:59:00,47.0,30.3,30.40,NW,326,5.7,6.9,52,0.00,CLR,OVC,0.00,WeatherDisplay:10.37,2013-10-29 18:59:00,
2013-10-29 15:00:00,46.9,30.2,30.39,NW,326,4.0,6.9,52,0.00,CLR,OVC,0.00,WeatherDisplay:10.37,2013-10-29 19:00:00,
2013-10-29 15:01:00,46.9,30.2,30.39,NW,326,2.8,4.6,52,0.00,CLR,OVC,0.00,WeatherDisplay:10.37,2013-10-29 19:01:00,
2013-10-29 15:02:00,46.8,30.1,30.39,NW,326,4.3,5.0,52,0.00,CLR,OVC,0.00,WeatherDisplay:10.37,2013-10-29 19:02:00,
2013-10-29 15:03:00,46.8,29.6,30.39,NW,326,3.5,4.6,51,0.00,CLR,OVC,0.00,WeatherDisplay:10.37,2013-10-29 19:03:00,
2013-10-29 15:04:00,46.7,30.0,30.39,NW,326,3.1,4.6,52,0.00,CLR,OVC,0.00,WeatherDisplay:10.37,2013-10-29 19:04:00,
2013-10-29 15:05:00,46.7,30.0,30.39,NW,326,2.9,4.0,52,0.00,CLR,OVC,0.00,WeatherDisplay:10.37,2013-10-29 19:05:00,
2013-10-29 15:06:00,46.6,29.9,30.39,NW,325,3.1,3.5,52,0.00,CLR,OVC,0.00,WeatherDisplay:10.37,2013-10-29 19:06:00,
2013-10-29 15:08:00,46.5,29.8,30.39,NW,326,3.1,3.5,52,0.00,CLR,OVC,0.00,WeatherDisplay:10.37,2013-10-29 19:08:00,
2013-10-29 15:09:00,46.5,29.8,30.39,NW,326,2.2,5.0,52,0.00,CLR,OVC,0.00,WeatherDisplay:10.37,2013-10-29 19:09:00,
2013-10-29 15:10:00,46.5,30.3,30.39,NW,326,3.7,4.6,53,0.00,CLR,OVC,0.00,WeatherDisplay:10.37,2013-10-29 19:10:00,
2013-10-29 15:11:00,46.5,29.8,30.39,NW,326,3.1,4.6,52,0.00,CLR,OVC,0.00,WeatherDisplay:10.37,2013-10-29 19:11:00,
2013-10-29 15:14:00,46.7,30.0,30.39,NW,326,4.7,6.0,52,0.00,CLR,OVC,0.00,WeatherDisplay:10.37,2013-10-29 19:14:00,
2013-10-29 15:15:00,46.7,30.0,30.39,NW,326,4.8,6.9,52,0.00,CLR,OVC,0.00,WeatherDisplay:10.37,2013-10-29 19:15:00,
2013-10-29 15:16:00,46.7,30.5,30.39,NNW,332,4.3,6.9,53,0.00,CLR,OVC,0.00,WeatherDisplay:10.37,2013-10-29 19:16:00,
2013-10-29 15:19:00,46.9,30.6,30.39,NNW,332,3.9,4.6,53,0.00,CLR,OVC,0.00,WeatherDisplay:10.37,2013-10-29 19:19:00,
2013-10-29 15:20:00,46.9,30.6,30.39,NNW,332,4.1,5.8,53,0.00,CLR,OVC,0.00,WeatherDisplay:10.37,2013-10-29 19:20:00,
2013-10-29 15:21:00,46.9,30.6,30.39,NNW,332,4.5,5.0,53,0.00,CLR,OVC,0.00,WeatherDisplay:10.37,2013-10-29 19:21:00,
2013-10-29 15:24:00,46.9,30.6,30.39,NNW,332,2.4,3.5,53,0.00,CLR,OVC,0.00,WeatherDisplay:10.37,2013-10-29 19:24:00,
2013-10-29 15:25:00,46.9,30.6,30.39,NNW,332,2.5,3.5,53,0.00,CLR,OVC,0.00,WeatherDisplay:10.37,2013-10-29 19:25:00,
2013-10-29 15:26:00,46.9,30.2,30.38,NNW,332,2.7,3.5,52,0.00,CLR,OVC,0.00,WeatherDisplay:10.37,2013-10-29 19:26:00,
2013-10-29 15:30:00,46.9,30.6,30.39,NNW,332,3.6,4.6,53,0.00,CLR,OVC,0.00,WeatherDisplay:10.37,2013-10-29 19:30:00,
2013-10-29 15:31:00,47.0,30.7,30.38,NNW,331,3.3,4.6,53,0.00,CLR,OVC,0.00,WeatherDisplay:10.37,2013-10-29 19:31:00,
2013-10-29 15:32:00,46.9,30.2,30.38,NNW,331,2.7,4.6,52,0.00,CLR,OVC,0.00,WeatherDisplay:10.37,2013-10-29 19:32:00,
2013-10-29 15:35:00,47.0,30.7,30.39,NNW,328,3.3,4.6,53,0.00,CLR,OVC,0.00,WeatherDisplay:10.37,2013-10-29 19:35:00,
2013-10-29 15:36:00,47.1,30.8,30.39,NW,315,3.4,4.6,53,0.00,CLR,OVC,0.00,WeatherDisplay:10.37,2013-10-29 19:36:00,
2013-10-29 15:37:00,47.1,30.4,30.38,SSW,207,4.2,5.8,52,0.00,CLR,OVC,0.00,WeatherDisplay:10.37,2013-10-29 19:37:00,
2013-10-29 15:40:00,47.1,30.8,30.37,SSW,207,1.4,3.5,53,0.00,CLR,OVC,0.00,WeatherDisplay:10.37,2013-10-29 19:40:00,
2013-10-29 15:41:00,47.1,30.4,30.38,SSW,207,0.9,3.5,52,0.00,CLR,OVC,0.00,WeatherDisplay:10.37,2013-10-29 19:41:00,
2013-10-29 15:42:00,47.2,30.5,30.37,SSW,207,1.1,2.3,52,0.00,CLR,OVC,0.00,WeatherDisplay:10.37,2013-10-29 19:42:00,
2013-10-29 15:43:00,47.3,31.0,30.37,SE,129,3.8,5.8,53,0.00,CLR,OVC,0.00,WeatherDisplay:10.37,2013-10-29 19:43:00,
2013-10-29 15:45:00,47.6,31.3,30.37,SE,138,3.0,4.6,53,0.00,CLR,OVC,0.00,WeatherDisplay:10.37,2013-10-29 19:45:00,
2013-10-29 15:46:00,47.7,31.4,30.38,SE,139,3.1,4.6,53,0.00,CLR,OVC,0.00,WeatherDisplay:10.37,2013-10-29 19:46:00,
2013-10-29 15:47:00,47.8,31.0,30.38,SE,139,2.4,4.6,52,0.00,CLR,OVC,0.00,WeatherDisplay:10.37,2013-10-29 19:47:00,
2013-10-29 15:49:00,47.8,31.0,30.37,SE,139,1.8,3.5,52,0.00,CLR,OVC,0.00,WeatherDisplay:10.37,2013-10-29 19:49:00,
2013-10-29 15:50:00,47.8,31.0,30.37,SE,139,0.7,3.5,52,0.00,CLR,OVC,0.00,WeatherDisplay:10.37,2013-10-29 19:50:00,
2013-10-29 15:51:00,47.8,30.5,30.37,SE,139,2.0,3.5,51,0.00,CLR,OVC,0.00,WeatherDisplay:10.37,2013-10-29 19:51:00,
2013-10-29 15:52:00,47.9,30.6,30.38,SE,138,2.8,4.0,51,0.00,CLR,OVC,0.00,WeatherDisplay:10.37,2013-10-29 19:52:00,
2013-10-29 15:53:00,47.9,30.6,30.38,SE,135,3.5,4.6,51,0.00,CLR,OVC,0.00,WeatherDisplay:10.37,2013-10-29 19:53:00,
2013-10-29 15:54:00,47.9,30.1,30.38,ESE,123,3.0,5.8,50,0.00,CLR,OVC,0.00,WeatherDisplay:10.37,2013-10-29 19:54:00,
2013-10-29 15:56:00,47.9,30.1,30.38,ESE,121,2.2,4.6,50,0.00,CLR,OVC,0.00,WeatherDisplay:10.37,2013-10-29 19:56:00,
2013-10-29 15:57:00,47.9,30.1,30.38,ESE,118,1.7,3.5,50,0.00,CLR,OVC,0.00,WeatherDisplay:10.37,2013-10-29 19:57:00,
2013-10-29 15:58:00,47.8,30.0,30.37,ESE,109,4.1,5.8,50,0.00,CLR,OVC,0.00,WeatherDisplay:10.37,2013-10-29 19:58:00,
2013-10-29 16:01:00,47.8,29.5,30.37,East,99,3.3,3.5,49,0.00,CLR,OVC,0.00,WeatherDisplay:10.37,2013-10-29 20:01:00,
2013-10-29 16:02:00,47.7,29.5,30.37,East,97,3.7,5.0,49,0.00,CLR,OVC,0.00,WeatherDisplay:10.37,2013-10-29 20:02:00,
2013-10-29 16:03:00,47.7,29.5,30.37,East,94,2.5,4.6,49,0.00,CLR,OVC,0.00,WeatherDisplay:10.37,2013-10-29 20:03:00,
2013-10-29 16:06:00,47.7,30.0,30.36,East,95,4.1,5.0,50,0.00,CLR,OVC,0.00,WeatherDisplay:10.37,2013-10-29 20:06:00,
2013-10-29 16:07:00,47.7,30.0,30.36,East,95,4.6,5.8,50,0.00,CLR,OVC,0.00,WeatherDisplay:10.37,2013-10-29 20:07:00,
2013-10-29 16:08:00,47.7,30.0,30.36,East,95,2.4,5.8,50,0.00,CLR,OVC,0.00,WeatherDisplay:10.37,2013-10-29 20:08:00,
2013-10-29 16:11:00,47.7,30.0,30.36,East,95,1.1,2.3,50,0.00,CLR,OVC,0.00,WeatherDisplay:10.37,2013-10-29 20:11:00,
2013-10-29 16:12:00,47.8,30.5,30.36,East,95,1.6,3.0,51,0.00,CLR,OVC,0.00,WeatherDisplay:10.37,2013-10-29 20:12:00,
2013-10-29 16:13:00,47.8,30.0,30.36,East,95,2.5,3.5,50,0.00,CLR,OVC,0.00,WeatherDisplay:10.37,2013-10-29 20:13:00,
2013-10-29 16:14:00,47.8,30.0,30.36,East,95,2.2,3.5,50,0.00,CLR,OVC,0.00,WeatherDisplay:10.37,2013-10-29 20:14:00,
2013-10-29 16:16:00,47.9,30.6,30.36,East,95,0.6,2.3,51,0.00,CLR,OVC,0.00,WeatherDisplay:10.37,2013-10-29 20:16:00,
2013-10-29 16:17:00,47.9,30.1,30.36,East,95,1.6,2.3,50,0.00,CLR,OVC,0.00,WeatherDisplay:10.37,2013-10-29 20:17:00,
2013-10-29 16:18:00,47.9,29.6,30.36,East,95,1.6,3.5,49,0.00,CLR,OVC,0.00,WeatherDisplay:10.37,2013-10-29 20:18:00,
2013-10-29 16:19:00,48.0,29.7,30.36,East,95,1.4,3.5,49,0.00,CLR,OVC,0.00,WeatherDisplay:10.37,2013-10-29 20:19:00,
2013-10-29 16:21:00,48.1,30.3,30.36,East,95,2.8,3.5,50,0.00,CLR,OVC,0.00,WeatherDisplay:10.37,2013-10-29 20:21:00,
2013-10-29 16:22:00,48.1,30.3,30.36,East,95,2.0,3.5,50,0.00,CLR,OVC,0.00,WeatherDisplay:10.37,2013-10-29 20:22:00,
2013-10-29 16:23:00,48.1,30.3,30.36,East,95,1.0,3.5,50,0.00,CLR,OVC,0.00,WeatherDisplay:10.37,2013-10-29 20:23:00,
2013-10-29 16:24:00,48.1,29.8,30.36,East,95,1.5,3.5,49,0.00,CLR,OVC,0.00,WeatherDisplay:10.37,2013-10-29 20:24:00,
2013-10-29 16:25:00,48.1,29.8,30.36,East,95,1.1,3.5,49,0.00,CLR,OVC,0.00,WeatherDisplay:10.37,2013-10-29 20:25:00,
2013-10-29 16:27:00,48.2,29.9,30.36,East,95,1.0,2.3,49,0.00,CLR,OVC,0.00,WeatherDisplay:10.37,2013-10-29 20:27:00,
2013-10-29 16:28:00,48.2,29.9,30.36,East,95,0.9,2.3,49,0.00,CLR,OVC,0.00,WeatherDisplay:10.37,2013-10-29 20:28:00,
2013-10-29 16:29:00,48.3,30.0,30.36,East,95,1.6,2.3,49,0.00,CLR,OVC,0.00,WeatherDisplay:10.37,2013-10-29 20:29:00,
2013-10-29 16:30:00,48.4,30.1,30.36,East,95,2.4,3.5,49,0.00,CLR,OVC,0.00,WeatherDisplay:10.37,2013-10-29 20:30:00,
2013-10-29 16:32:00,48.4,29.6,30.36,East,95,1.9,3.5,48,0.00,CLR,OVC,0.00,WeatherDisplay:10.37,2013-10-29 20:32:00,
2013-10-29 16:33:00,48.3,30.0,30.36,East,95,1.9,3.5,49,0.00,CLR,OVC,0.00,WeatherDisplay:10.37,2013-10-29 20:33:00,
2013-10-29 16:34:00,48.3,30.0,30.36,East,95,3.3,3.5,49,0.00,CLR,OVC,0.00,WeatherDisplay:10.37,2013-10-29 20:34:00,
2013-10-29 16:35:00,48.3,29.5,30.36,East,95,2.7,4.6,48,0.00,CLR,OVC,0.00,WeatherDisplay:10.37,2013-10-29 20:35:00,
2013-10-29 16:37:00,48.2,29.4,30.36,East,95,2.6,4.6,48,0.00,CLR,OVC,0.00,WeatherDisplay:10.37,2013-10-29 20:37:00,
2013-10-29 16:38:00,48.2,29.4,30.36,East,95,3.5,5.0,48,0.00,CLR,OVC,0.00,WeatherDisplay:10.37,2013-10-29 20:38:00,
2013-10-29 16:39:00,48.1,29.3,30.36,East,95,2.8,4.6,48,0.00,CLR,OVC,0.00,WeatherDisplay:10.37,2013-10-29 20:39:00,
2013-10-29 16:40:00,48.0,29.2,30.36,East,95,3.3,4.0,48,0.00,CLR,OVC,0.00,WeatherDisplay:10.37,2013-10-29 20:40:00,
2013-10-29 16:41:00,47.9,28.6,30.36,East,95,4.4,5.8,47,0.00,CLR,OVC,0.00,WeatherDisplay:10.37,2013-10-29 20:41:00,
2013-10-29 16:42:00,47.8,29.0,30.36,East,95,3.3,5.8,48,0.00,CLR,OVC,0.00,WeatherDisplay:10.37,2013-10-29 20:42:00,
2013-10-29 16:43:00,47.6,28.9,30.36,East,95,3.6,4.0,48,0.00,CLR,OVC,0.00,WeatherDisplay:10.37,2013-10-29 20:43:00,
2013-10-29 16:44:00,47.5,28.8,30.36,East,95,2.2,4.6,48,0.00,CLR,OVC,0.00,WeatherDisplay:10.37,2013-10-29 20:44:00,
2013-10-29 16:45:00,47.5,29.8,30.36,East,95,2.3,3.5,50,0.00,CLR,OVC,0.00,WeatherDisplay:10.37,2013-10-29 20:45:00,
2013-10-29 16:47:00,47.4,29.7,30.36,East,95,2.2,3.5,50,0.00,CLR,OVC,0.00,WeatherDisplay:10.37,2013-10-29 20:47:00,
2013-10-29 16:48:00,47.4,28.7,30.36,East,95,1.8,3.5,48,0.00,CLR,OVC,0.00,WeatherDisplay:10.37,2013-10-29 20:48:00,
2013-10-29 16:49:00,47.4,28.7,30.36,East,95,0.3,1.2,48,0.00,CLR,OVC,0.00,WeatherDisplay:10.37,2013-10-29 20:49:00,
2013-10-29 16:50:00,47.4,28.7,30.36,East,95,1.0,2.3,48,0.00,CLR,OVC,0.00,WeatherDisplay:10.37,2013-10-29 20:50:00,
2013-10-29 16:52:00,47.4,28.7,30.36,East,95,0.5,2.3,48,0.00,CLR,OVC,0.00,WeatherDisplay:10.37,2013-10-29 20:52:00,
2013-10-29 16:53:00,47.4,29.2,30.36,East,95,1.3,2.3,49,0.00,CLR,OVC,0.00,WeatherDisplay:10.37,2013-10-29 20:53:00,
2013-10-29 16:54:00,47.5,29.3,30.36,East,95,0.9,2.3,49,0.00,CLR,OVC,0.00,WeatherDisplay:10.37,2013-10-29 20:54:00,
2013-10-29 16:56:00,47.5,29.8,30.36,East,95,1.4,2.3,50,0.00,CLR,OVC,0.00,WeatherDisplay:10.37,2013-10-29 20:56:00,
2013-10-29 16:57:00,47.6,30.3,30.36,East,95,1.4,2.3,51,0.00,CLR,OVC,0.00,WeatherDisplay:10.37,2013-10-29 20:57:00,
2013-10-29 16:58:00,47.6,30.3,30.36,East,95,1.2,2.3,51,0.00,CLR,OVC,0.00,WeatherDisplay:10.37,2013-10-29 20:58:00,
2013-10-29 16:59:00,47.6,30.3,30.36,East,95,1.2,2.3,51,0.00,CLR,OVC,0.00,WeatherDisplay:10.37,2013-10-29 20:59:00,
2013-10-29 17:00:00,47.6,30.3,30.36,East,95,0.9,2.3,51,0.00,CLR,OVC,0.00,WeatherDisplay:10.37,2013-10-29 21:00:00,
2013-10-29 17:01:00,47.7,30.4,30.36,East,95,1.6,2.3,51,0.00,CLR,OVC,0.00,WeatherDisplay:10.37,2013-10-29 21:01:00,
2013-10-29 17:02:00,47.7,30.4,30.35,East,95,1.9,2.3,51,0.00,CLR,OVC,0.00,WeatherDisplay:10.37,2013-10-29 21:02:00,
2013-10-29 17:03:00,47.7,30.4,30.35,East,95,2.0,2.3,51,0.00,CLR,OVC,0.00,WeatherDisplay:10.37,2013-10-29 21:03:00,
2013-10-29 17:04:00,47.7,30.0,30.35,East,95,2.1,3.5,50,0.00,CLR,OVC,0.00,WeatherDisplay:10.37,2013-10-29 21:04:00,
2013-10-29 17:05:00,47.6,29.9,30.35,East,95,2.3,3.5,50,0.00,CLR,OVC,0.00,WeatherDisplay:10.37,2013-10-29 21:05:00,
2013-10-29 17:06:00,47.6,29.4,30.35,East,95,1.9,3.5,49,0.00,CLR,OVC,0.00,WeatherDisplay:10.37,2013-10-29 21:06:00,
2013-10-29 17:08:00,47.4,30.2,30.35,East,95,2.1,3.5,51,0.00,CLR,OVC,0.00,WeatherDisplay:10.37,2013-10-29 21:08:00,
2013-10-29 17:09:00,47.4,30.2,30.35,East,95,1.9,3.5,51,0.00,CLR,OVC,0.00,WeatherDisplay:10.37,2013-10-29 21:09:00,
2013-10-29 17:10:00,47.4,30.2,30.35,East,95,1.5,2.3,51,0.00,CLR,OVC,0.00,WeatherDisplay:10.37,2013-10-29 21:10:00,
2013-10-29 17:12:00,47.3,29.6,30.35,East,95,1.2,2.3,50,0.00,CLR,OVC,0.00,WeatherDisplay:10.37,2013-10-29 21:12:00,
2013-10-29 17:13:00,47.2,29.5,30.35,East,95,1.1,2.3,50,0.00,CLR,OVC,0.00,WeatherDisplay:10.37,2013-10-29 21:13:00,
2013-10-29 17:14:00,47.2,29.5,30.35,East,95,1.2,2.3,50,0.00,CLR,OVC,0.00,WeatherDisplay:10.37,2013-10-29 21:14:00,
2013-10-29 17:15:00,47.1,29.4,30.35,East,95,1.4,2.3,50,0.00,CLR,OVC,0.00,WeatherDisplay:10.37,2013-10-29 21:15:00,
2013-10-29 17:18:00,46.8,29.1,30.35,East,95,0.6,1.2,50,0.00,CLR,OVC,0.00,WeatherDisplay:10.37,2013-10-29 21:18:00,
2013-10-29 17:19:00,46.7,29.0,30.35,East,95,0.5,1.2,50,0.00,CLR,OVC,0.00,WeatherDisplay:10.37,2013-10-29 21:19:00,
2013-10-29 17:20:00,46.7,29.0,30.35,East,95,0.7,1.2,50,0.00,CLR,OVC,0.00,WeatherDisplay:10.37,2013-10-29 21:20:00,
2013-10-29 17:23:00,46.5,29.3,30.36,East,95,0.0,0.0,51,0.00,CLR,OVC,0.00,WeatherDisplay:10.37,2013-10-29 21:23:00,
2013-10-29 17:24:00,46.5,29.3,30.36,East,95,0.0,0.0,51,0.00,CLR,OVC,0.00,WeatherDisplay:10.37,2013-10-29 21:24:00,
2013-10-29 17:26:00,46.3,29.1,30.36,East,95,0.7,1.2,51,0.00,CLR,OVC,0.00,WeatherDisplay:10.37,2013-10-29 21:26:00,
2013-10-29 17:28:00,46.2,29.5,30.36,East,95,0.3,1.2,52,0.00,CLR,OVC,0.00,WeatherDisplay:10.37,2013-10-29 21:28:00,
2013-10-29 17:29:00,46.2,30.0,30.36,East,95,0.6,1.2,53,0.00,CLR,OVC,0.00,WeatherDisplay:10.37,2013-10-29 21:29:00,
2013-10-29 17:31:00,46.1,29.9,30.36,East,95,0.8,1.2,53,0.00,CLR,OVC,0.00,WeatherDisplay:10.37,2013-10-29 21:31:00,
2013-10-29 17:34:00,45.9,29.7,30.36,East,95,0.7,1.2,53,0.00,CLR,OVC,0.00,WeatherDisplay:10.37,2013-10-29 21:34:00,
2013-10-29 17:35:00,45.8,29.2,30.36,East,95,0.5,1.2,52,0.00,CLR,OVC,0.00,WeatherDisplay:10.37,2013-10-29 21:35:00,
2013-10-29 17:37:00,45.6,29.4,30.36,East,95,0.7,1.2,53,0.00,CLR,OVC,0.00,WeatherDisplay:10.37,2013-10-29 21:37:00,
2013-10-29 17:39:00,45.3,28.7,30.36,East,95,0.9,1.2,52,0.00,CLR,OVC,0.00,WeatherDisplay:10.37,2013-10-29 21:39:00,
2013-10-29 17:40:00,45.2,29.1,30.36,East,95,0.9,1.2,53,0.00,CLR,OVC,0.00,WeatherDisplay:10.37,2013-10-29 21:40:00,
2013-10-29 17:42:00,44.9,29.2,30.36,East,95,1.3,2.0,54,0.00,CLR,OVC,0.00,WeatherDisplay:10.37,2013-10-29 21:42:00,
2013-10-29 17:44:00,44.5,28.9,30.36,East,95,0.7,1.2,54,0.00,CLR,OVC,0.00,WeatherDisplay:10.37,2013-10-29 21:44:00,
2013-10-29 17:45:00,44.4,28.8,30.36,East,95,0.8,1.2,54,0.00,CLR,OVC,0.00,WeatherDisplay:10.37,2013-10-29 21:45:00,
2013-10-29 17:47:00,44.1,28.9,30.36,East,95,0.5,2.0,55,0.00,CLR,OVC,0.00,WeatherDisplay:10.37,2013-10-29 21:47:00,
2013-10-29 17:49:00,43.7,28.6,30.37,East,95,2.0,3.0,55,0.00,CLR,OVC,0.00,WeatherDisplay:10.37,2013-10-29 21:49:00,
2013-10-29 17:50:00,43.6,28.5,30.37,East,95,2.1,2.3,55,0.00,CLR,OVC,0.00,WeatherDisplay:10.37,2013-10-29 21:50:00,
2013-10-29 17:52:00,43.1,28.5,30.37,East,95,2.9,3.5,56,0.00,CLR,OVC,0.00,WeatherDisplay:10.37,2013-10-29 21:52:00,
2013-10-29 17:54:00,42.6,28.4,30.38,East,95,3.2,3.5,57,0.00,CLR,OVC,0.00,WeatherDisplay:10.37,2013-10-29 21:54:00,
2013-10-29 17:55:00,42.5,28.3,30.37,East,95,3.1,3.5,57,0.00,CLR,OVC,0.00,WeatherDisplay:10.37,2013-10-29 21:55:00,
2013-10-29 17:56:00,42.4,28.2,30.37,East,95,2.7,3.5,57,0.00,CLR,OVC,0.00,WeatherDisplay:10.37,2013-10-29 21:56:00,
2013-10-29 17:57:00,42.2,28.5,30.37,East,95,2.5,3.5,58,0.00,CLR,OVC,0.00,WeatherDisplay:10.37,2013-10-29 21:57:00,
2013-10-29 18:00:00,41.8,28.5,30.38,East,95,2.9,3.5,59,0.00,CLR,OVC,0.00,WeatherDisplay:10.37,2013-10-29 22:00:00,
2013-10-29 18:01:00,41.6,28.3,30.38,East,95,2.7,3.5,59,0.00,CLR,OVC,0.00,WeatherDisplay:10.37,2013-10-29 22:01:00,
2013-10-29 18:02:00,41.5,28.6,30.37,East,95,2.7,3.5,60,0.00,CLR,OVC,0.00,WeatherDisplay:10.37,2013-10-29 22:02:00,
2013-10-29 18:03:00,41.4,28.5,30.38,East,95,2.6,3.5,60,0.00,CLR,OVC,0.00,WeatherDisplay:10.37,2013-10-29 22:03:00,
2013-10-29 18:05:00,41.0,28.2,30.37,East,95,1.4,3.5,60,0.00,CLR,OVC,0.00,WeatherDisplay:10.37,2013-10-29 22:05:00,
2013-10-29 18:06:00,40.8,28.0,30.38,East,95,2.4,3.5,60,0.00,CLR,OVC,0.00,WeatherDisplay:10.37,2013-10-29 22:06:00,
2013-10-29 18:07:00,40.8,28.0,30.38,East,95,2.5,3.5,60,0.00,CLR,OVC,0.00,WeatherDisplay:10.37,2013-10-29 22:07:00,
2013-10-29 18:08:00,40.7,27.9,30.38,East,95,2.4,4.0,60,0.00,CLR,OVC,0.00,WeatherDisplay:10.37,2013-10-29 22:08:00,
2013-10-29 18:10:00,40.5,27.7,30.38,East,95,2.8,3.5,60,0.00,CLR,OVC,0.00,WeatherDisplay:10.37,2013-10-29 22:10:00,
2013-10-29 18:12:00,40.3,27.9,30.37,East,95,2.4,3.5,61,0.00,CLR,OVC,0.00,WeatherDisplay:10.37,2013-10-29 22:12:00,
2013-10-29 18:13:00,40.2,27.8,30.37,East,95,1.5,3.5,61,0.00,CLR,OVC,0.00,WeatherDisplay:10.37,2013-10-29 22:13:00,
2013-10-29 18:15:00,40.0,28.0,30.38,East,95,1.8,3.5,62,0.00,CLR,OVC,0.00,WeatherDisplay:10.37,2013-10-29 22:15:00,
2013-10-29 18:17:00,39.8,27.8,30.38,East,95,1.9,2.3,62,0.00,CLR,OVC,0.00,WeatherDisplay:10.37,2013-10-29 22:17:00,
2013-10-29 18:18:00,39.7,27.7,30.37,East,95,1.6,3.0,62,0.00,CLR,OVC,0.00,WeatherDisplay:10.37,2013-10-29 22:18:00,
2013-10-29 18:20:00,39.6,27.6,30.38,East,95,2.1,3.5,62,0.00,CLR,OVC,0.00,WeatherDisplay:10.37,2013-10-29 22:20:00,
2013-10-29 18:21:00,39.6,27.6,30.38,East,95,1.7,3.5,62,0.00,CLR,OVC,0.00,WeatherDisplay:10.37,2013-10-29 22:21:00,
2013-10-29 18:22:00,39.5,27.5,30.38,East,95,2.8,3.5,62,0.00,CLR,OVC,0.00,WeatherDisplay:10.37,2013-10-29 22:22:00,
2013-10-29 18:23:00,39.5,27.5,30.38,East,95,2.8,3.5,62,0.00,CLR,OVC,0.00,WeatherDisplay:10.37,2013-10-29 22:23:00,
2013-10-29 18:24:00,39.4,27.8,30.38,East,95,1.9,3.5,63,0.00,CLR,OVC,0.00,WeatherDisplay:10.37,2013-10-29 22:24:00,
2013-10-29 18:25:00,39.3,27.7,30.37,East,95,2.3,3.5,63,0.00,CLR,OVC,0.00,WeatherDisplay:10.37,2013-10-29 22:25:00,
2013-10-29 18:26:00,39.3,27.7,30.37,East,95,2.8,3.5,63,0.00,CLR,OVC,0.00,WeatherDisplay:10.37,2013-10-29 22:26:00,
2013-10-29 18:28:00,39.1,27.6,30.37,East,95,2.6,3.5,63,0.00,CLR,OVC,0.00,WeatherDisplay:10.37,2013-10-29 22:28:00,
2013-10-29 18:29:00,39.1,27.6,30.37,East,95,2.1,3.5,63,0.00,CLR,OVC,0.00,WeatherDisplay:10.37,2013-10-29 22:29:00,
2013-10-29 18:31:00,39.0,27.8,30.37,East,95,3.0,3.5,64,0.00,CLR,OVC,0.00,WeatherDisplay:10.37,2013-10-29 22:31:00,
2013-10-29 18:33:00,38.9,27.8,30.37,East,95,2.7,3.5,64,0.00,CLR,OVC,0.00,WeatherDisplay:10.37,2013-10-29 22:33:00,
2013-10-29 18:35:00,38.8,28.0,30.37,East,95,3.0,3.5,65,0.00,CLR,OVC,0.00,WeatherDisplay:10.37,2013-10-29 22:35:00,
2013-10-29 18:36:00,38.7,27.9,30.37,East,95,2.8,3.5,65,0.00,CLR,OVC,0.00,WeatherDisplay:10.37,2013-10-29 22:36:00,
2013-10-29 18:38:00,38.6,28.2,30.37,East,95,2.3,3.5,66,0.00,CLR,OVC,0.00,WeatherDisplay:10.37,2013-10-29 22:38:00,
2013-10-29 18:39:00,38.5,28.1,30.38,East,95,1.9,3.5,66,0.00,CLR,OVC,0.00,WeatherDisplay:10.37,2013-10-29 22:39:00,
2013-10-29 18:40:00,38.4,28.0,30.38,East,95,2.3,3.5,66,0.00,CLR,OVC,0.00,WeatherDisplay:10.37,2013-10-29 22:40:00,
2013-10-29 18:41:00,38.3,27.9,30.38,East,95,2.7,3.5,66,0.00,CLR,OVC,0.00,WeatherDisplay:10.37,2013-10-29 22:41:00,
2013-10-29 18:43:00,38.2,28.2,30.38,East,95,1.7,3.5,67,0.00,CLR,OVC,0.00,WeatherDisplay:10.37,2013-10-29 22:43:00,
2013-10-29 18:45:00,38.0,28.4,30.38,East,95,1.3,3.5,68,0.00,CLR,OVC,0.00,WeatherDisplay:10.37,2013-10-29 22:45:00,
2013-10-29 18:46:00,38.0,28.4,30.38,East,95,0.4,3.5,68,0.00,CLR,OVC,0.00,WeatherDisplay:10.37,2013-10-29 22:46:00,
2013-10-29 18:47:00,37.9,28.3,30.38,East,95,0.0,1.2,68,0.00,CLR,OVC,0.00,WeatherDisplay:10.37,2013-10-29 22:47:00,
2013-10-29 18:48:00,37.8,28.2,30.38,East,95,0.9,2.3,68,0.00,CLR,OVC,0.00,WeatherDisplay:10.37,2013-10-29 22:48:00,
2013-10-29 18:50:00,37.6,28.3,30.38,East,95,0.5,2.0,69,0.00,CLR,OVC,0.00,WeatherDisplay:10.37,2013-10-29 22:50:00,
2013-10-29 18:51:00,37.5,28.2,30.38,East,95,0.8,2.0,69,0.00,CLR,OVC,0.00,WeatherDisplay:10.37,2013-10-29 22:51:00,
2013-10-29 18:52:00,37.5,28.2,30.38,East,95,1.5,2.3,69,0.00,CLR,OVC,0.00,WeatherDisplay:10.37,2013-10-29 22:52:00,
2013-10-29 18:53:00,37.3,28.1,30.38,East,95,0.8,2.3,69,0.00,CLR,OVC,0.00,WeatherDisplay:10.37,2013-10-29 22:53:00,
2013-10-29 18:56:00,37.1,28.2,30.38,East,95,0.0,1.2,70,0.00,CLR,OVC,0.00,WeatherDisplay:10.37,2013-10-29 22:56:00,
2013-10-29 18:57:00,37.0,28.1,30.38,East,95,0.0,0.0,70,0.00,CLR,OVC,0.00,WeatherDisplay:10.37,2013-10-29 22:57:00,
2013-10-29 18:59:00,36.9,28.0,30.38,East,95,0.5,1.2,70,0.00,CLR,OVC,0.00,WeatherDisplay:10.37,2013-10-29 22:59:00,
2013-10-29 19:02:00,36.7,28.2,30.38,East,95,0.0,0.0,71,0.00,CLR,OVC,0.00,WeatherDisplay:10.37,2013-10-29 23:02:00,
2013-10-29 19:04:00,36.5,28.0,30.38,East,95,0.0,0.0,71,0.00,CLR,OVC,0.00,WeatherDisplay:10.37,2013-10-29 23:04:00,
2013-10-29 19:07:00,36.3,28.1,30.38,East,95,0.0,0.0,72,0.00,CLR,OVC,0.00,WeatherDisplay:10.37,2013-10-29 23:07:00,
2013-10-29 19:08:00,36.2,28.0,30.38,East,95,0.0,0.0,72,0.00,CLR,OVC,0.00,WeatherDisplay:10.37,2013-10-29 23:08:00,
2013-10-29 19:09:00,36.2,28.0,30.38,East,95,0.0,0.0,72,0.00,CLR,OVC,0.00,WeatherDisplay:10.37,2013-10-29 23:09:00,
2013-10-29 19:12:00,36.0,27.8,30.38,East,95,0.0,0.0,72,0.00,CLR,OVC,0.00,WeatherDisplay:10.37,2013-10-29 23:12:00,
2013-10-29 19:13:00,35.9,27.7,30.38,East,95,0.0,0.0,72,0.00,CLR,OVC,0.00,WeatherDisplay:10.37,2013-10-29 23:13:00,
2013-10-29 19:14:00,35.9,27.7,30.38,East,95,0.0,0.0,72,0.00,CLR,OVC,0.00,WeatherDisplay:10.37,2013-10-29 23:14:00,
2013-10-29 19:17:00,35.7,27.9,30.38,East,95,0.0,0.0,73,0.00,CLR,OVC,0.00,WeatherDisplay:10.37,2013-10-29 23:17:00,
2013-10-29 19:18:00,35.7,27.9,30.38,East,95,0.0,0.0,73,0.00,CLR,OVC,0.00,WeatherDisplay:10.37,2013-10-29 23:18:00,
2013-10-29 19:19:00,35.6,28.1,30.38,East,95,0.0,0.0,74,0.00,CLR,OVC,0.00,WeatherDisplay:10.37,2013-10-29 23:19:00,
2013-10-29 19:22:00,35.5,28.0,30.38,East,95,0.0,0.0,74,0.00,CLR,OVC,0.00,WeatherDisplay:10.37,2013-10-29 23:22:00,
2013-10-29 19:23:00,35.5,28.0,30.38,East,95,0.0,0.0,74,0.00,CLR,OVC,0.00,WeatherDisplay:10.37,2013-10-29 23:23:00,
2013-10-29 19:24:00,35.4,27.9,30.38,East,95,0.0,0.0,74,0.00,CLR,OVC,0.00,WeatherDisplay:10.37,2013-10-29 23:24:00,
2013-10-29 19:28:00,35.3,27.8,30.38,East,95,0.0,0.0,74,0.00,CLR,OVC,0.00,WeatherDisplay:10.37,2013-10-29 23:28:00,
2013-10-29 19:29:00,35.2,27.7,30.38,East,95,0.0,0.0,74,0.00,CLR,OVC,0.00,WeatherDisplay:10.37,2013-10-29 23:29:00,
2013-10-29 19:33:00,35.1,28.0,30.38,East,95,0.0,0.0,75,0.00,CLR,OVC,0.00,WeatherDisplay:10.37,2013-10-29 23:33:00,
2013-10-29 19:34:00,35.0,27.9,30.38,East,95,0.0,0.0,75,0.00,CLR,OVC,0.00,WeatherDisplay:10.37,2013-10-29 23:34:00,
2013-10-29 19:35:00,35.0,27.9,30.38,East,95,0.0,0.0,75,0.00,CLR,OVC,0.00,WeatherDisplay:10.37,2013-10-29 23:35:00,
2013-10-29 19:38:00,34.9,27.8,30.38,East,95,1.0,2.3,75,0.00,CLR,OVC,0.00,WeatherDisplay:10.37,2013-10-29 23:38:00,
2013-10-29 19:39:00,34.9,28.1,30.38,East,95,1.0,2.3,76,0.00,CLR,OVC,0.00,WeatherDisplay:10.37,2013-10-29 23:39:00,
2013-10-29 19:40:00,34.8,28.0,30.38,East,95,1.1,2.3,76,0.00,CLR,OVC,0.00,WeatherDisplay:10.37,2013-10-29 23:40:00,
2013-10-29 19:43:00,34.7,27.9,30.38,East,95,0.0,1.2,76,0.00,CLR,OVC,0.00,WeatherDisplay:10.37,2013-10-29 23:43:00,
2013-10-29 19:44:00,34.7,28.2,30.38,East,95,0.0,1.2,77,0.00,CLR,OVC,0.00,WeatherDisplay:10.37,2013-10-29 23:44:00,
2013-10-29 19:45:00,34.7,28.2,30.38,East,95,0.0,0.0,77,0.00,CLR,OVC,0.00,WeatherDisplay:10.37,2013-10-29 23:45:00,
2013-10-29 19:49:00,34.5,28.0,30.38,East,95,0.0,0.0,77,0.00,CLR,OVC,0.00,WeatherDisplay:10.37,2013-10-29 23:49:00,
2013-10-29 19:50:00,34.5,28.0,30.38,East,95,0.0,0.0,77,0.00,CLR,OVC,0.00,WeatherDisplay:10.37,2013-10-29 23:50:00,
2013-10-29 19:54:00,34.4,27.9,30.38,East,95,0.0,0.0,77,0.00,CLR,OVC,0.00,WeatherDisplay:10.37,2013-10-29 23:54:00,
2013-10-29 19:55:00,34.4,27.9,30.38,East,95,0.0,0.0,77,0.00,CLR,OVC,0.00,WeatherDisplay:10.37,2013-10-29 23:55:00,
2013-10-29 19:56:00,34.3,27.8,30.38,East,95,0.0,0.0,77,0.00,CLR,OVC,0.00,WeatherDisplay:10.37,2013-10-29 23:56:00,
2013-10-29 19:59:00,34.2,28.1,30.38,East,95,0.6,1.2,78,0.00,CLR,OVC,0.00,WeatherDisplay:10.37,2013-10-29 23:59:00,
2013-10-29 20:00:00,34.1,28.0,30.38,East,95,0.2,1.2,78,0.00,CLR,OVC,0.00,WeatherDisplay:10.37,2013-10-30 00:00:00,
2013-10-29 20:01:00,34.1,28.0,30.38,East,95,0.0,1.2,78,0.00,CLR,OVC,0.00,WeatherDisplay:10.37,2013-10-30 00:01:00,
2013-10-29 20:04:00,34.0,27.8,30.38,East,95,2.0,2.0,78,0.00,CLR,OVC,0.00,WeatherDisplay:10.37,2013-10-30 00:04:00,
2013-10-29 20:05:00,33.9,28.1,30.38,East,95,2.0,2.3,79,0.00,CLR,OVC,0.00,WeatherDisplay:10.37,2013-10-30 00:05:00,
2013-10-29 20:06:00,33.9,28.1,30.38,East,95,2.0,3.5,79,0.00,CLR,OVC,0.00,WeatherDisplay:10.37,2013-10-30 00:06:00,
2013-10-29 20:09:00,33.8,28.0,30.37,East,95,1.0,3.0,79,0.00,CLR,OVC,0.00,WeatherDisplay:10.37,2013-10-30 00:09:00,
2013-10-29 20:10:00,33.7,27.9,30.37,East,95,1.0,2.3,79,0.00,CLR,OVC,0.00,WeatherDisplay:10.37,2013-10-30 00:10:00,
2013-10-29 20:11:00,33.7,28.2,30.37,East,95,1.0,2.3,80,0.00,CLR,OVC,0.00,WeatherDisplay:10.37,2013-10-30 00:11:00,
2013-10-29 20:12:00,33.7,28.2,30.38,East,95,0.5,2.3,80,0.00,CLR,OVC,0.00,WeatherDisplay:10.37,2013-10-30 00:12:00,
2013-10-29 20:14:00,33.7,28.2,30.37,East,95,0.8,3.5,80,0.00,CLR,OVC,0.00,WeatherDisplay:10.37,2013-10-30 00:14:00,
2013-10-29 20:15:00,33.7,28.2,30.37,East,95,0.9,3.5,80,0.00,CLR,OVC,0.00,WeatherDisplay:10.37,2013-10-30 00:15:00,
2013-10-29 20:16:00,33.7,28.2,30.37,East,95,0.9,2.3,80,0.00,CLR,OVC,0.00,WeatherDisplay:10.37,2013-10-30 00:16:00,
2013-10-29 20:17:00,33.7,28.2,30.38,East,95,0.4,2.3,80,0.00,CLR,OVC,0.00,WeatherDisplay:10.37,2013-10-30 00:17:00,
2013-10-29 20:19:00,33.7,28.2,30.38,East,95,0.0,0.0,80,0.00,CLR,OVC,0.00,WeatherDisplay:10.37,2013-10-30 00:19:00,
2013-10-29 20:20:00,33.7,28.2,30.38,East,95,0.0,0.0,80,0.00,CLR,OVC,0.00,WeatherDisplay:10.37,2013-10-30 00:20:00,
2013-10-29 20:21:00,33.7,28.2,30.38,East,95,0.0,0.0,80,0.00,CLR,OVC,0.00,WeatherDisplay:10.37,2013-10-30 00:21:00,
2013-10-29 20:22:00,33.6,28.1,30.37,East,95,0.0,0.0,80,0.00,CLR,OVC,0.00,WeatherDisplay:10.37,2013-10-30 00:22:00,
2013-10-29 20:24:00,33.6,28.1,30.37,East,95,0.0,0.0,80,0.00,CLR,OVC,0.00,WeatherDisplay:10.37,2013-10-30 00:24:00,
2013-10-29 20:25:00,33.6,28.1,30.37,East,95,0.0,0.0,80,0.00,CLR,OVC,0.00,WeatherDisplay:10.37,2013-10-30 00:25:00,
2013-10-29 20:26:00,33.5,28.0,30.37,East,95,0.0,0.0,80,0.00,CLR,OVC,0.00,WeatherDisplay:10.37,2013-10-30 00:26:00,
2013-10-29 20:27:00,33.5,28.3,30.38,East,95,0.0,0.0,81,0.00,CLR,OVC,0.00,WeatherDisplay:10.37,2013-10-30 00:27:00,
2013-10-29 20:28:00,33.5,28.0,30.37,East,95,0.0,0.0,80,0.00,CLR,OVC,0.00,WeatherDisplay:10.37,2013-10-30 00:28:00,
2013-10-29 20:29:00,33.5,28.0,30.38,East,95,0.0,0.0,80,0.00,CLR,OVC,0.00,WeatherDisplay:10.37,2013-10-30 00:29:00,
2013-10-29 20:30:00,33.4,27.9,30.37,East,95,0.0,0.0,80,0.00,CLR,OVC,0.00,WeatherDisplay:10.37,2013-10-30 00:30:00,
2013-10-29 20:32:00,33.4,27.9,30.37,East,95,0.0,1.2,80,0.00,CLR,OVC,0.00,WeatherDisplay:10.37,2013-10-30 00:32:00,
2013-10-29 20:33:00,33.4,27.9,30.37,East,95,0.0,0.0,80,0.00,CLR,OVC,0.00,WeatherDisplay:10.37,2013-10-30 00:33:00,
2013-10-29 20:35:00,33.3,28.1,30.37,East,95,0.0,0.0,81,0.00,CLR,OVC,0.00,WeatherDisplay:10.37,2013-10-30 00:35:00,
2013-10-29 20:36:00,33.3,27.8,30.37,East,95,0.0,0.0,80,0.00,CLR,OVC,0.00,WeatherDisplay:10.37,2013-10-30 00:36:00,
2013-10-29 20:37:00,33.2,28.0,30.37,East,95,0.0,0.0,81,0.00,CLR,OVC,0.00,WeatherDisplay:10.37,2013-10-30 00:37:00,
2013-10-29 20:38:00,33.2,28.0,30.37,East,95,0.0,0.0,81,0.00,CLR,OVC,0.00,WeatherDisplay:10.37,2013-10-30 00:38:00,
2013-10-29 20:39:00,33.2,28.0,30.37,East,95,0.0,0.0,81,0.00,CLR,OVC,0.00,WeatherDisplay:10.37,2013-10-30 00:39:00,
2013-10-29 20:40:00,33.1,27.9,30.37,East,95,0.0,0.0,81,0.00,CLR,OVC,0.00,WeatherDisplay:10.37,2013-10-30 00:40:00,
2013-10-29 20:41:00,33.1,27.9,30.37,East,95,0.0,0.0,81,0.00,CLR,OVC,0.00,WeatherDisplay:10.37,2013-10-30 00:41:00,
2013-10-29 20:43:00,33.0,27.8,30.37,East,95,0.0,0.0,81,0.00,CLR,OVC,0.00,WeatherDisplay:10.37,2013-10-30 00:43:00,
2013-10-29 20:44:00,32.9,27.7,30.36,East,95,0.0,0.0,81,0.00,CLR,OVC,0.00,WeatherDisplay:10.37,2013-10-30 00:44:00,
2013-10-29 20:45:00,33.0,27.8,30.37,East,95,0.0,0.0,81,0.00,CLR,OVC,0.00,WeatherDisplay:10.37,2013-10-30 00:45:00,
2013-10-29 20:46:00,32.8,27.6,30.36,East,95,0.0,0.0,81,0.00,CLR,OVC,0.00,WeatherDisplay:10.37,2013-10-30 00:46:00,
2013-10-29 20:49:00,32.7,27.8,30.36,East,95,0.0,0.0,82,0.00,CLR,OVC,0.00,WeatherDisplay:10.37,2013-10-30 00:49:00,
2013-10-29 20:50:00,32.7,27.5,30.36,East,95,0.0,0.0,81,0.00,CLR,OVC,0.00,WeatherDisplay:10.37,2013-10-30 00:50:00,
2013-10-29 20:51:00,32.6,27.7,30.37,East,95,0.0,0.0,82,0.00,CLR,OVC,0.00,WeatherDisplay:10.37,2013-10-30 00:51:00,
2013-10-29 20:54:00,32.5,27.6,30.36,East,95,0.0,0.0,82,0.00,CLR,OVC,0.00,WeatherDisplay:10.37,2013-10-30 00:54:00,
2013-10-29 20:55:00,32.5,27.6,30.36,East,95,0.0,0.0,82,0.00,CLR,OVC,0.00,WeatherDisplay:10.37,2013-10-30 00:55:00,
2013-10-29 20:56:00,32.4,27.5,30.36,East,95,1.3,2.3,82,0.00,CLR,OVC,0.00,WeatherDisplay:10.37,2013-10-30 00:56:00,
2013-10-29 20:59:00,32.4,27.8,30.36,East,95,1.5,2.3,83,0.00,CLR,OVC,0.00,WeatherDisplay:10.37,2013-10-30 00:59:00,
2013-10-29 21:00:00,32.3,27.7,30.36,East,95,1.6,2.3,83,0.00,CLR,OVC,0.00,WeatherDisplay:10.37,2013-10-30 01:00:00,
2013-10-29 21:01:00,32.3,27.7,30.36,East,95,1.4,2.3,83,0.00,CLR,OVC,0.00,WeatherDisplay:10.37,2013-10-30 01:01:00,
2013-10-29 21:04:00,32.3,28.0,30.36,East,95,1.1,2.3,84,0.00,CLR,OVC,0.00,WeatherDisplay:10.37,2013-10-30 01:04:00,
2013-10-29 21:05:00,32.2,27.6,30.36,East,95,1.1,2.3,83,0.00,CLR,OVC,0.00,WeatherDisplay:10.37,2013-10-30 01:05:00,
2013-10-29 21:07:00,32.2,27.9,30.36,East,95,0.2,1.2,84,0.00,CLR,OVC,0.00,WeatherDisplay:10.37,2013-10-30 01:07:00,
2013-10-29 21:09:00,32.1,27.8,30.36,East,95,0.8,2.3,84,0.00,CLR,OVC,0.00,WeatherDisplay:10.37,2013-10-30 01:09:00,
2013-10-29 21:10:00,32.1,27.8,30.36,East,95,0.9,2.3,84,0.00,CLR,OVC,0.00,WeatherDisplay:10.37,2013-10-30 01:10:00,
2013-10-29 21:12:00,32.1,27.8,30.36,East,95,0.5,1.2,84,0.00,CLR,OVC,0.00,WeatherDisplay:10.37,2013-10-30 01:12:00,
2013-10-29 21:15:00,32.0,27.7,30.36,East,95,0.0,0.0,84,0.00,CLR,OVC,0.00,WeatherDisplay:10.37,2013-10-30 01:15:00,
2013-10-29 21:16:00,32.0,27.7,30.36,East,95,0.0,0.0,84,0.00,CLR,OVC,0.00,WeatherDisplay:10.37,2013-10-30 01:16:00,
2013-10-29 21:17:00,32.0,27.7,30.35,East,95,0.0,0.0,84,0.00,CLR,OVC,0.00,WeatherDisplay:10.37,2013-10-30 01:17:00,
2013-10-29 21:18:00,32.0,27.7,30.36,East,95,0.0,0.0,84,0.00,CLR,OVC,0.00,WeatherDisplay:10.37,2013-10-30 01:18:00,
2013-10-29 21:20:00,31.9,27.6,30.35,East,95,0.0,0.0,84,0.00,CLR,OVC,0.00,WeatherDisplay:10.37,2013-10-30 01:20:00,
2013-10-29 21:21:00,31.9,27.6,30.35,East,95,0.0,0.0,84,0.00,CLR,OVC,0.00,WeatherDisplay:10.37,2013-10-30 01:21:00,
2013-10-29 21:23:00,31.9,27.6,30.35,East,95,0.0,0.0,84,0.00,CLR,OVC,0.00,WeatherDisplay:10.37,2013-10-30 01:23:00,
2013-10-29 21:25:00,31.8,27.8,30.35,East,95,0.0,0.0,85,0.00,CLR,OVC,0.00,WeatherDisplay:10.37,2013-10-30 01:25:00,
2013-10-29 21:26:00,31.8,27.5,30.35,East,95,0.0,0.0,84,0.00,CLR,OVC,0.00,WeatherDisplay:10.37,2013-10-30 01:26:00,
2013-10-29 21:28:00,31.8,27.8,30.35,East,95,0.0,0.0,85,0.00,CLR,OVC,0.00,WeatherDisplay:10.37,2013-10-30 01:28:00,
2013-10-29 21:30:00,31.8,27.5,30.35,East,95,0.0,0.0,84,0.00,CLR,OVC,0.00,WeatherDisplay:10.37,2013-10-30 01:30:00,
2013-10-29 21:31:00,31.8,27.5,30.35,East,95,0.0,0.0,84,0.00,CLR,OVC,0.00,WeatherDisplay:10.37,2013-10-30 01:31:00,
2013-10-29 21:33:00,31.7,27.7,30.35,East,95,0.0,0.0,85,0.00,CLR,OVC,0.00,WeatherDisplay:10.37,2013-10-30 01:33:00,
2013-10-29 21:36:00,31.7,27.4,30.35,East,95,0.0,1.2,84,0.00,CLR,OVC,0.00,WeatherDisplay:10.37,2013-10-30 01:36:00,
2013-10-29 21:37:00,31.6,27.3,30.35,East,95,0.0,0.0,84,0.00,CLR,OVC,0.00,WeatherDisplay:10.37,2013-10-30 01:37:00,
2013-10-29 21:38:00,31.6,27.6,30.35,East,95,0.0,0.0,85,0.00,CLR,OVC,0.00,WeatherDisplay:10.37,2013-10-30 01:38:00,
2013-10-29 21:39:00,31.6,27.6,30.35,East,95,1.5,3.5,85,0.00,CLR,OVC,0.00,WeatherDisplay:10.37,2013-10-30 01:39:00,
2013-10-29 21:41:00,31.6,27.6,30.35,East,95,1.6,3.5,85,0.00,CLR,OVC,0.00,WeatherDisplay:10.37,2013-10-30 01:41:00,
2013-10-29 21:43:00,31.6,27.6,30.35,East,95,1.8,3.0,85,0.00,CLR,OVC,0.00,WeatherDisplay:10.37,2013-10-30 01:43:00,
2013-10-29 21:44:00,31.7,27.7,30.35,East,95,2.4,3.5,85,0.00,CLR,OVC,0.00,WeatherDisplay:10.37,2013-10-30 01:44:00,
2013-10-29 21:46:00,31.7,27.7,30.35,East,95,1.9,3.5,85,0.00,CLR,OVC,0.00,WeatherDisplay:10.37,2013-10-30 01:46:00,
2013-10-29 21:48:00,31.6,27.6,30.35,East,95,1.5,3.5,85,0.00,CLR,OVC,0.00,WeatherDisplay:10.37,2013-10-30 01:48:00,
2013-10-29 21:50:00,31.6,27.6,30.35,East,95,1.9,3.5,85,0.00,CLR,OVC,0.00,WeatherDisplay:10.37,2013-10-30 01:50:00,
2013-10-29 21:51:00,31.6,27.6,30.35,East,95,1.7,2.3,85,0.00,CLR,OVC,0.00,WeatherDisplay:10.37,2013-10-30 01:51:00,
2013-10-29 21:52:00,31.6,27.6,30.35,East,95,1.7,2.3,85,0.00,CLR,OVC,0.00,WeatherDisplay:10.37,2013-10-30 01:52:00,
2013-10-29 21:53:00,31.6,27.9,30.35,East,95,0.6,2.3,86,0.00,CLR,OVC,0.00,WeatherDisplay:10.37,2013-10-30 01:53:00,
2013-10-29 21:55:00,31.6,27.6,30.34,East,95,0.0,1.2,85,0.00,CLR,OVC,0.00,WeatherDisplay:10.37,2013-10-30 01:55:00,
2013-10-29 21:56:00,31.6,27.6,30.35,East,95,0.0,0.0,85,0.00,CLR,OVC,0.00,WeatherDisplay:10.37,2013-10-30 01:56:00,
2013-10-29 21:57:00,31.6,27.6,30.34,East,95,0.1,2.0,85,0.00,CLR,OVC,0.00,WeatherDisplay:10.37,2013-10-30 01:57:00,
2013-10-29 21:58:00,31.6,27.6,30.35,East,95,1.7,2.3,85,0.00,CLR,OVC,0.00,WeatherDisplay:10.37,2013-10-30 01:58:00,
2013-10-29 21:59:00,31.6,27.9,30.35,East,95,1.9,2.3,86,0.00,CLR,OVC,0.00,WeatherDisplay:10.37,2013-10-30 01:59:00,
2013-10-29 22:00:00,31.6,27.9,30.35,East,95,2.0,3.5,86,0.00,CLR,OVC,0.00,WeatherDisplay:10.37,2013-10-30 02:00:00,
2013-10-29 22:01:00,31.6,27.6,30.35,East,95,1.8,3.5,85,0.00,CLR,OVC,0.00,WeatherDisplay:10.37,2013-10-30 02:01:00,
2013-10-29 22:03:00,31.5,27.8,30.35,East,95,2.0,3.5,86,0.00,CLR,OVC,0.00,WeatherDisplay:10.37,2013-10-30 02:03:00,
2013-10-29 22:04:00,31.5,27.5,30.35,East,95,1.7,3.5,85,0.00,CLR,OVC,0.00,WeatherDisplay:10.37,2013-10-30 02:04:00,
2013-10-29 22:05:00,31.5,27.8,30.34,East,95,1.7,3.5,86,0.00,CLR,OVC,0.00,WeatherDisplay:10.37,2013-10-30 02:05:00,
2013-10-29 22:06:00,31.5,27.8,30.34,East,95,1.3,3.5,86,0.00,CLR,OVC,0.00,WeatherDisplay:10.37,2013-10-30 02:06:00,
2013-10-29 22:08:00,31.5,27.8,30.35,East,95,0.1,1.2,86,0.00,CLR,OVC,0.00,WeatherDisplay:10.37,2013-10-30 02:08:00,
2013-10-29 22:09:00,31.5,27.8,30.35,East,95,0.0,0.0,86,0.00,CLR,OVC,0.00,WeatherDisplay:10.37,2013-10-30 02:09:00,
2013-10-29 22:10:00,31.5,27.8,30.35,East,95,0.0,0.0,86,0.00,CLR,OVC,0.00,WeatherDisplay:10.37,2013-10-30 02:10:00,
2013-10-29 22:11:00,31.5,27.8,30.35,East,95,0.0,0.0,86,0.00,CLR,OVC,0.00,WeatherDisplay:10.37,2013-10-30 02:11:00,
2013-10-29 22:13:00,31.4,27.7,30.35,East,95,0.6,1.2,86,0.00,CLR,OVC,0.00,WeatherDisplay:10.37,2013-10-30 02:13:00,
2013-10-29 22:14:00,31.4,27.7,30.35,East,95,0.6,2.3,86,0.00,CLR,OVC,0.00,WeatherDisplay:10.37,2013-10-30 02:14:00,
2013-10-29 22:15:00,31.4,27.7,30.35,East,95,0.2,1.2,86,0.00,CLR,OVC,0.00,WeatherDisplay:10.37,2013-10-30 02:15:00,
2013-10-29 22:16:00,31.4,27.7,30.35,East,95,0.0,0.0,86,0.00,CLR,OVC,0.00,WeatherDisplay:10.37,2013-10-30 02:16:00,
2013-10-29 22:17:00,31.4,27.7,30.35,East,95,0.0,0.0,86,0.00,CLR,OVC,0.00,WeatherDisplay:10.37,2013-10-30 02:17:00,
2013-10-29 22:18:00,31.4,27.7,30.35,East,95,0.0,0.0,86,0.00,CLR,OVC,0.00,WeatherDisplay:10.37,2013-10-30 02:18:00,
2013-10-29 22:19:00,31.4,27.7,30.35,East,95,0.0,0.0,86,0.00,CLR,OVC,0.00,WeatherDisplay:10.37,2013-10-30 02:19:00,
2013-10-29 22:20:00,31.4,27.7,30.35,East,95,0.0,0.0,86,0.00,CLR,OVC,0.00,WeatherDisplay:10.37,2013-10-30 02:20:00,
2013-10-29 22:21:00,31.3,27.6,30.35,East,95,0.0,0.0,86,0.00,CLR,OVC,0.00,WeatherDisplay:10.37,2013-10-30 02:21:00,
2013-10-29 22:22:00,31.2,27.5,30.34,East,95,0.0,0.0,86,0.00,CLR,OVC,0.00,WeatherDisplay:10.37,2013-10-30 02:22:00,
2013-10-29 22:23:00,31.1,27.4,30.35,East,95,0.0,0.0,86,0.00,CLR,OVC,0.00,WeatherDisplay:10.37,2013-10-30 02:23:00,
2013-10-29 22:24:00,31.2,27.5,30.35,East,95,0.0,0.0,86,0.00,CLR,OVC,0.00,WeatherDisplay:10.37,2013-10-30 02:24:00,
2013-10-29 22:25:00,31.1,27.4,30.35,East,95,0.0,0.0,86,0.00,CLR,OVC,0.00,WeatherDisplay:10.37,2013-10-30 02:25:00,
2013-10-29 22:26:00,31.1,27.4,30.35,East,95,0.0,0.0,86,0.00,CLR,OVC,0.00,WeatherDisplay:10.37,2013-10-30 02:26:00,
2013-10-29 22:27:00,31.2,27.5,30.35,East,95,0.0,0.0,86,0.00,CLR,OVC,0.00,WeatherDisplay:10.37,2013-10-30 02:27:00,
2013-10-29 22:29:00,31.3,27.6,30.35,East,95,0.0,0.0,86,0.00,CLR,OVC,0.00,WeatherDisplay:10.37,2013-10-30 02:29:00,
2013-10-29 22:31:00,31.3,27.6,30.35,East,95,0.0,0.0,86,0.00,CLR,OVC,0.00,WeatherDisplay:10.37,2013-10-30 02:31:00,
2013-10-29 22:32:00,31.3,27.6,30.35,East,95,0.0,0.0,86,0.00,CLR,OVC,0.00,WeatherDisplay:10.37,2013-10-30 02:32:00,
2013-10-29 22:34:00,31.3,27.6,30.35,East,95,0.0,0.0,86,0.00,CLR,OVC,0.00,WeatherDisplay:10.37,2013-10-30 02:34:00,
2013-10-29 22:36:00,31.3,27.6,30.34,East,95,0.0,0.0,86,0.00,CLR,OVC,0.00,WeatherDisplay:10.37,2013-10-30 02:36:00,
2013-10-29 22:37:00,31.2,27.5,30.34,East,95,0.0,0.0,86,0.00,CLR,OVC,0.00,WeatherDisplay:10.37,2013-10-30 02:37:00,
2013-10-29 22:39:00,31.3,27.6,30.35,East,95,0.0,0.0,86,0.00,CLR,OVC,0.00,WeatherDisplay:10.37,2013-10-30 02:39:00,
2013-10-29 22:40:00,31.1,27.4,30.35,East,95,0.0,0.0,86,0.00,CLR,OVC,0.00,WeatherDisplay:10.37,2013-10-30 02:40:00,
2013-10-29 22:41:00,31.2,27.5,30.35,East,95,0.0,0.0,86,0.00,CLR,OVC,0.00,WeatherDisplay:10.37,2013-10-30 02:41:00,
2013-10-29 22:42:00,30.7,27.0,30.34,East,95,0.4,1.2,86,0.00,CLR,OVC,0.00,WeatherDisplay:10.37,2013-10-30 02:42:00,
2013-10-29 22:43:00,30.8,27.1,30.34,East,95,0.6,1.2,86,0.00,CLR,OVC,0.00,WeatherDisplay:10.37,2013-10-30 02:43:00,
2013-10-29 22:44:00,30.9,27.2,30.35,East,95,0.7,2.3,86,0.00,CLR,OVC,0.00,WeatherDisplay:10.37,2013-10-30 02:44:00,
2013-10-29 22:45:00,31.0,27.6,30.35,East,95,0.1,2.3,87,0.00,CLR,OVC,0.00,WeatherDisplay:10.37,2013-10-30 02:45:00,
2013-10-29 22:46:00,31.1,27.4,30.34,East,95,0.0,1.2,86,0.00,CLR,OVC,0.00,WeatherDisplay:10.37,2013-10-30 02:46:00,
2013-10-29 22:47:00,31.1,27.4,30.34,East,95,0.0,0.0,86,0.00,CLR,OVC,0.00,WeatherDisplay:10.37,2013-10-30 02:47:00,
2013-10-29 22:48:00,31.3,27.6,30.34,East,95,0.0,0.0,86,0.00,CLR,OVC,0.00,WeatherDisplay:10.37,2013-10-30 02:48:00,
2013-10-29 22:49:00,31.3,27.9,30.34,East,95,0.0,0.0,87,0.00,CLR,OVC,0.00,WeatherDisplay:10.37,2013-10-30 02:49:00,
2013-10-29 22:51:00,31.3,27.6,30.34,East,95,0.0,0.0,86,0.00,CLR,OVC,0.00,WeatherDisplay:10.37,2013-10-30 02:51:00,
2013-10-29 22:53:00,31.3,27.6,30.35,East,95,0.0,0.0,86,0.00,CLR,OVC,0.00,WeatherDisplay:10.37,2013-10-30 02:53:00,
2013-10-29 22:54:00,31.3,27.6,30.34,East,95,0.0,0.0,86,0.00,CLR,OVC,0.00,WeatherDisplay:10.37,2013-10-30 02:54:00,
2013-10-29 22:56:00,31.3,27.6,30.34,East,95,0.0,0.0,86,0.00,CLR,OVC,0.00,WeatherDisplay:10.37,2013-10-30 02:56:00,
2013-10-29 22:58:00,31.4,28.0,30.34,East,95,0.0,0.0,87,0.00,CLR,OVC,0.00,WeatherDisplay:10.37,2013-10-30 02:58:00,
2013-10-29 23:00:00,31.4,27.7,30.34,East,95,0.0,0.0,86,0.00,CLR,OVC,0.00,WeatherDisplay:10.37,2013-10-30 03:00:00,
2013-10-29 23:01:00,31.4,27.7,30.34,East,95,0.0,0.0,86,0.00,CLR,OVC,0.00,WeatherDisplay:10.37,2013-10-30 03:01:00,
2013-10-29 23:03:00,31.4,27.7,30.34,East,95,0.0,0.0,86,0.00,CLR,OVC,0.00,WeatherDisplay:10.37,2013-10-30 03:03:00,
2013-10-29 23:05:00,31.4,27.7,30.35,East,95,0.0,0.0,86,0.00,CLR,OVC,0.00,WeatherDisplay:10.37,2013-10-30 03:05:00,
2013-10-29 23:06:00,31.4,27.7,30.34,East,95,0.0,0.0,86,0.00,CLR,OVC,0.00,WeatherDisplay:10.37,2013-10-30 03:06:00,
2013-10-29 23:07:00,31.4,27.7,30.34,East,95,0.0,0.0,86,0.00,CLR,OVC,0.00,WeatherDisplay:10.37,2013-10-30 03:07:00,
2013-10-29 23:08:00,31.4,27.7,30.34,East,95,0.0,0.0,86,0.00,CLR,OVC,0.00,WeatherDisplay:10.37,2013-10-30 03:08:00,
2013-10-29 23:10:00,31.5,27.8,30.34,East,95,0.0,0.0,86,0.00,CLR,OVC,0.00,WeatherDisplay:10.37,2013-10-30 03:10:00,
2013-10-29 23:11:00,31.4,27.7,30.34,East,95,0.0,0.0,86,0.00,CLR,OVC,0.00,WeatherDisplay:10.37,2013-10-30 03:11:00,
2013-10-29 23:12:00,31.4,27.7,30.34,East,95,0.0,0.0,86,0.00,CLR,OVC,0.00,WeatherDisplay:10.37,2013-10-30 03:12:00,
2013-10-29 23:13:00,31.4,27.7,30.34,East,95,0.0,0.0,86,0.00,CLR,OVC,0.00,WeatherDisplay:10.37,2013-10-30 03:13:00,
2013-10-29 23:14:00,31.4,27.7,30.34,East,95,0.0,0.0,86,0.00,CLR,OVC,0.00,WeatherDisplay:10.37,2013-10-30 03:14:00,
2013-10-29 23:15:00,31.4,27.7,30.34,East,95,0.0,0.0,86,0.00,CLR,OVC,0.00,WeatherDisplay:10.37,2013-10-30 03:15:00,
2013-10-29 23:16:00,31.4,27.7,30.34,East,95,0.0,0.0,86,0.00,CLR,OVC,0.00,WeatherDisplay:10.37,2013-10-30 03:16:00,
2013-10-29 23:17:00,31.2,27.5,30.34,East,95,0.0,0.0,86,0.00,CLR,OVC,0.00,WeatherDisplay:10.37,2013-10-30 03:17:00,
2013-10-29 23:18:00,30.9,27.2,30.34,East,95,0.0,0.0,86,0.00,CLR,OVC,0.00,WeatherDisplay:10.37,2013-10-30 03:18:00,
2013-10-29 23:19:00,30.9,27.2,30.34,East,95,0.0,0.0,86,0.00,CLR,OVC,0.00,WeatherDisplay:10.37,2013-10-30 03:19:00,
2013-10-29 23:20:00,30.8,27.1,30.34,East,95,0.0,0.0,86,0.00,CLR,OVC,0.00,WeatherDisplay:10.37,2013-10-30 03:20:00,
2013-10-29 23:21:00,30.9,27.2,30.34,East,95,0.0,0.0,86,0.00,CLR,OVC,0.00,WeatherDisplay:10.37,2013-10-30 03:21:00,
2013-10-29 23:22:00,30.9,27.2,30.34,East,95,0.0,0.0,86,0.00,CLR,OVC,0.00,WeatherDisplay:10.37,2013-10-30 03:22:00,
2013-10-29 23:23:00,31.0,27.3,30.34,East,95,0.0,0.0,86,0.00,CLR,OVC,0.00,WeatherDisplay:10.37,2013-10-30 03:23:00,
2013-10-29 23:24:00,31.0,27.3,30.34,East,95,0.0,0.0,86,0.00,CLR,OVC,0.00,WeatherDisplay:10.37,2013-10-30 03:24:00,
2013-10-29 23:25:00,31.0,27.3,30.34,East,95,0.0,0.0,86,0.00,CLR,OVC,0.00,WeatherDisplay:10.37,2013-10-30 03:25:00,
2013-10-29 23:27:00,31.0,27.3,30.34,East,95,0.0,0.0,86,0.00,CLR,OVC,0.00,WeatherDisplay:10.37,2013-10-30 03:27:00,
2013-10-29 23:29:00,31.0,27.3,30.34,East,95,0.0,0.0,86,0.00,CLR,OVC,0.00,WeatherDisplay:10.37,2013-10-30 03:29:00,
2013-10-29 23:30:00,31.0,27.3,30.34,East,95,0.0,0.0,86,0.00,CLR,OVC,0.00,WeatherDisplay:10.37,2013-10-30 03:30:00,
2013-10-29 23:32:00,31.0,27.0,30.34,East,95,0.0,0.0,85,0.00,CLR,OVC,0.00,WeatherDisplay:10.37,2013-10-30 03:32:00,
2013-10-29 23:34:00,31.0,27.3,30.33,East,95,0.0,0.0,86,0.00,CLR,OVC,0.00,WeatherDisplay:10.37,2013-10-30 03:34:00,
2013-10-29 23:35:00,31.1,27.4,30.34,East,95,0.0,0.0,86,0.00,CLR,OVC,0.00,WeatherDisplay:10.37,2013-10-30 03:35:00,
2013-10-29 23:36:00,31.0,27.0,30.33,East,95,0.0,0.0,85,0.00,CLR,OVC,0.00,WeatherDisplay:10.37,2013-10-30 03:36:00,
2013-10-29 23:37:00,31.0,27.3,30.33,East,95,0.0,0.0,86,0.00,CLR,OVC,0.00,WeatherDisplay:10.37,2013-10-30 03:37:00,
2013-10-29 23:38:00,31.0,27.3,30.33,East,95,0.0,0.0,86,0.00,CLR,OVC,0.00,WeatherDisplay:10.37,2013-10-30 03:38:00,
2013-10-29 23:39:00,31.0,27.3,30.33,East,95,0.0,0.0,86,0.00,CLR,OVC,0.00,WeatherDisplay:10.37,2013-10-30 03:39:00,
2013-10-29 23:40:00,31.0,27.3,30.33,East,95,0.0,0.0,86,0.00,CLR,OVC,0.00,WeatherDisplay:10.37,2013-10-30 03:40:00,
2013-10-29 23:41:00,31.0,27.3,30.33,East,95,0.0,0.0,86,0.00,CLR,OVC,0.00,WeatherDisplay:10.37,2013-10-30 03:41:00,
2013-10-29 23:42:00,31.0,27.3,30.33,East,95,0.0,0.0,86,0.00,CLR,OVC,0.00,WeatherDisplay:10.37,2013-10-30 03:42:00,
2013-10-29 23:43:00,31.0,27.3,30.33,East,95,0.0,0.0,86,0.00,CLR,OVC,0.00,WeatherDisplay:10.37,2013-10-30 03:43:00,
2013-10-29 23:45:00,31.0,27.3,30.33,East,95,0.0,0.0,86,0.00,CLR,OVC,0.00,WeatherDisplay:10.37,2013-10-30 03:45:00,
2013-10-29 23:46:00,30.9,27.2,30.33,East,95,0.0,0.0,86,0.00,CLR,OVC,0.00,WeatherDisplay:10.37,2013-10-30 03:46:00,
2013-10-29 23:47:00,31.0,27.3,30.33,East,95,0.0,0.0,86,0.00,CLR,OVC,0.00,WeatherDisplay:10.37,2013-10-30 03:47:00,
2013-10-29 23:48:00,31.0,27.3,30.33,East,95,0.0,0.0,86,0.00,CLR,OVC,0.00,WeatherDisplay:10.37,2013-10-30 03:48:00,
2013-10-29 23:50:00,31.0,27.3,30.33,East,95,0.0,0.0,86,0.00,CLR,OVC,0.00,WeatherDisplay:10.37,2013-10-30 03:50:00,
2013-10-29 23:51:00,31.0,27.3,30.33,East,95,0.0,0.0,86,0.00,CLR,OVC,0.00,WeatherDisplay:10.37,2013-10-30 03:51:00,
2013-10-29 23:53:00,30.9,27.2,30.32,East,95,0.0,0.0,86,0.00,CLR,OVC,0.00,WeatherDisplay:10.37,2013-10-30 03:53:00,
2013-10-29 23:54:00,30.9,27.2,30.33,East,95,0.0,0.0,86,0.00,CLR,OVC,0.00,WeatherDisplay:10.37,2013-10-30 03:54:00,
2013-10-29 23:55:00,30.9,27.2,30.32,East,95,0.0,0.0,86,0.00,CLR,OVC,0.00,WeatherDisplay:10.37,2013-10-30 03:55:00,
2013-10-29 23:56:00,30.9,27.2,30.32,East,95,0.0,0.0,86,0.00,CLR,OVC,0.00,WeatherDisplay:10.37,2013-10-30 03:56:00,
2013-10-29 23:57:00,30.9,27.2,30.32,East,95,0.0,0.0,86,0.00,CLR,OVC,0.00,WeatherDisplay:10.37,2013-10-30 03:57:00,
2013-10-29 23:58:00,30.9,27.2,30.32,East,95,0.0,0.0,86,0.00,CLR,OVC,0.00,WeatherDisplay:10.37,2013-10-30 03:58:00,
2013-10-29 23:59:00,30.9,27.2,30.32,East,95,0.0,0.0,86,0.00,CLR,OVC,0.00,WeatherDisplay:10.37,2013-10-30 03:59:00,